<gpx creator="Cyclotour.ca" version="1.1" xmlns:gpsies="http://www.gpsies.com/GPX/1/0" xmlns:xsi="http://www.w3.org/2001/XMLSchema-instance" xmlns="http://www.topografix.com/GPX/1/1" xsi:schemaLocation="http://www.topografix.com/GPX/1/1 http://www.topografix.com/GPX/1/1/gpx.xsd http://www.gpsies.com/GPX/1/0 http://www.gpsies.com/gpsies.xsd">
<trk>
<name>MCC - Shawinigan - St-Elie de Caxton 2023</name>
<trkseg>
<trkpt lat="46.563290000" lon="-72.756300000">
<ele>0</ele>
<time>2026-09-04T06:29:55Z</time>
</trkpt>
<trkpt lat="46.563510000" lon="-72.756180000">
<ele>0</ele>
<time>2026-09-04T06:29:56Z</time>
</trkpt>
<trkpt lat="46.563830000" lon="-72.756130000">
<ele>0</ele>
<time>2026-09-04T06:29:57Z</time>
</trkpt>
<trkpt lat="46.564090000" lon="-72.755820000">
<ele>0</ele>
<time>2026-09-04T06:29:58Z</time>
</trkpt>
<trkpt lat="46.564750000" lon="-72.755210000">
<ele>0</ele>
<time>2026-09-04T06:29:59Z</time>
</trkpt>
<trkpt lat="46.564910000" lon="-72.755100000">
<ele>0</ele>
<time>2026-09-04T06:30:00Z</time>
</trkpt>
<trkpt lat="46.565090000" lon="-72.755010000">
<ele>0</ele>
<time>2026-09-04T06:30:01Z</time>
</trkpt>
<trkpt lat="46.565260000" lon="-72.754970000">
<ele>0</ele>
<time>2026-09-04T06:30:02Z</time>
</trkpt>
<trkpt lat="46.565430000" lon="-72.754930000">
<ele>0</ele>
<time>2026-09-04T06:30:03Z</time>
</trkpt>
<trkpt lat="46.565610000" lon="-72.754880000">
<ele>0</ele>
<time>2026-09-04T06:30:04Z</time>
</trkpt>
<trkpt lat="46.565800000" lon="-72.754860000">
<ele>0</ele>
<time>2026-09-04T06:30:05Z</time>
</trkpt>
<trkpt lat="46.565900000" lon="-72.754880000">
<ele>0</ele>
<time>2026-09-04T06:30:06Z</time>
</trkpt>
<trkpt lat="46.565960000" lon="-72.754960000">
<ele>0</ele>
<time>2026-09-04T06:30:07Z</time>
</trkpt>
<trkpt lat="46.566200000" lon="-72.755320000">
<ele>0</ele>
<time>2026-09-04T06:30:08Z</time>
</trkpt>
<trkpt lat="46.566320000" lon="-72.755520000">
<ele>0</ele>
<time>2026-09-04T06:30:09Z</time>
</trkpt>
<trkpt lat="46.566380000" lon="-72.755760000">
<ele>0</ele>
<time>2026-09-04T06:30:10Z</time>
</trkpt>
<trkpt lat="46.566650000" lon="-72.756110000">
<ele>0</ele>
<time>2026-09-04T06:30:11Z</time>
</trkpt>
<trkpt lat="46.566940000" lon="-72.756430000">
<ele>0</ele>
<time>2026-09-04T06:30:12Z</time>
</trkpt>
<trkpt lat="46.567060000" lon="-72.756550000">
<ele>0</ele>
<time>2026-09-04T06:30:13Z</time>
</trkpt>
<trkpt lat="46.567260000" lon="-72.756620000">
<ele>0</ele>
<time>2026-09-04T06:30:14Z</time>
</trkpt>
<trkpt lat="46.567620000" lon="-72.756650000">
<ele>0</ele>
<time>2026-09-04T06:30:15Z</time>
</trkpt>
<trkpt lat="46.567720000" lon="-72.756660000">
<ele>0</ele>
<time>2026-09-04T06:30:16Z</time>
</trkpt>
<trkpt lat="46.567920000" lon="-72.756410000">
<ele>0</ele>
<time>2026-09-04T06:30:17Z</time>
</trkpt>
<trkpt lat="46.568080000" lon="-72.756220000">
<ele>0</ele>
<time>2026-09-04T06:30:18Z</time>
</trkpt>
<trkpt lat="46.568200000" lon="-72.755850000">
<ele>0</ele>
<time>2026-09-04T06:30:19Z</time>
</trkpt>
<trkpt lat="46.568390000" lon="-72.755110000">
<ele>0</ele>
<time>2026-09-04T06:30:20Z</time>
</trkpt>
<trkpt lat="46.568450000" lon="-72.754790000">
<ele>0</ele>
<time>2026-09-04T06:30:21Z</time>
</trkpt>
<trkpt lat="46.568520000" lon="-72.754210000">
<ele>0</ele>
<time>2026-09-04T06:30:22Z</time>
</trkpt>
<trkpt lat="46.568630000" lon="-72.753940000">
<ele>0</ele>
<time>2026-09-04T06:30:23Z</time>
</trkpt>
<trkpt lat="46.568890000" lon="-72.753490000">
<ele>0</ele>
<time>2026-09-04T06:30:24Z</time>
</trkpt>
<trkpt lat="46.569030000" lon="-72.753390000">
<ele>0</ele>
<time>2026-09-04T06:30:25Z</time>
</trkpt>
<trkpt lat="46.569300000" lon="-72.753400000">
<ele>0</ele>
<time>2026-09-04T06:30:26Z</time>
</trkpt>
<trkpt lat="46.569630000" lon="-72.753540000">
<ele>0</ele>
<time>2026-09-04T06:30:27Z</time>
</trkpt>
<trkpt lat="46.569630000" lon="-72.753540000">
<ele>0</ele>
<time>2026-09-04T06:30:28Z</time>
</trkpt>
<trkpt lat="46.569880000" lon="-72.753680000">
<ele>0</ele>
<time>2026-09-04T06:30:29Z</time>
</trkpt>
<trkpt lat="46.570360000" lon="-72.753850000">
<ele>0</ele>
<time>2026-09-04T06:30:30Z</time>
</trkpt>
<trkpt lat="46.570940000" lon="-72.754120000">
<ele>0</ele>
<time>2026-09-04T06:30:31Z</time>
</trkpt>
<trkpt lat="46.571080000" lon="-72.754140000">
<ele>0</ele>
<time>2026-09-04T06:30:32Z</time>
</trkpt>
<trkpt lat="46.571220000" lon="-72.754140000">
<ele>0</ele>
<time>2026-09-04T06:30:33Z</time>
</trkpt>
<trkpt lat="46.571400000" lon="-72.754060000">
<ele>0</ele>
<time>2026-09-04T06:30:34Z</time>
</trkpt>
<trkpt lat="46.571890000" lon="-72.753740000">
<ele>0</ele>
<time>2026-09-04T06:30:35Z</time>
</trkpt>
<trkpt lat="46.572450000" lon="-72.753330000">
<ele>0</ele>
<time>2026-09-04T06:30:36Z</time>
</trkpt>
<trkpt lat="46.572800000" lon="-72.752920000">
<ele>0</ele>
<time>2026-09-04T06:30:37Z</time>
</trkpt>
<trkpt lat="46.573020000" lon="-72.752720000">
<ele>0</ele>
<time>2026-09-04T06:30:38Z</time>
</trkpt>
<trkpt lat="46.573200000" lon="-72.752610000">
<ele>0</ele>
<time>2026-09-04T06:30:39Z</time>
</trkpt>
<trkpt lat="46.573720000" lon="-72.752430000">
<ele>0</ele>
<time>2026-09-04T06:30:40Z</time>
</trkpt>
<trkpt lat="46.573990000" lon="-72.752380000">
<ele>0</ele>
<time>2026-09-04T06:30:41Z</time>
</trkpt>
<trkpt lat="46.574530000" lon="-72.752320000">
<ele>0</ele>
<time>2026-09-04T06:30:42Z</time>
</trkpt>
<trkpt lat="46.575210000" lon="-72.752260000">
<ele>0</ele>
<time>2026-09-04T06:30:43Z</time>
</trkpt>
<trkpt lat="46.575440000" lon="-72.752280000">
<ele>0</ele>
<time>2026-09-04T06:30:44Z</time>
</trkpt>
<trkpt lat="46.575610000" lon="-72.752390000">
<ele>0</ele>
<time>2026-09-04T06:30:45Z</time>
</trkpt>
<trkpt lat="46.576100000" lon="-72.752260000">
<ele>0</ele>
<time>2026-09-04T06:30:46Z</time>
</trkpt>
<trkpt lat="46.576250000" lon="-72.752260000">
<ele>0</ele>
<time>2026-09-04T06:30:47Z</time>
</trkpt>
<trkpt lat="46.576480000" lon="-72.752340000">
<ele>0</ele>
<time>2026-09-04T06:30:48Z</time>
</trkpt>
<trkpt lat="46.576790000" lon="-72.752380000">
<ele>0</ele>
<time>2026-09-04T06:30:49Z</time>
</trkpt>
<trkpt lat="46.576820000" lon="-72.752420000">
<ele>0</ele>
<time>2026-09-04T06:30:50Z</time>
</trkpt>
<trkpt lat="46.576980000" lon="-72.752680000">
<ele>0</ele>
<time>2026-09-04T06:30:51Z</time>
</trkpt>
<trkpt lat="46.577090000" lon="-72.752760000">
<ele>0</ele>
<time>2026-09-04T06:30:52Z</time>
</trkpt>
<trkpt lat="46.577240000" lon="-72.752740000">
<ele>0</ele>
<time>2026-09-04T06:30:53Z</time>
</trkpt>
<trkpt lat="46.577360000" lon="-72.752630000">
<ele>0</ele>
<time>2026-09-04T06:30:54Z</time>
</trkpt>
<trkpt lat="46.577500000" lon="-72.752530000">
<ele>0</ele>
<time>2026-09-04T06:30:55Z</time>
</trkpt>
<trkpt lat="46.577670000" lon="-72.752560000">
<ele>0</ele>
<time>2026-09-04T06:30:56Z</time>
</trkpt>
<trkpt lat="46.577890000" lon="-72.752650000">
<ele>0</ele>
<time>2026-09-04T06:30:57Z</time>
</trkpt>
<trkpt lat="46.578100000" lon="-72.752680000">
<ele>0</ele>
<time>2026-09-04T06:30:58Z</time>
</trkpt>
<trkpt lat="46.578310000" lon="-72.752650000">
<ele>0</ele>
<time>2026-09-04T06:30:59Z</time>
</trkpt>
<trkpt lat="46.578570000" lon="-72.752530000">
<ele>0</ele>
<time>2026-09-04T06:31:00Z</time>
</trkpt>
<trkpt lat="46.578780000" lon="-72.752500000">
<ele>0</ele>
<time>2026-09-04T06:31:01Z</time>
</trkpt>
<trkpt lat="46.578980000" lon="-72.752520000">
<ele>0</ele>
<time>2026-09-04T06:31:02Z</time>
</trkpt>
<trkpt lat="46.579060000" lon="-72.752540000">
<ele>0</ele>
<time>2026-09-04T06:31:03Z</time>
</trkpt>
<trkpt lat="46.579220000" lon="-72.752470000">
<ele>0</ele>
<time>2026-09-04T06:31:04Z</time>
</trkpt>
<trkpt lat="46.579380000" lon="-72.752390000">
<ele>0</ele>
<time>2026-09-04T06:31:05Z</time>
</trkpt>
<trkpt lat="46.579530000" lon="-72.752340000">
<ele>0</ele>
<time>2026-09-04T06:31:06Z</time>
</trkpt>
<trkpt lat="46.579750000" lon="-72.752350000">
<ele>0</ele>
<time>2026-09-04T06:31:07Z</time>
</trkpt>
<trkpt lat="46.579970000" lon="-72.752480000">
<ele>0</ele>
<time>2026-09-04T06:31:08Z</time>
</trkpt>
<trkpt lat="46.580160000" lon="-72.752490000">
<ele>0</ele>
<time>2026-09-04T06:31:09Z</time>
</trkpt>
<trkpt lat="46.580340000" lon="-72.752540000">
<ele>0</ele>
<time>2026-09-04T06:31:10Z</time>
</trkpt>
<trkpt lat="46.580540000" lon="-72.752570000">
<ele>0</ele>
<time>2026-09-04T06:31:11Z</time>
</trkpt>
<trkpt lat="46.580700000" lon="-72.752640000">
<ele>0</ele>
<time>2026-09-04T06:31:12Z</time>
</trkpt>
<trkpt lat="46.581090000" lon="-72.752860000">
<ele>0</ele>
<time>2026-09-04T06:31:13Z</time>
</trkpt>
<trkpt lat="46.581160000" lon="-72.752910000">
<ele>0</ele>
<time>2026-09-04T06:31:14Z</time>
</trkpt>
<trkpt lat="46.581160000" lon="-72.752910000">
<ele>0</ele>
<time>2026-09-04T06:31:15Z</time>
</trkpt>
<trkpt lat="46.581290000" lon="-72.752990000">
<ele>0</ele>
<time>2026-09-04T06:31:16Z</time>
</trkpt>
<trkpt lat="46.581470000" lon="-72.753030000">
<ele>0</ele>
<time>2026-09-04T06:31:17Z</time>
</trkpt>
<trkpt lat="46.581750000" lon="-72.753260000">
<ele>0</ele>
<time>2026-09-04T06:31:18Z</time>
</trkpt>
<trkpt lat="46.582110000" lon="-72.753320000">
<ele>0</ele>
<time>2026-09-04T06:31:19Z</time>
</trkpt>
<trkpt lat="46.582160000" lon="-72.753330000">
<ele>0</ele>
<time>2026-09-04T06:31:20Z</time>
</trkpt>
<trkpt lat="46.582260000" lon="-72.753440000">
<ele>0</ele>
<time>2026-09-04T06:31:21Z</time>
</trkpt>
<trkpt lat="46.582330000" lon="-72.753680000">
<ele>0</ele>
<time>2026-09-04T06:31:22Z</time>
</trkpt>
<trkpt lat="46.582360000" lon="-72.753950000">
<ele>0</ele>
<time>2026-09-04T06:31:23Z</time>
</trkpt>
<trkpt lat="46.582350000" lon="-72.754060000">
<ele>0</ele>
<time>2026-09-04T06:31:24Z</time>
</trkpt>
<trkpt lat="46.582420000" lon="-72.754150000">
<ele>0</ele>
<time>2026-09-04T06:31:25Z</time>
</trkpt>
<trkpt lat="46.582540000" lon="-72.754340000">
<ele>0</ele>
<time>2026-09-04T06:31:26Z</time>
</trkpt>
<trkpt lat="46.582640000" lon="-72.754560000">
<ele>0</ele>
<time>2026-09-04T06:31:27Z</time>
</trkpt>
<trkpt lat="46.582650000" lon="-72.754720000">
<ele>0</ele>
<time>2026-09-04T06:31:28Z</time>
</trkpt>
<trkpt lat="46.582780000" lon="-72.754970000">
<ele>0</ele>
<time>2026-09-04T06:31:29Z</time>
</trkpt>
<trkpt lat="46.582920000" lon="-72.755190000">
<ele>0</ele>
<time>2026-09-04T06:31:30Z</time>
</trkpt>
<trkpt lat="46.583090000" lon="-72.755320000">
<ele>0</ele>
<time>2026-09-04T06:31:31Z</time>
</trkpt>
<trkpt lat="46.583200000" lon="-72.755430000">
<ele>0</ele>
<time>2026-09-04T06:31:32Z</time>
</trkpt>
<trkpt lat="46.583420000" lon="-72.755510000">
<ele>0</ele>
<time>2026-09-04T06:31:33Z</time>
</trkpt>
<trkpt lat="46.583550000" lon="-72.755610000">
<ele>0</ele>
<time>2026-09-04T06:31:34Z</time>
</trkpt>
<trkpt lat="46.583560000" lon="-72.755650000">
<ele>0</ele>
<time>2026-09-04T06:31:35Z</time>
</trkpt>
<trkpt lat="46.583590000" lon="-72.756230000">
<ele>0</ele>
<time>2026-09-04T06:31:36Z</time>
</trkpt>
<trkpt lat="46.583530000" lon="-72.756420000">
<ele>0</ele>
<time>2026-09-04T06:31:37Z</time>
</trkpt>
<trkpt lat="46.583420000" lon="-72.756610000">
<ele>0</ele>
<time>2026-09-04T06:31:38Z</time>
</trkpt>
<trkpt lat="46.583410000" lon="-72.756860000">
<ele>0</ele>
<time>2026-09-04T06:31:39Z</time>
</trkpt>
<trkpt lat="46.583400000" lon="-72.757050000">
<ele>0</ele>
<time>2026-09-04T06:31:40Z</time>
</trkpt>
<trkpt lat="46.583440000" lon="-72.757210000">
<ele>0</ele>
<time>2026-09-04T06:31:41Z</time>
</trkpt>
<trkpt lat="46.583440000" lon="-72.757210000">
<ele>0</ele>
<time>2026-09-04T06:31:42Z</time>
</trkpt>
<trkpt lat="46.583730000" lon="-72.757730000">
<ele>0</ele>
<time>2026-09-04T06:31:43Z</time>
</trkpt>
<trkpt lat="46.584130000" lon="-72.757440000">
<ele>0</ele>
<time>2026-09-04T06:31:44Z</time>
</trkpt>
<trkpt lat="46.584300000" lon="-72.757350000">
<ele>0</ele>
<time>2026-09-04T06:31:45Z</time>
</trkpt>
<trkpt lat="46.584980000" lon="-72.757000000">
<ele>0</ele>
<time>2026-09-04T06:31:46Z</time>
</trkpt>
<trkpt lat="46.585320000" lon="-72.756830000">
<ele>0</ele>
<time>2026-09-04T06:31:47Z</time>
</trkpt>
<trkpt lat="46.586010000" lon="-72.756540000">
<ele>0</ele>
<time>2026-09-04T06:31:48Z</time>
</trkpt>
<trkpt lat="46.586700000" lon="-72.756270000">
<ele>0</ele>
<time>2026-09-04T06:31:49Z</time>
</trkpt>
<trkpt lat="46.587280000" lon="-72.756060000">
<ele>0</ele>
<time>2026-09-04T06:31:50Z</time>
</trkpt>
<trkpt lat="46.587280000" lon="-72.756060000">
<ele>0</ele>
<time>2026-09-04T06:31:51Z</time>
</trkpt>
<trkpt lat="46.587570000" lon="-72.755960000">
<ele>0</ele>
<time>2026-09-04T06:31:52Z</time>
</trkpt>
<trkpt lat="46.587710000" lon="-72.756280000">
<ele>0</ele>
<time>2026-09-04T06:31:53Z</time>
</trkpt>
<trkpt lat="46.587820000" lon="-72.756520000">
<ele>0</ele>
<time>2026-09-04T06:31:54Z</time>
</trkpt>
<trkpt lat="46.588360000" lon="-72.757650000">
<ele>0</ele>
<time>2026-09-04T06:31:55Z</time>
</trkpt>
<trkpt lat="46.588670000" lon="-72.758210000">
<ele>0</ele>
<time>2026-09-04T06:31:56Z</time>
</trkpt>
<trkpt lat="46.589050000" lon="-72.758800000">
<ele>0</ele>
<time>2026-09-04T06:31:57Z</time>
</trkpt>
<trkpt lat="46.591930000" lon="-72.763130000">
<ele>0</ele>
<time>2026-09-04T06:31:58Z</time>
</trkpt>
<trkpt lat="46.593930000" lon="-72.766140000">
<ele>0</ele>
<time>2026-09-04T06:31:59Z</time>
</trkpt>
<trkpt lat="46.594430000" lon="-72.766890000">
<ele>0</ele>
<time>2026-09-04T06:32:00Z</time>
</trkpt>
<trkpt lat="46.594670000" lon="-72.767280000">
<ele>0</ele>
<time>2026-09-04T06:32:01Z</time>
</trkpt>
<trkpt lat="46.594890000" lon="-72.767690000">
<ele>0</ele>
<time>2026-09-04T06:32:02Z</time>
</trkpt>
<trkpt lat="46.595220000" lon="-72.768310000">
<ele>0</ele>
<time>2026-09-04T06:32:03Z</time>
</trkpt>
<trkpt lat="46.595590000" lon="-72.768880000">
<ele>0</ele>
<time>2026-09-04T06:32:04Z</time>
</trkpt>
<trkpt lat="46.596840000" lon="-72.770390000">
<ele>0</ele>
<time>2026-09-04T06:32:05Z</time>
</trkpt>
<trkpt lat="46.597440000" lon="-72.771090000">
<ele>0</ele>
<time>2026-09-04T06:32:06Z</time>
</trkpt>
<trkpt lat="46.597440000" lon="-72.771090000">
<ele>0</ele>
<time>2026-09-04T06:32:07Z</time>
</trkpt>
<trkpt lat="46.600440000" lon="-72.774730000">
<ele>0</ele>
<time>2026-09-04T06:32:08Z</time>
</trkpt>
<trkpt lat="46.601150000" lon="-72.775540000">
<ele>0</ele>
<time>2026-09-04T06:32:09Z</time>
</trkpt>
<trkpt lat="46.601530000" lon="-72.775970000">
<ele>0</ele>
<time>2026-09-04T06:32:10Z</time>
</trkpt>
<trkpt lat="46.602090000" lon="-72.776510000">
<ele>0</ele>
<time>2026-09-04T06:32:11Z</time>
</trkpt>
<trkpt lat="46.602330000" lon="-72.776750000">
<ele>0</ele>
<time>2026-09-04T06:32:12Z</time>
</trkpt>
<trkpt lat="46.603360000" lon="-72.777790000">
<ele>0</ele>
<time>2026-09-04T06:32:13Z</time>
</trkpt>
<trkpt lat="46.603800000" lon="-72.778250000">
<ele>0</ele>
<time>2026-09-04T06:32:14Z</time>
</trkpt>
<trkpt lat="46.604410000" lon="-72.778970000">
<ele>0</ele>
<time>2026-09-04T06:32:15Z</time>
</trkpt>
<trkpt lat="46.605150000" lon="-72.779860000">
<ele>0</ele>
<time>2026-09-04T06:32:16Z</time>
</trkpt>
<trkpt lat="46.605990000" lon="-72.780960000">
<ele>0</ele>
<time>2026-09-04T06:32:17Z</time>
</trkpt>
<trkpt lat="46.606340000" lon="-72.781410000">
<ele>0</ele>
<time>2026-09-04T06:32:18Z</time>
</trkpt>
<trkpt lat="46.606890000" lon="-72.782220000">
<ele>0</ele>
<time>2026-09-04T06:32:19Z</time>
</trkpt>
<trkpt lat="46.608040000" lon="-72.783900000">
<ele>0</ele>
<time>2026-09-04T06:32:20Z</time>
</trkpt>
<trkpt lat="46.608670000" lon="-72.784830000">
<ele>0</ele>
<time>2026-09-04T06:32:21Z</time>
</trkpt>
<trkpt lat="46.609220000" lon="-72.785610000">
<ele>0</ele>
<time>2026-09-04T06:32:22Z</time>
</trkpt>
<trkpt lat="46.609850000" lon="-72.786680000">
<ele>0</ele>
<time>2026-09-04T06:32:23Z</time>
</trkpt>
<trkpt lat="46.610320000" lon="-72.787230000">
<ele>0</ele>
<time>2026-09-04T06:32:24Z</time>
</trkpt>
<trkpt lat="46.610810000" lon="-72.787740000">
<ele>0</ele>
<time>2026-09-04T06:32:25Z</time>
</trkpt>
<trkpt lat="46.611180000" lon="-72.788190000">
<ele>0</ele>
<time>2026-09-04T06:32:26Z</time>
</trkpt>
<trkpt lat="46.611720000" lon="-72.788870000">
<ele>0</ele>
<time>2026-09-04T06:32:27Z</time>
</trkpt>
<trkpt lat="46.612250000" lon="-72.789570000">
<ele>0</ele>
<time>2026-09-04T06:32:28Z</time>
</trkpt>
<trkpt lat="46.612710000" lon="-72.790180000">
<ele>0</ele>
<time>2026-09-04T06:32:29Z</time>
</trkpt>
<trkpt lat="46.612950000" lon="-72.790390000">
<ele>0</ele>
<time>2026-09-04T06:32:30Z</time>
</trkpt>
<trkpt lat="46.613130000" lon="-72.790540000">
<ele>0</ele>
<time>2026-09-04T06:32:31Z</time>
</trkpt>
<trkpt lat="46.613620000" lon="-72.790830000">
<ele>0</ele>
<time>2026-09-04T06:32:32Z</time>
</trkpt>
<trkpt lat="46.613990000" lon="-72.790990000">
<ele>0</ele>
<time>2026-09-04T06:32:33Z</time>
</trkpt>
<trkpt lat="46.614660000" lon="-72.791150000">
<ele>0</ele>
<time>2026-09-04T06:32:34Z</time>
</trkpt>
<trkpt lat="46.614870000" lon="-72.791200000">
<ele>0</ele>
<time>2026-09-04T06:32:35Z</time>
</trkpt>
<trkpt lat="46.615190000" lon="-72.791320000">
<ele>0</ele>
<time>2026-09-04T06:32:36Z</time>
</trkpt>
<trkpt lat="46.615410000" lon="-72.791580000">
<ele>0</ele>
<time>2026-09-04T06:32:37Z</time>
</trkpt>
<trkpt lat="46.615520000" lon="-72.791760000">
<ele>0</ele>
<time>2026-09-04T06:32:38Z</time>
</trkpt>
<trkpt lat="46.615630000" lon="-72.791980000">
<ele>0</ele>
<time>2026-09-04T06:32:39Z</time>
</trkpt>
<trkpt lat="46.615720000" lon="-72.792240000">
<ele>0</ele>
<time>2026-09-04T06:32:40Z</time>
</trkpt>
<trkpt lat="46.615770000" lon="-72.792460000">
<ele>0</ele>
<time>2026-09-04T06:32:41Z</time>
</trkpt>
<trkpt lat="46.615850000" lon="-72.792890000">
<ele>0</ele>
<time>2026-09-04T06:32:42Z</time>
</trkpt>
<trkpt lat="46.615930000" lon="-72.793330000">
<ele>0</ele>
<time>2026-09-04T06:32:43Z</time>
</trkpt>
<trkpt lat="46.615940000" lon="-72.793740000">
<ele>0</ele>
<time>2026-09-04T06:32:44Z</time>
</trkpt>
<trkpt lat="46.615910000" lon="-72.794040000">
<ele>0</ele>
<time>2026-09-04T06:32:45Z</time>
</trkpt>
<trkpt lat="46.615870000" lon="-72.794250000">
<ele>0</ele>
<time>2026-09-04T06:32:46Z</time>
</trkpt>
<trkpt lat="46.615790000" lon="-72.794530000">
<ele>0</ele>
<time>2026-09-04T06:32:47Z</time>
</trkpt>
<trkpt lat="46.615680000" lon="-72.794780000">
<ele>0</ele>
<time>2026-09-04T06:32:48Z</time>
</trkpt>
<trkpt lat="46.615520000" lon="-72.795100000">
<ele>0</ele>
<time>2026-09-04T06:32:49Z</time>
</trkpt>
<trkpt lat="46.615220000" lon="-72.795570000">
<ele>0</ele>
<time>2026-09-04T06:32:50Z</time>
</trkpt>
<trkpt lat="46.614840000" lon="-72.796210000">
<ele>0</ele>
<time>2026-09-04T06:32:51Z</time>
</trkpt>
<trkpt lat="46.614840000" lon="-72.796210000">
<ele>0</ele>
<time>2026-09-04T06:32:52Z</time>
</trkpt>
<trkpt lat="46.613880000" lon="-72.797790000">
<ele>0</ele>
<time>2026-09-04T06:32:53Z</time>
</trkpt>
<trkpt lat="46.613560000" lon="-72.798310000">
<ele>0</ele>
<time>2026-09-04T06:32:54Z</time>
</trkpt>
<trkpt lat="46.613610000" lon="-72.798560000">
<ele>0</ele>
<time>2026-09-04T06:32:55Z</time>
</trkpt>
<trkpt lat="46.613760000" lon="-72.799450000">
<ele>0</ele>
<time>2026-09-04T06:32:56Z</time>
</trkpt>
<trkpt lat="46.613780000" lon="-72.799620000">
<ele>0</ele>
<time>2026-09-04T06:32:57Z</time>
</trkpt>
<trkpt lat="46.613790000" lon="-72.799880000">
<ele>0</ele>
<time>2026-09-04T06:32:58Z</time>
</trkpt>
<trkpt lat="46.613790000" lon="-72.799900000">
<ele>0</ele>
<time>2026-09-04T06:32:59Z</time>
</trkpt>
<trkpt lat="46.613790000" lon="-72.799900000">
<ele>0</ele>
<time>2026-09-04T06:33:00Z</time>
</trkpt>
<trkpt lat="46.613760000" lon="-72.800100000">
<ele>0</ele>
<time>2026-09-04T06:33:01Z</time>
</trkpt>
<trkpt lat="46.613740000" lon="-72.800170000">
<ele>0</ele>
<time>2026-09-04T06:33:02Z</time>
</trkpt>
<trkpt lat="46.613680000" lon="-72.800240000">
<ele>0</ele>
<time>2026-09-04T06:33:03Z</time>
</trkpt>
<trkpt lat="46.613680000" lon="-72.801090000">
<ele>0</ele>
<time>2026-09-04T06:33:04Z</time>
</trkpt>
<trkpt lat="46.613610000" lon="-72.801260000">
<ele>0</ele>
<time>2026-09-04T06:33:05Z</time>
</trkpt>
<trkpt lat="46.613170000" lon="-72.802080000">
<ele>0</ele>
<time>2026-09-04T06:33:06Z</time>
</trkpt>
<trkpt lat="46.612980000" lon="-72.802360000">
<ele>0</ele>
<time>2026-09-04T06:33:07Z</time>
</trkpt>
<trkpt lat="46.612340000" lon="-72.803090000">
<ele>0</ele>
<time>2026-09-04T06:33:08Z</time>
</trkpt>
<trkpt lat="46.611380000" lon="-72.803790000">
<ele>0</ele>
<time>2026-09-04T06:33:09Z</time>
</trkpt>
<trkpt lat="46.611250000" lon="-72.803860000">
<ele>0</ele>
<time>2026-09-04T06:33:10Z</time>
</trkpt>
<trkpt lat="46.611030000" lon="-72.803790000">
<ele>0</ele>
<time>2026-09-04T06:33:11Z</time>
</trkpt>
<trkpt lat="46.610940000" lon="-72.803780000">
<ele>0</ele>
<time>2026-09-04T06:33:12Z</time>
</trkpt>
<trkpt lat="46.610800000" lon="-72.803930000">
<ele>0</ele>
<time>2026-09-04T06:33:13Z</time>
</trkpt>
<trkpt lat="46.610730000" lon="-72.803950000">
<ele>0</ele>
<time>2026-09-04T06:33:14Z</time>
</trkpt>
<trkpt lat="46.610530000" lon="-72.803930000">
<ele>0</ele>
<time>2026-09-04T06:33:15Z</time>
</trkpt>
<trkpt lat="46.610370000" lon="-72.803930000">
<ele>0</ele>
<time>2026-09-04T06:33:16Z</time>
</trkpt>
<trkpt lat="46.610150000" lon="-72.804010000">
<ele>0</ele>
<time>2026-09-04T06:33:17Z</time>
</trkpt>
<trkpt lat="46.610010000" lon="-72.804170000">
<ele>0</ele>
<time>2026-09-04T06:33:18Z</time>
</trkpt>
<trkpt lat="46.609940000" lon="-72.804210000">
<ele>0</ele>
<time>2026-09-04T06:33:19Z</time>
</trkpt>
<trkpt lat="46.609860000" lon="-72.804210000">
<ele>0</ele>
<time>2026-09-04T06:33:20Z</time>
</trkpt>
<trkpt lat="46.609650000" lon="-72.804180000">
<ele>0</ele>
<time>2026-09-04T06:33:21Z</time>
</trkpt>
<trkpt lat="46.609510000" lon="-72.804380000">
<ele>0</ele>
<time>2026-09-04T06:33:22Z</time>
</trkpt>
<trkpt lat="46.609460000" lon="-72.804430000">
<ele>0</ele>
<time>2026-09-04T06:33:23Z</time>
</trkpt>
<trkpt lat="46.609400000" lon="-72.804440000">
<ele>0</ele>
<time>2026-09-04T06:33:24Z</time>
</trkpt>
<trkpt lat="46.609320000" lon="-72.804440000">
<ele>0</ele>
<time>2026-09-04T06:33:25Z</time>
</trkpt>
<trkpt lat="46.609190000" lon="-72.804570000">
<ele>0</ele>
<time>2026-09-04T06:33:26Z</time>
</trkpt>
<trkpt lat="46.609200000" lon="-72.804760000">
<ele>0</ele>
<time>2026-09-04T06:33:27Z</time>
</trkpt>
<trkpt lat="46.609200000" lon="-72.804840000">
<ele>0</ele>
<time>2026-09-04T06:33:28Z</time>
</trkpt>
<trkpt lat="46.609130000" lon="-72.804900000">
<ele>0</ele>
<time>2026-09-04T06:33:29Z</time>
</trkpt>
<trkpt lat="46.609030000" lon="-72.805000000">
<ele>0</ele>
<time>2026-09-04T06:33:30Z</time>
</trkpt>
<trkpt lat="46.608970000" lon="-72.805360000">
<ele>0</ele>
<time>2026-09-04T06:33:31Z</time>
</trkpt>
<trkpt lat="46.608870000" lon="-72.805570000">
<ele>0</ele>
<time>2026-09-04T06:33:32Z</time>
</trkpt>
<trkpt lat="46.608830000" lon="-72.805880000">
<ele>0</ele>
<time>2026-09-04T06:33:33Z</time>
</trkpt>
<trkpt lat="46.608820000" lon="-72.805990000">
<ele>0</ele>
<time>2026-09-04T06:33:34Z</time>
</trkpt>
<trkpt lat="46.608750000" lon="-72.806130000">
<ele>0</ele>
<time>2026-09-04T06:33:35Z</time>
</trkpt>
<trkpt lat="46.608470000" lon="-72.806140000">
<ele>0</ele>
<time>2026-09-04T06:33:36Z</time>
</trkpt>
<trkpt lat="46.608240000" lon="-72.806280000">
<ele>0</ele>
<time>2026-09-04T06:33:37Z</time>
</trkpt>
<trkpt lat="46.608000000" lon="-72.806500000">
<ele>0</ele>
<time>2026-09-04T06:33:38Z</time>
</trkpt>
<trkpt lat="46.607880000" lon="-72.806820000">
<ele>0</ele>
<time>2026-09-04T06:33:39Z</time>
</trkpt>
<trkpt lat="46.607860000" lon="-72.806890000">
<ele>0</ele>
<time>2026-09-04T06:33:40Z</time>
</trkpt>
<trkpt lat="46.607830000" lon="-72.807340000">
<ele>0</ele>
<time>2026-09-04T06:33:41Z</time>
</trkpt>
<trkpt lat="46.607810000" lon="-72.807650000">
<ele>0</ele>
<time>2026-09-04T06:33:42Z</time>
</trkpt>
<trkpt lat="46.607730000" lon="-72.808250000">
<ele>0</ele>
<time>2026-09-04T06:33:43Z</time>
</trkpt>
<trkpt lat="46.607500000" lon="-72.808680000">
<ele>0</ele>
<time>2026-09-04T06:33:44Z</time>
</trkpt>
<trkpt lat="46.606930000" lon="-72.809450000">
<ele>0</ele>
<time>2026-09-04T06:33:45Z</time>
</trkpt>
<trkpt lat="46.607220000" lon="-72.810120000">
<ele>0</ele>
<time>2026-09-04T06:33:46Z</time>
</trkpt>
<trkpt lat="46.607550000" lon="-72.810940000">
<ele>0</ele>
<time>2026-09-04T06:33:47Z</time>
</trkpt>
<trkpt lat="46.607550000" lon="-72.810940000">
<ele>0</ele>
<time>2026-09-04T06:33:48Z</time>
</trkpt>
<trkpt lat="46.608080000" lon="-72.812420000">
<ele>0</ele>
<time>2026-09-04T06:33:49Z</time>
</trkpt>
<trkpt lat="46.608320000" lon="-72.813080000">
<ele>0</ele>
<time>2026-09-04T06:33:50Z</time>
</trkpt>
<trkpt lat="46.608360000" lon="-72.813390000">
<ele>0</ele>
<time>2026-09-04T06:33:51Z</time>
</trkpt>
<trkpt lat="46.608350000" lon="-72.813580000">
<ele>0</ele>
<time>2026-09-04T06:33:52Z</time>
</trkpt>
<trkpt lat="46.608480000" lon="-72.813860000">
<ele>0</ele>
<time>2026-09-04T06:33:53Z</time>
</trkpt>
<trkpt lat="46.608670000" lon="-72.814220000">
<ele>0</ele>
<time>2026-09-04T06:33:54Z</time>
</trkpt>
<trkpt lat="46.608670000" lon="-72.814220000">
<ele>0</ele>
<time>2026-09-04T06:33:55Z</time>
</trkpt>
<trkpt lat="46.608890000" lon="-72.814830000">
<ele>0</ele>
<time>2026-09-04T06:33:56Z</time>
</trkpt>
<trkpt lat="46.608630000" lon="-72.815100000">
<ele>0</ele>
<time>2026-09-04T06:33:57Z</time>
</trkpt>
<trkpt lat="46.608140000" lon="-72.815940000">
<ele>0</ele>
<time>2026-09-04T06:33:58Z</time>
</trkpt>
<trkpt lat="46.607910000" lon="-72.816340000">
<ele>0</ele>
<time>2026-09-04T06:33:59Z</time>
</trkpt>
<trkpt lat="46.607910000" lon="-72.816340000">
<ele>0</ele>
<time>2026-09-04T06:34:00Z</time>
</trkpt>
<trkpt lat="46.607250000" lon="-72.817510000">
<ele>0</ele>
<time>2026-09-04T06:34:01Z</time>
</trkpt>
<trkpt lat="46.606250000" lon="-72.819360000">
<ele>0</ele>
<time>2026-09-04T06:34:02Z</time>
</trkpt>
<trkpt lat="46.605480000" lon="-72.820810000">
<ele>0</ele>
<time>2026-09-04T06:34:03Z</time>
</trkpt>
<trkpt lat="46.605010000" lon="-72.821770000">
<ele>0</ele>
<time>2026-09-04T06:34:04Z</time>
</trkpt>
<trkpt lat="46.604720000" lon="-72.822430000">
<ele>0</ele>
<time>2026-09-04T06:34:05Z</time>
</trkpt>
<trkpt lat="46.604560000" lon="-72.822800000">
<ele>0</ele>
<time>2026-09-04T06:34:06Z</time>
</trkpt>
<trkpt lat="46.604130000" lon="-72.824050000">
<ele>0</ele>
<time>2026-09-04T06:34:07Z</time>
</trkpt>
<trkpt lat="46.603830000" lon="-72.824840000">
<ele>0</ele>
<time>2026-09-04T06:34:08Z</time>
</trkpt>
<trkpt lat="46.603560000" lon="-72.825380000">
<ele>0</ele>
<time>2026-09-04T06:34:09Z</time>
</trkpt>
<trkpt lat="46.603130000" lon="-72.826160000">
<ele>0</ele>
<time>2026-09-04T06:34:10Z</time>
</trkpt>
<trkpt lat="46.602320000" lon="-72.827520000">
<ele>0</ele>
<time>2026-09-04T06:34:11Z</time>
</trkpt>
<trkpt lat="46.601720000" lon="-72.828570000">
<ele>0</ele>
<time>2026-09-04T06:34:12Z</time>
</trkpt>
<trkpt lat="46.600680000" lon="-72.830370000">
<ele>0</ele>
<time>2026-09-04T06:34:13Z</time>
</trkpt>
<trkpt lat="46.600570000" lon="-72.830610000">
<ele>0</ele>
<time>2026-09-04T06:34:14Z</time>
</trkpt>
<trkpt lat="46.600570000" lon="-72.830800000">
<ele>0</ele>
<time>2026-09-04T06:34:15Z</time>
</trkpt>
<trkpt lat="46.600480000" lon="-72.831550000">
<ele>0</ele>
<time>2026-09-04T06:34:16Z</time>
</trkpt>
<trkpt lat="46.600250000" lon="-72.832270000">
<ele>0</ele>
<time>2026-09-04T06:34:17Z</time>
</trkpt>
<trkpt lat="46.599840000" lon="-72.833040000">
<ele>0</ele>
<time>2026-09-04T06:34:18Z</time>
</trkpt>
<trkpt lat="46.599290000" lon="-72.834070000">
<ele>0</ele>
<time>2026-09-04T06:34:19Z</time>
</trkpt>
<trkpt lat="46.599130000" lon="-72.834400000">
<ele>0</ele>
<time>2026-09-04T06:34:20Z</time>
</trkpt>
<trkpt lat="46.599130000" lon="-72.834520000">
<ele>0</ele>
<time>2026-09-04T06:34:21Z</time>
</trkpt>
<trkpt lat="46.599200000" lon="-72.834680000">
<ele>0</ele>
<time>2026-09-04T06:34:22Z</time>
</trkpt>
<trkpt lat="46.599360000" lon="-72.835140000">
<ele>0</ele>
<time>2026-09-04T06:34:23Z</time>
</trkpt>
<trkpt lat="46.599390000" lon="-72.835750000">
<ele>0</ele>
<time>2026-09-04T06:34:24Z</time>
</trkpt>
<trkpt lat="46.599290000" lon="-72.836930000">
<ele>0</ele>
<time>2026-09-04T06:34:25Z</time>
</trkpt>
<trkpt lat="46.599280000" lon="-72.836990000">
<ele>0</ele>
<time>2026-09-04T06:34:26Z</time>
</trkpt>
<trkpt lat="46.599280000" lon="-72.836990000">
<ele>0</ele>
<time>2026-09-04T06:34:27Z</time>
</trkpt>
<trkpt lat="46.599180000" lon="-72.838230000">
<ele>0</ele>
<time>2026-09-04T06:34:28Z</time>
</trkpt>
<trkpt lat="46.599100000" lon="-72.838790000">
<ele>0</ele>
<time>2026-09-04T06:34:29Z</time>
</trkpt>
<trkpt lat="46.599020000" lon="-72.839880000">
<ele>0</ele>
<time>2026-09-04T06:34:30Z</time>
</trkpt>
<trkpt lat="46.599000000" lon="-72.840280000">
<ele>0</ele>
<time>2026-09-04T06:34:31Z</time>
</trkpt>
<trkpt lat="46.598960000" lon="-72.840530000">
<ele>0</ele>
<time>2026-09-04T06:34:32Z</time>
</trkpt>
<trkpt lat="46.599190000" lon="-72.841050000">
<ele>0</ele>
<time>2026-09-04T06:34:33Z</time>
</trkpt>
<trkpt lat="46.599400000" lon="-72.841640000">
<ele>0</ele>
<time>2026-09-04T06:34:34Z</time>
</trkpt>
<trkpt lat="46.599510000" lon="-72.842110000">
<ele>0</ele>
<time>2026-09-04T06:34:35Z</time>
</trkpt>
<trkpt lat="46.599600000" lon="-72.842770000">
<ele>0</ele>
<time>2026-09-04T06:34:36Z</time>
</trkpt>
<trkpt lat="46.599630000" lon="-72.843490000">
<ele>0</ele>
<time>2026-09-04T06:34:37Z</time>
</trkpt>
<trkpt lat="46.599600000" lon="-72.844150000">
<ele>0</ele>
<time>2026-09-04T06:34:38Z</time>
</trkpt>
<trkpt lat="46.599600000" lon="-72.844150000">
<ele>0</ele>
<time>2026-09-04T06:34:39Z</time>
</trkpt>
<trkpt lat="46.599350000" lon="-72.846420000">
<ele>0</ele>
<time>2026-09-04T06:34:40Z</time>
</trkpt>
<trkpt lat="46.599260000" lon="-72.847220000">
<ele>0</ele>
<time>2026-09-04T06:34:41Z</time>
</trkpt>
<trkpt lat="46.599190000" lon="-72.848210000">
<ele>0</ele>
<time>2026-09-04T06:34:42Z</time>
</trkpt>
<trkpt lat="46.599170000" lon="-72.848850000">
<ele>0</ele>
<time>2026-09-04T06:34:43Z</time>
</trkpt>
<trkpt lat="46.599200000" lon="-72.849850000">
<ele>0</ele>
<time>2026-09-04T06:34:44Z</time>
</trkpt>
<trkpt lat="46.599260000" lon="-72.850800000">
<ele>0</ele>
<time>2026-09-04T06:34:45Z</time>
</trkpt>
<trkpt lat="46.599310000" lon="-72.851290000">
<ele>0</ele>
<time>2026-09-04T06:34:46Z</time>
</trkpt>
<trkpt lat="46.599460000" lon="-72.852280000">
<ele>0</ele>
<time>2026-09-04T06:34:47Z</time>
</trkpt>
<trkpt lat="46.599680000" lon="-72.853580000">
<ele>0</ele>
<time>2026-09-04T06:34:48Z</time>
</trkpt>
<trkpt lat="46.600150000" lon="-72.856230000">
<ele>0</ele>
<time>2026-09-04T06:34:49Z</time>
</trkpt>
<trkpt lat="46.600370000" lon="-72.857350000">
<ele>0</ele>
<time>2026-09-04T06:34:50Z</time>
</trkpt>
<trkpt lat="46.600640000" lon="-72.858420000">
<ele>0</ele>
<time>2026-09-04T06:34:51Z</time>
</trkpt>
<trkpt lat="46.601020000" lon="-72.859790000">
<ele>0</ele>
<time>2026-09-04T06:34:52Z</time>
</trkpt>
<trkpt lat="46.601350000" lon="-72.860840000">
<ele>0</ele>
<time>2026-09-04T06:34:53Z</time>
</trkpt>
<trkpt lat="46.601710000" lon="-72.862040000">
<ele>0</ele>
<time>2026-09-04T06:34:54Z</time>
</trkpt>
<trkpt lat="46.602000000" lon="-72.862990000">
<ele>0</ele>
<time>2026-09-04T06:34:55Z</time>
</trkpt>
<trkpt lat="46.602410000" lon="-72.864360000">
<ele>0</ele>
<time>2026-09-04T06:34:56Z</time>
</trkpt>
<trkpt lat="46.602570000" lon="-72.864940000">
<ele>0</ele>
<time>2026-09-04T06:34:57Z</time>
</trkpt>
<trkpt lat="46.602640000" lon="-72.865280000">
<ele>0</ele>
<time>2026-09-04T06:34:58Z</time>
</trkpt>
<trkpt lat="46.602700000" lon="-72.865700000">
<ele>0</ele>
<time>2026-09-04T06:34:59Z</time>
</trkpt>
<trkpt lat="46.602740000" lon="-72.866170000">
<ele>0</ele>
<time>2026-09-04T06:35:00Z</time>
</trkpt>
<trkpt lat="46.602750000" lon="-72.866710000">
<ele>0</ele>
<time>2026-09-04T06:35:01Z</time>
</trkpt>
<trkpt lat="46.602750000" lon="-72.866710000">
<ele>0</ele>
<time>2026-09-04T06:35:02Z</time>
</trkpt>
<trkpt lat="46.602730000" lon="-72.867120000">
<ele>0</ele>
<time>2026-09-04T06:35:03Z</time>
</trkpt>
<trkpt lat="46.602690000" lon="-72.867540000">
<ele>0</ele>
<time>2026-09-04T06:35:04Z</time>
</trkpt>
<trkpt lat="46.602530000" lon="-72.868370000">
<ele>0</ele>
<time>2026-09-04T06:35:05Z</time>
</trkpt>
<trkpt lat="46.602310000" lon="-72.869080000">
<ele>0</ele>
<time>2026-09-04T06:35:06Z</time>
</trkpt>
<trkpt lat="46.602140000" lon="-72.869470000">
<ele>0</ele>
<time>2026-09-04T06:35:07Z</time>
</trkpt>
<trkpt lat="46.601940000" lon="-72.869850000">
<ele>0</ele>
<time>2026-09-04T06:35:08Z</time>
</trkpt>
<trkpt lat="46.601300000" lon="-72.870920000">
<ele>0</ele>
<time>2026-09-04T06:35:09Z</time>
</trkpt>
<trkpt lat="46.600460000" lon="-72.872280000">
<ele>0</ele>
<time>2026-09-04T06:35:10Z</time>
</trkpt>
<trkpt lat="46.600120000" lon="-72.872860000">
<ele>0</ele>
<time>2026-09-04T06:35:11Z</time>
</trkpt>
<trkpt lat="46.600120000" lon="-72.872860000">
<ele>0</ele>
<time>2026-09-04T06:35:12Z</time>
</trkpt>
<trkpt lat="46.598260000" lon="-72.875940000">
<ele>0</ele>
<time>2026-09-04T06:35:13Z</time>
</trkpt>
<trkpt lat="46.597580000" lon="-72.877060000">
<ele>0</ele>
<time>2026-09-04T06:35:14Z</time>
</trkpt>
<trkpt lat="46.597310000" lon="-72.877580000">
<ele>0</ele>
<time>2026-09-04T06:35:15Z</time>
</trkpt>
<trkpt lat="46.597010000" lon="-72.878250000">
<ele>0</ele>
<time>2026-09-04T06:35:16Z</time>
</trkpt>
<trkpt lat="46.596750000" lon="-72.878980000">
<ele>0</ele>
<time>2026-09-04T06:35:17Z</time>
</trkpt>
<trkpt lat="46.596400000" lon="-72.880040000">
<ele>0</ele>
<time>2026-09-04T06:35:18Z</time>
</trkpt>
<trkpt lat="46.596080000" lon="-72.880830000">
<ele>0</ele>
<time>2026-09-04T06:35:19Z</time>
</trkpt>
<trkpt lat="46.595780000" lon="-72.881400000">
<ele>0</ele>
<time>2026-09-04T06:35:20Z</time>
</trkpt>
<trkpt lat="46.595640000" lon="-72.881660000">
<ele>0</ele>
<time>2026-09-04T06:35:21Z</time>
</trkpt>
<trkpt lat="46.595730000" lon="-72.881670000">
<ele>0</ele>
<time>2026-09-04T06:35:22Z</time>
</trkpt>
<trkpt lat="46.595830000" lon="-72.881690000">
<ele>0</ele>
<time>2026-09-04T06:35:23Z</time>
</trkpt>
<trkpt lat="46.596000000" lon="-72.881710000">
<ele>0</ele>
<time>2026-09-04T06:35:24Z</time>
</trkpt>
<trkpt lat="46.596360000" lon="-72.881740000">
<ele>0</ele>
<time>2026-09-04T06:35:25Z</time>
</trkpt>
<trkpt lat="46.596750000" lon="-72.881780000">
<ele>0</ele>
<time>2026-09-04T06:35:26Z</time>
</trkpt>
<trkpt lat="46.597240000" lon="-72.881850000">
<ele>0</ele>
<time>2026-09-04T06:35:27Z</time>
</trkpt>
<trkpt lat="46.597240000" lon="-72.881850000">
<ele>0</ele>
<time>2026-09-04T06:35:28Z</time>
</trkpt>
<trkpt lat="46.597820000" lon="-72.881990000">
<ele>0</ele>
<time>2026-09-04T06:35:29Z</time>
</trkpt>
<trkpt lat="46.598140000" lon="-72.882090000">
<ele>0</ele>
<time>2026-09-04T06:35:30Z</time>
</trkpt>
<trkpt lat="46.599470000" lon="-72.882530000">
<ele>0</ele>
<time>2026-09-04T06:35:31Z</time>
</trkpt>
<trkpt lat="46.600950000" lon="-72.883020000">
<ele>0</ele>
<time>2026-09-04T06:35:32Z</time>
</trkpt>
<trkpt lat="46.601080000" lon="-72.883100000">
<ele>0</ele>
<time>2026-09-04T06:35:33Z</time>
</trkpt>
<trkpt lat="46.601230000" lon="-72.883230000">
<ele>0</ele>
<time>2026-09-04T06:35:34Z</time>
</trkpt>
<trkpt lat="46.601410000" lon="-72.883420000">
<ele>0</ele>
<time>2026-09-04T06:35:35Z</time>
</trkpt>
<trkpt lat="46.601530000" lon="-72.883590000">
<ele>0</ele>
<time>2026-09-04T06:35:36Z</time>
</trkpt>
<trkpt lat="46.601750000" lon="-72.883960000">
<ele>0</ele>
<time>2026-09-04T06:35:37Z</time>
</trkpt>
<trkpt lat="46.601950000" lon="-72.884450000">
<ele>0</ele>
<time>2026-09-04T06:35:38Z</time>
</trkpt>
<trkpt lat="46.601990000" lon="-72.884620000">
<ele>0</ele>
<time>2026-09-04T06:35:39Z</time>
</trkpt>
<trkpt lat="46.601990000" lon="-72.884620000">
<ele>0</ele>
<time>2026-09-04T06:35:40Z</time>
</trkpt>
<trkpt lat="46.602080000" lon="-72.885020000">
<ele>0</ele>
<time>2026-09-04T06:35:41Z</time>
</trkpt>
<trkpt lat="46.602250000" lon="-72.886360000">
<ele>0</ele>
<time>2026-09-04T06:35:42Z</time>
</trkpt>
<trkpt lat="46.602270000" lon="-72.886570000">
<ele>0</ele>
<time>2026-09-04T06:35:43Z</time>
</trkpt>
<trkpt lat="46.602240000" lon="-72.887180000">
<ele>0</ele>
<time>2026-09-04T06:35:44Z</time>
</trkpt>
<trkpt lat="46.602210000" lon="-72.887500000">
<ele>0</ele>
<time>2026-09-04T06:35:45Z</time>
</trkpt>
<trkpt lat="46.602070000" lon="-72.888380000">
<ele>0</ele>
<time>2026-09-04T06:35:46Z</time>
</trkpt>
<trkpt lat="46.601930000" lon="-72.889090000">
<ele>0</ele>
<time>2026-09-04T06:35:47Z</time>
</trkpt>
<trkpt lat="46.601800000" lon="-72.889860000">
<ele>0</ele>
<time>2026-09-04T06:35:48Z</time>
</trkpt>
<trkpt lat="46.601780000" lon="-72.890100000">
<ele>0</ele>
<time>2026-09-04T06:35:49Z</time>
</trkpt>
<trkpt lat="46.601770000" lon="-72.890360000">
<ele>0</ele>
<time>2026-09-04T06:35:50Z</time>
</trkpt>
<trkpt lat="46.601790000" lon="-72.890640000">
<ele>0</ele>
<time>2026-09-04T06:35:51Z</time>
</trkpt>
<trkpt lat="46.602040000" lon="-72.891850000">
<ele>0</ele>
<time>2026-09-04T06:35:52Z</time>
</trkpt>
<trkpt lat="46.602450000" lon="-72.893610000">
<ele>0</ele>
<time>2026-09-04T06:35:53Z</time>
</trkpt>
<trkpt lat="46.602790000" lon="-72.895100000">
<ele>0</ele>
<time>2026-09-04T06:35:54Z</time>
</trkpt>
<trkpt lat="46.603040000" lon="-72.896090000">
<ele>0</ele>
<time>2026-09-04T06:35:55Z</time>
</trkpt>
<trkpt lat="46.603290000" lon="-72.897190000">
<ele>0</ele>
<time>2026-09-04T06:35:56Z</time>
</trkpt>
<trkpt lat="46.603480000" lon="-72.898230000">
<ele>0</ele>
<time>2026-09-04T06:35:57Z</time>
</trkpt>
<trkpt lat="46.603730000" lon="-72.899760000">
<ele>0</ele>
<time>2026-09-04T06:35:58Z</time>
</trkpt>
<trkpt lat="46.603980000" lon="-72.901290000">
<ele>0</ele>
<time>2026-09-04T06:35:59Z</time>
</trkpt>
<trkpt lat="46.604060000" lon="-72.901910000">
<ele>0</ele>
<time>2026-09-04T06:36:00Z</time>
</trkpt>
<trkpt lat="46.604120000" lon="-72.902580000">
<ele>0</ele>
<time>2026-09-04T06:36:01Z</time>
</trkpt>
<trkpt lat="46.604200000" lon="-72.903900000">
<ele>0</ele>
<time>2026-09-04T06:36:02Z</time>
</trkpt>
<trkpt lat="46.604390000" lon="-72.905700000">
<ele>0</ele>
<time>2026-09-04T06:36:03Z</time>
</trkpt>
<trkpt lat="46.604630000" lon="-72.907600000">
<ele>0</ele>
<time>2026-09-04T06:36:04Z</time>
</trkpt>
<trkpt lat="46.604980000" lon="-72.910440000">
<ele>0</ele>
<time>2026-09-04T06:36:05Z</time>
</trkpt>
<trkpt lat="46.605310000" lon="-72.913170000">
<ele>0</ele>
<time>2026-09-04T06:36:06Z</time>
</trkpt>
<trkpt lat="46.605420000" lon="-72.914220000">
<ele>0</ele>
<time>2026-09-04T06:36:07Z</time>
</trkpt>
<trkpt lat="46.605580000" lon="-72.915890000">
<ele>0</ele>
<time>2026-09-04T06:36:08Z</time>
</trkpt>
<trkpt lat="46.605920000" lon="-72.917240000">
<ele>0</ele>
<time>2026-09-04T06:36:09Z</time>
</trkpt>
<trkpt lat="46.606140000" lon="-72.918090000">
<ele>0</ele>
<time>2026-09-04T06:36:10Z</time>
</trkpt>
<trkpt lat="46.606280000" lon="-72.918430000">
<ele>0</ele>
<time>2026-09-04T06:36:11Z</time>
</trkpt>
<trkpt lat="46.606410000" lon="-72.918590000">
<ele>0</ele>
<time>2026-09-04T06:36:12Z</time>
</trkpt>
<trkpt lat="46.606520000" lon="-72.918640000">
<ele>0</ele>
<time>2026-09-04T06:36:13Z</time>
</trkpt>
<trkpt lat="46.606850000" lon="-72.918730000">
<ele>0</ele>
<time>2026-09-04T06:36:14Z</time>
</trkpt>
<trkpt lat="46.607100000" lon="-72.918810000">
<ele>0</ele>
<time>2026-09-04T06:36:15Z</time>
</trkpt>
<trkpt lat="46.607460000" lon="-72.919010000">
<ele>0</ele>
<time>2026-09-04T06:36:16Z</time>
</trkpt>
<trkpt lat="46.607610000" lon="-72.919140000">
<ele>0</ele>
<time>2026-09-04T06:36:17Z</time>
</trkpt>
<trkpt lat="46.607770000" lon="-72.919310000">
<ele>0</ele>
<time>2026-09-04T06:36:18Z</time>
</trkpt>
<trkpt lat="46.608100000" lon="-72.919900000">
<ele>0</ele>
<time>2026-09-04T06:36:19Z</time>
</trkpt>
<trkpt lat="46.608480000" lon="-72.920580000">
<ele>0</ele>
<time>2026-09-04T06:36:20Z</time>
</trkpt>
<trkpt lat="46.608850000" lon="-72.921370000">
<ele>0</ele>
<time>2026-09-04T06:36:21Z</time>
</trkpt>
<trkpt lat="46.609100000" lon="-72.922000000">
<ele>0</ele>
<time>2026-09-04T06:36:22Z</time>
</trkpt>
<trkpt lat="46.609100000" lon="-72.922000000">
<ele>0</ele>
<time>2026-09-04T06:36:23Z</time>
</trkpt>
<trkpt lat="46.609360000" lon="-72.922750000">
<ele>0</ele>
<time>2026-09-04T06:36:24Z</time>
</trkpt>
<trkpt lat="46.609310000" lon="-72.923280000">
<ele>0</ele>
<time>2026-09-04T06:36:25Z</time>
</trkpt>
<trkpt lat="46.609270000" lon="-72.923540000">
<ele>0</ele>
<time>2026-09-04T06:36:26Z</time>
</trkpt>
<trkpt lat="46.609040000" lon="-72.923990000">
<ele>0</ele>
<time>2026-09-04T06:36:27Z</time>
</trkpt>
<trkpt lat="46.608340000" lon="-72.925110000">
<ele>0</ele>
<time>2026-09-04T06:36:28Z</time>
</trkpt>
<trkpt lat="46.608230000" lon="-72.925210000">
<ele>0</ele>
<time>2026-09-04T06:36:29Z</time>
</trkpt>
<trkpt lat="46.608090000" lon="-72.925300000">
<ele>0</ele>
<time>2026-09-04T06:36:30Z</time>
</trkpt>
<trkpt lat="46.607830000" lon="-72.925400000">
<ele>0</ele>
<time>2026-09-04T06:36:31Z</time>
</trkpt>
<trkpt lat="46.606960000" lon="-72.925740000">
<ele>0</ele>
<time>2026-09-04T06:36:32Z</time>
</trkpt>
<trkpt lat="46.605460000" lon="-72.926440000">
<ele>0</ele>
<time>2026-09-04T06:36:33Z</time>
</trkpt>
<trkpt lat="46.605080000" lon="-72.926640000">
<ele>0</ele>
<time>2026-09-04T06:36:34Z</time>
</trkpt>
<trkpt lat="46.604940000" lon="-72.926720000">
<ele>0</ele>
<time>2026-09-04T06:36:35Z</time>
</trkpt>
<trkpt lat="46.604670000" lon="-72.926970000">
<ele>0</ele>
<time>2026-09-04T06:36:36Z</time>
</trkpt>
<trkpt lat="46.604400000" lon="-72.927290000">
<ele>0</ele>
<time>2026-09-04T06:36:37Z</time>
</trkpt>
<trkpt lat="46.604180000" lon="-72.927600000">
<ele>0</ele>
<time>2026-09-04T06:36:38Z</time>
</trkpt>
<trkpt lat="46.604180000" lon="-72.927600000">
<ele>0</ele>
<time>2026-09-04T06:36:39Z</time>
</trkpt>
<trkpt lat="46.602540000" lon="-72.929980000">
<ele>0</ele>
<time>2026-09-04T06:36:40Z</time>
</trkpt>
<trkpt lat="46.601670000" lon="-72.931260000">
<ele>0</ele>
<time>2026-09-04T06:36:41Z</time>
</trkpt>
<trkpt lat="46.601140000" lon="-72.932040000">
<ele>0</ele>
<time>2026-09-04T06:36:42Z</time>
</trkpt>
<trkpt lat="46.601000000" lon="-72.932180000">
<ele>0</ele>
<time>2026-09-04T06:36:43Z</time>
</trkpt>
<trkpt lat="46.600840000" lon="-72.932290000">
<ele>0</ele>
<time>2026-09-04T06:36:44Z</time>
</trkpt>
<trkpt lat="46.600210000" lon="-72.932580000">
<ele>0</ele>
<time>2026-09-04T06:36:45Z</time>
</trkpt>
<trkpt lat="46.599660000" lon="-72.932810000">
<ele>0</ele>
<time>2026-09-04T06:36:46Z</time>
</trkpt>
<trkpt lat="46.599590000" lon="-72.932850000">
<ele>0</ele>
<time>2026-09-04T06:36:47Z</time>
</trkpt>
<trkpt lat="46.599590000" lon="-72.932850000">
<ele>0</ele>
<time>2026-09-04T06:36:48Z</time>
</trkpt>
<trkpt lat="46.598980000" lon="-72.933130000">
<ele>0</ele>
<time>2026-09-04T06:36:49Z</time>
</trkpt>
<trkpt lat="46.598760000" lon="-72.933230000">
<ele>0</ele>
<time>2026-09-04T06:36:50Z</time>
</trkpt>
<trkpt lat="46.598470000" lon="-72.933410000">
<ele>0</ele>
<time>2026-09-04T06:36:51Z</time>
</trkpt>
<trkpt lat="46.597320000" lon="-72.934160000">
<ele>0</ele>
<time>2026-09-04T06:36:52Z</time>
</trkpt>
<trkpt lat="46.596860000" lon="-72.934460000">
<ele>0</ele>
<time>2026-09-04T06:36:53Z</time>
</trkpt>
<trkpt lat="46.595870000" lon="-72.935110000">
<ele>0</ele>
<time>2026-09-04T06:36:54Z</time>
</trkpt>
<trkpt lat="46.595310000" lon="-72.935490000">
<ele>0</ele>
<time>2026-09-04T06:36:55Z</time>
</trkpt>
<trkpt lat="46.594910000" lon="-72.935810000">
<ele>0</ele>
<time>2026-09-04T06:36:56Z</time>
</trkpt>
<trkpt lat="46.593950000" lon="-72.936610000">
<ele>0</ele>
<time>2026-09-04T06:36:57Z</time>
</trkpt>
<trkpt lat="46.593360000" lon="-72.937130000">
<ele>0</ele>
<time>2026-09-04T06:36:58Z</time>
</trkpt>
<trkpt lat="46.592420000" lon="-72.937960000">
<ele>0</ele>
<time>2026-09-04T06:36:59Z</time>
</trkpt>
<trkpt lat="46.591980000" lon="-72.938360000">
<ele>0</ele>
<time>2026-09-04T06:37:00Z</time>
</trkpt>
<trkpt lat="46.591680000" lon="-72.938640000">
<ele>0</ele>
<time>2026-09-04T06:37:01Z</time>
</trkpt>
<trkpt lat="46.591520000" lon="-72.938760000">
<ele>0</ele>
<time>2026-09-04T06:37:02Z</time>
</trkpt>
<trkpt lat="46.591350000" lon="-72.938870000">
<ele>0</ele>
<time>2026-09-04T06:37:03Z</time>
</trkpt>
<trkpt lat="46.591180000" lon="-72.938950000">
<ele>0</ele>
<time>2026-09-04T06:37:04Z</time>
</trkpt>
<trkpt lat="46.590990000" lon="-72.939020000">
<ele>0</ele>
<time>2026-09-04T06:37:05Z</time>
</trkpt>
<trkpt lat="46.590660000" lon="-72.939060000">
<ele>0</ele>
<time>2026-09-04T06:37:06Z</time>
</trkpt>
<trkpt lat="46.590530000" lon="-72.939110000">
<ele>0</ele>
<time>2026-09-04T06:37:07Z</time>
</trkpt>
<trkpt lat="46.590410000" lon="-72.938950000">
<ele>0</ele>
<time>2026-09-04T06:37:08Z</time>
</trkpt>
<trkpt lat="46.590130000" lon="-72.938610000">
<ele>0</ele>
<time>2026-09-04T06:37:09Z</time>
</trkpt>
<trkpt lat="46.589740000" lon="-72.938070000">
<ele>0</ele>
<time>2026-09-04T06:37:10Z</time>
</trkpt>
<trkpt lat="46.589340000" lon="-72.937500000">
<ele>0</ele>
<time>2026-09-04T06:37:11Z</time>
</trkpt>
<trkpt lat="46.589340000" lon="-72.937500000">
<ele>0</ele>
<time>2026-09-04T06:37:12Z</time>
</trkpt>
<trkpt lat="46.588760000" lon="-72.936710000">
<ele>0</ele>
<time>2026-09-04T06:37:13Z</time>
</trkpt>
<trkpt lat="46.588570000" lon="-72.936450000">
<ele>0</ele>
<time>2026-09-04T06:37:14Z</time>
</trkpt>
<trkpt lat="46.588260000" lon="-72.936090000">
<ele>0</ele>
<time>2026-09-04T06:37:15Z</time>
</trkpt>
<trkpt lat="46.588000000" lon="-72.935820000">
<ele>0</ele>
<time>2026-09-04T06:37:16Z</time>
</trkpt>
<trkpt lat="46.587690000" lon="-72.935550000">
<ele>0</ele>
<time>2026-09-04T06:37:17Z</time>
</trkpt>
<trkpt lat="46.587240000" lon="-72.935160000">
<ele>0</ele>
<time>2026-09-04T06:37:18Z</time>
</trkpt>
<trkpt lat="46.587040000" lon="-72.935030000">
<ele>0</ele>
<time>2026-09-04T06:37:19Z</time>
</trkpt>
<trkpt lat="46.586850000" lon="-72.934930000">
<ele>0</ele>
<time>2026-09-04T06:37:20Z</time>
</trkpt>
<trkpt lat="46.586250000" lon="-72.934700000">
<ele>0</ele>
<time>2026-09-04T06:37:21Z</time>
</trkpt>
<trkpt lat="46.585670000" lon="-72.934520000">
<ele>0</ele>
<time>2026-09-04T06:37:22Z</time>
</trkpt>
<trkpt lat="46.585140000" lon="-72.934380000">
<ele>0</ele>
<time>2026-09-04T06:37:23Z</time>
</trkpt>
<trkpt lat="46.584070000" lon="-72.934120000">
<ele>0</ele>
<time>2026-09-04T06:37:24Z</time>
</trkpt>
<trkpt lat="46.583900000" lon="-72.934040000">
<ele>0</ele>
<time>2026-09-04T06:37:25Z</time>
</trkpt>
<trkpt lat="46.583750000" lon="-72.933950000">
<ele>0</ele>
<time>2026-09-04T06:37:26Z</time>
</trkpt>
<trkpt lat="46.583570000" lon="-72.933780000">
<ele>0</ele>
<time>2026-09-04T06:37:27Z</time>
</trkpt>
<trkpt lat="46.583220000" lon="-72.933380000">
<ele>0</ele>
<time>2026-09-04T06:37:28Z</time>
</trkpt>
<trkpt lat="46.583040000" lon="-72.933020000">
<ele>0</ele>
<time>2026-09-04T06:37:29Z</time>
</trkpt>
<trkpt lat="46.582960000" lon="-72.932790000">
<ele>0</ele>
<time>2026-09-04T06:37:30Z</time>
</trkpt>
<trkpt lat="46.582680000" lon="-72.931870000">
<ele>0</ele>
<time>2026-09-04T06:37:31Z</time>
</trkpt>
<trkpt lat="46.582210000" lon="-72.930080000">
<ele>0</ele>
<time>2026-09-04T06:37:32Z</time>
</trkpt>
<trkpt lat="46.581970000" lon="-72.929350000">
<ele>0</ele>
<time>2026-09-04T06:37:33Z</time>
</trkpt>
<trkpt lat="46.581750000" lon="-72.928910000">
<ele>0</ele>
<time>2026-09-04T06:37:34Z</time>
</trkpt>
<trkpt lat="46.581710000" lon="-72.928840000">
<ele>0</ele>
<time>2026-09-04T06:37:35Z</time>
</trkpt>
<trkpt lat="46.581380000" lon="-72.928350000">
<ele>0</ele>
<time>2026-09-04T06:37:36Z</time>
</trkpt>
<trkpt lat="46.581240000" lon="-72.928180000">
<ele>0</ele>
<time>2026-09-04T06:37:37Z</time>
</trkpt>
<trkpt lat="46.580950000" lon="-72.927860000">
<ele>0</ele>
<time>2026-09-04T06:37:38Z</time>
</trkpt>
<trkpt lat="46.580490000" lon="-72.927550000">
<ele>0</ele>
<time>2026-09-04T06:37:39Z</time>
</trkpt>
<trkpt lat="46.580150000" lon="-72.927350000">
<ele>0</ele>
<time>2026-09-04T06:37:40Z</time>
</trkpt>
<trkpt lat="46.579970000" lon="-72.927250000">
<ele>0</ele>
<time>2026-09-04T06:37:41Z</time>
</trkpt>
<trkpt lat="46.579620000" lon="-72.927120000">
<ele>0</ele>
<time>2026-09-04T06:37:42Z</time>
</trkpt>
<trkpt lat="46.579140000" lon="-72.927170000">
<ele>0</ele>
<time>2026-09-04T06:37:43Z</time>
</trkpt>
<trkpt lat="46.579140000" lon="-72.927170000">
<ele>0</ele>
<time>2026-09-04T06:37:44Z</time>
</trkpt>
<trkpt lat="46.578740000" lon="-72.927240000">
<ele>0</ele>
<time>2026-09-04T06:37:45Z</time>
</trkpt>
<trkpt lat="46.578210000" lon="-72.927350000">
<ele>0</ele>
<time>2026-09-04T06:37:46Z</time>
</trkpt>
<trkpt lat="46.577860000" lon="-72.927430000">
<ele>0</ele>
<time>2026-09-04T06:37:47Z</time>
</trkpt>
<trkpt lat="46.577660000" lon="-72.927470000">
<ele>0</ele>
<time>2026-09-04T06:37:48Z</time>
</trkpt>
<trkpt lat="46.577410000" lon="-72.927450000">
<ele>0</ele>
<time>2026-09-04T06:37:49Z</time>
</trkpt>
<trkpt lat="46.577130000" lon="-72.927370000">
<ele>0</ele>
<time>2026-09-04T06:37:50Z</time>
</trkpt>
<trkpt lat="46.576970000" lon="-72.927290000">
<ele>0</ele>
<time>2026-09-04T06:37:51Z</time>
</trkpt>
<trkpt lat="46.576820000" lon="-72.927150000">
<ele>0</ele>
<time>2026-09-04T06:37:52Z</time>
</trkpt>
<trkpt lat="46.576530000" lon="-72.926840000">
<ele>0</ele>
<time>2026-09-04T06:37:53Z</time>
</trkpt>
<trkpt lat="46.576170000" lon="-72.926370000">
<ele>0</ele>
<time>2026-09-04T06:37:54Z</time>
</trkpt>
<trkpt lat="46.575920000" lon="-72.926030000">
<ele>0</ele>
<time>2026-09-04T06:37:55Z</time>
</trkpt>
<trkpt lat="46.575920000" lon="-72.926030000">
<ele>0</ele>
<time>2026-09-04T06:37:56Z</time>
</trkpt>
<trkpt lat="46.574130000" lon="-72.923550000">
<ele>0</ele>
<time>2026-09-04T06:37:57Z</time>
</trkpt>
<trkpt lat="46.573710000" lon="-72.923250000">
<ele>0</ele>
<time>2026-09-04T06:37:58Z</time>
</trkpt>
<trkpt lat="46.573270000" lon="-72.922970000">
<ele>0</ele>
<time>2026-09-04T06:37:59Z</time>
</trkpt>
<trkpt lat="46.573260000" lon="-72.922960000">
<ele>0</ele>
<time>2026-09-04T06:38:00Z</time>
</trkpt>
<trkpt lat="46.573260000" lon="-72.922960000">
<ele>0</ele>
<time>2026-09-04T06:38:01Z</time>
</trkpt>
<trkpt lat="46.573150000" lon="-72.922920000">
<ele>0</ele>
<time>2026-09-04T06:38:02Z</time>
</trkpt>
<trkpt lat="46.572500000" lon="-72.923910000">
<ele>0</ele>
<time>2026-09-04T06:38:03Z</time>
</trkpt>
<trkpt lat="46.572130000" lon="-72.924470000">
<ele>0</ele>
<time>2026-09-04T06:38:04Z</time>
</trkpt>
<trkpt lat="46.571620000" lon="-72.925220000">
<ele>0</ele>
<time>2026-09-04T06:38:05Z</time>
</trkpt>
<trkpt lat="46.570950000" lon="-72.926260000">
<ele>0</ele>
<time>2026-09-04T06:38:06Z</time>
</trkpt>
<trkpt lat="46.570460000" lon="-72.927020000">
<ele>0</ele>
<time>2026-09-04T06:38:07Z</time>
</trkpt>
<trkpt lat="46.570140000" lon="-72.927470000">
<ele>0</ele>
<time>2026-09-04T06:38:08Z</time>
</trkpt>
<trkpt lat="46.569710000" lon="-72.928150000">
<ele>0</ele>
<time>2026-09-04T06:38:09Z</time>
</trkpt>
<trkpt lat="46.569550000" lon="-72.928370000">
<ele>0</ele>
<time>2026-09-04T06:38:10Z</time>
</trkpt>
<trkpt lat="46.569550000" lon="-72.928370000">
<ele>0</ele>
<time>2026-09-04T06:38:11Z</time>
</trkpt>
<trkpt lat="46.569440000" lon="-72.928520000">
<ele>0</ele>
<time>2026-09-04T06:38:12Z</time>
</trkpt>
<trkpt lat="46.569130000" lon="-72.928920000">
<ele>0</ele>
<time>2026-09-04T06:38:13Z</time>
</trkpt>
<trkpt lat="46.568960000" lon="-72.929080000">
<ele>0</ele>
<time>2026-09-04T06:38:14Z</time>
</trkpt>
<trkpt lat="46.568760000" lon="-72.929190000">
<ele>0</ele>
<time>2026-09-04T06:38:15Z</time>
</trkpt>
<trkpt lat="46.568680000" lon="-72.929220000">
<ele>0</ele>
<time>2026-09-04T06:38:16Z</time>
</trkpt>
<trkpt lat="46.568170000" lon="-72.929270000">
<ele>0</ele>
<time>2026-09-04T06:38:17Z</time>
</trkpt>
<trkpt lat="46.567730000" lon="-72.929410000">
<ele>0</ele>
<time>2026-09-04T06:38:18Z</time>
</trkpt>
<trkpt lat="46.567470000" lon="-72.929540000">
<ele>0</ele>
<time>2026-09-04T06:38:19Z</time>
</trkpt>
<trkpt lat="46.566630000" lon="-72.930030000">
<ele>0</ele>
<time>2026-09-04T06:38:20Z</time>
</trkpt>
<trkpt lat="46.566300000" lon="-72.930250000">
<ele>0</ele>
<time>2026-09-04T06:38:21Z</time>
</trkpt>
<trkpt lat="46.566130000" lon="-72.930400000">
<ele>0</ele>
<time>2026-09-04T06:38:22Z</time>
</trkpt>
<trkpt lat="46.565950000" lon="-72.930580000">
<ele>0</ele>
<time>2026-09-04T06:38:23Z</time>
</trkpt>
<trkpt lat="46.565680000" lon="-72.931010000">
<ele>0</ele>
<time>2026-09-04T06:38:24Z</time>
</trkpt>
<trkpt lat="46.565160000" lon="-72.931950000">
<ele>0</ele>
<time>2026-09-04T06:38:25Z</time>
</trkpt>
<trkpt lat="46.564970000" lon="-72.932240000">
<ele>0</ele>
<time>2026-09-04T06:38:26Z</time>
</trkpt>
<trkpt lat="46.564730000" lon="-72.932490000">
<ele>0</ele>
<time>2026-09-04T06:38:27Z</time>
</trkpt>
<trkpt lat="46.564290000" lon="-72.932930000">
<ele>0</ele>
<time>2026-09-04T06:38:28Z</time>
</trkpt>
<trkpt lat="46.564240000" lon="-72.932970000">
<ele>0</ele>
<time>2026-09-04T06:38:29Z</time>
</trkpt>
<trkpt lat="46.564240000" lon="-72.932970000">
<ele>0</ele>
<time>2026-09-04T06:38:30Z</time>
</trkpt>
<trkpt lat="46.563560000" lon="-72.933690000">
<ele>0</ele>
<time>2026-09-04T06:38:31Z</time>
</trkpt>
<trkpt lat="46.563360000" lon="-72.933900000">
<ele>0</ele>
<time>2026-09-04T06:38:32Z</time>
</trkpt>
<trkpt lat="46.562910000" lon="-72.934490000">
<ele>0</ele>
<time>2026-09-04T06:38:33Z</time>
</trkpt>
<trkpt lat="46.562390000" lon="-72.935110000">
<ele>0</ele>
<time>2026-09-04T06:38:34Z</time>
</trkpt>
<trkpt lat="46.562130000" lon="-72.935350000">
<ele>0</ele>
<time>2026-09-04T06:38:35Z</time>
</trkpt>
<trkpt lat="46.561840000" lon="-72.935580000">
<ele>0</ele>
<time>2026-09-04T06:38:36Z</time>
</trkpt>
<trkpt lat="46.561560000" lon="-72.935760000">
<ele>0</ele>
<time>2026-09-04T06:38:37Z</time>
</trkpt>
<trkpt lat="46.561280000" lon="-72.936000000">
<ele>0</ele>
<time>2026-09-04T06:38:38Z</time>
</trkpt>
<trkpt lat="46.561010000" lon="-72.936180000">
<ele>0</ele>
<time>2026-09-04T06:38:39Z</time>
</trkpt>
<trkpt lat="46.560300000" lon="-72.936630000">
<ele>0</ele>
<time>2026-09-04T06:38:40Z</time>
</trkpt>
<trkpt lat="46.559630000" lon="-72.937020000">
<ele>0</ele>
<time>2026-09-04T06:38:41Z</time>
</trkpt>
<trkpt lat="46.559400000" lon="-72.937190000">
<ele>0</ele>
<time>2026-09-04T06:38:42Z</time>
</trkpt>
<trkpt lat="46.559250000" lon="-72.937320000">
<ele>0</ele>
<time>2026-09-04T06:38:43Z</time>
</trkpt>
<trkpt lat="46.559070000" lon="-72.937510000">
<ele>0</ele>
<time>2026-09-04T06:38:44Z</time>
</trkpt>
<trkpt lat="46.558830000" lon="-72.937800000">
<ele>0</ele>
<time>2026-09-04T06:38:45Z</time>
</trkpt>
<trkpt lat="46.558540000" lon="-72.938200000">
<ele>0</ele>
<time>2026-09-04T06:38:46Z</time>
</trkpt>
<trkpt lat="46.558310000" lon="-72.938480000">
<ele>0</ele>
<time>2026-09-04T06:38:47Z</time>
</trkpt>
<trkpt lat="46.557570000" lon="-72.939560000">
<ele>0</ele>
<time>2026-09-04T06:38:48Z</time>
</trkpt>
<trkpt lat="46.557340000" lon="-72.939890000">
<ele>0</ele>
<time>2026-09-04T06:38:49Z</time>
</trkpt>
<trkpt lat="46.556710000" lon="-72.940650000">
<ele>0</ele>
<time>2026-09-04T06:38:50Z</time>
</trkpt>
<trkpt lat="46.556310000" lon="-72.941160000">
<ele>0</ele>
<time>2026-09-04T06:38:51Z</time>
</trkpt>
<trkpt lat="46.555630000" lon="-72.942030000">
<ele>0</ele>
<time>2026-09-04T06:38:52Z</time>
</trkpt>
<trkpt lat="46.554610000" lon="-72.943430000">
<ele>0</ele>
<time>2026-09-04T06:38:53Z</time>
</trkpt>
<trkpt lat="46.554180000" lon="-72.943930000">
<ele>0</ele>
<time>2026-09-04T06:38:54Z</time>
</trkpt>
<trkpt lat="46.553980000" lon="-72.944070000">
<ele>0</ele>
<time>2026-09-04T06:38:55Z</time>
</trkpt>
<trkpt lat="46.553790000" lon="-72.944160000">
<ele>0</ele>
<time>2026-09-04T06:38:56Z</time>
</trkpt>
<trkpt lat="46.553090000" lon="-72.944430000">
<ele>0</ele>
<time>2026-09-04T06:38:57Z</time>
</trkpt>
<trkpt lat="46.552750000" lon="-72.944570000">
<ele>0</ele>
<time>2026-09-04T06:38:58Z</time>
</trkpt>
<trkpt lat="46.552250000" lon="-72.944870000">
<ele>0</ele>
<time>2026-09-04T06:38:59Z</time>
</trkpt>
<trkpt lat="46.551600000" lon="-72.945330000">
<ele>0</ele>
<time>2026-09-04T06:39:00Z</time>
</trkpt>
<trkpt lat="46.551050000" lon="-72.945740000">
<ele>0</ele>
<time>2026-09-04T06:39:01Z</time>
</trkpt>
<trkpt lat="46.550240000" lon="-72.946470000">
<ele>0</ele>
<time>2026-09-04T06:39:02Z</time>
</trkpt>
<trkpt lat="46.549830000" lon="-72.946950000">
<ele>0</ele>
<time>2026-09-04T06:39:03Z</time>
</trkpt>
<trkpt lat="46.549570000" lon="-72.947270000">
<ele>0</ele>
<time>2026-09-04T06:39:04Z</time>
</trkpt>
<trkpt lat="46.549360000" lon="-72.947510000">
<ele>0</ele>
<time>2026-09-04T06:39:05Z</time>
</trkpt>
<trkpt lat="46.549170000" lon="-72.947670000">
<ele>0</ele>
<time>2026-09-04T06:39:06Z</time>
</trkpt>
<trkpt lat="46.548960000" lon="-72.947800000">
<ele>0</ele>
<time>2026-09-04T06:39:07Z</time>
</trkpt>
<trkpt lat="46.548740000" lon="-72.947880000">
<ele>0</ele>
<time>2026-09-04T06:39:08Z</time>
</trkpt>
<trkpt lat="46.548610000" lon="-72.947900000">
<ele>0</ele>
<time>2026-09-04T06:39:09Z</time>
</trkpt>
<trkpt lat="46.548430000" lon="-72.947880000">
<ele>0</ele>
<time>2026-09-04T06:39:10Z</time>
</trkpt>
<trkpt lat="46.548110000" lon="-72.947730000">
<ele>0</ele>
<time>2026-09-04T06:39:11Z</time>
</trkpt>
<trkpt lat="46.547920000" lon="-72.947690000">
<ele>0</ele>
<time>2026-09-04T06:39:12Z</time>
</trkpt>
<trkpt lat="46.547650000" lon="-72.947730000">
<ele>0</ele>
<time>2026-09-04T06:39:13Z</time>
</trkpt>
<trkpt lat="46.547550000" lon="-72.947740000">
<ele>0</ele>
<time>2026-09-04T06:39:14Z</time>
</trkpt>
<trkpt lat="46.547370000" lon="-72.947840000">
<ele>0</ele>
<time>2026-09-04T06:39:15Z</time>
</trkpt>
<trkpt lat="46.547230000" lon="-72.947960000">
<ele>0</ele>
<time>2026-09-04T06:39:16Z</time>
</trkpt>
<trkpt lat="46.546920000" lon="-72.948230000">
<ele>0</ele>
<time>2026-09-04T06:39:17Z</time>
</trkpt>
<trkpt lat="46.546380000" lon="-72.948700000">
<ele>0</ele>
<time>2026-09-04T06:39:18Z</time>
</trkpt>
<trkpt lat="46.546240000" lon="-72.948850000">
<ele>0</ele>
<time>2026-09-04T06:39:19Z</time>
</trkpt>
<trkpt lat="46.545960000" lon="-72.949180000">
<ele>0</ele>
<time>2026-09-04T06:39:20Z</time>
</trkpt>
<trkpt lat="46.545480000" lon="-72.949820000">
<ele>0</ele>
<time>2026-09-04T06:39:21Z</time>
</trkpt>
<trkpt lat="46.544900000" lon="-72.950690000">
<ele>0</ele>
<time>2026-09-04T06:39:22Z</time>
</trkpt>
<trkpt lat="46.544390000" lon="-72.951550000">
<ele>0</ele>
<time>2026-09-04T06:39:23Z</time>
</trkpt>
<trkpt lat="46.544150000" lon="-72.951950000">
<ele>0</ele>
<time>2026-09-04T06:39:24Z</time>
</trkpt>
<trkpt lat="46.544040000" lon="-72.952160000">
<ele>0</ele>
<time>2026-09-04T06:39:25Z</time>
</trkpt>
<trkpt lat="46.543960000" lon="-72.952420000">
<ele>0</ele>
<time>2026-09-04T06:39:26Z</time>
</trkpt>
<trkpt lat="46.543900000" lon="-72.952670000">
<ele>0</ele>
<time>2026-09-04T06:39:27Z</time>
</trkpt>
<trkpt lat="46.543790000" lon="-72.953210000">
<ele>0</ele>
<time>2026-09-04T06:39:28Z</time>
</trkpt>
<trkpt lat="46.543650000" lon="-72.953670000">
<ele>0</ele>
<time>2026-09-04T06:39:29Z</time>
</trkpt>
<trkpt lat="46.543470000" lon="-72.954080000">
<ele>0</ele>
<time>2026-09-04T06:39:30Z</time>
</trkpt>
<trkpt lat="46.543220000" lon="-72.954770000">
<ele>0</ele>
<time>2026-09-04T06:39:31Z</time>
</trkpt>
<trkpt lat="46.543100000" lon="-72.954960000">
<ele>0</ele>
<time>2026-09-04T06:39:32Z</time>
</trkpt>
<trkpt lat="46.542930000" lon="-72.955130000">
<ele>0</ele>
<time>2026-09-04T06:39:33Z</time>
</trkpt>
<trkpt lat="46.542760000" lon="-72.955210000">
<ele>0</ele>
<time>2026-09-04T06:39:34Z</time>
</trkpt>
<trkpt lat="46.542760000" lon="-72.955210000">
<ele>0</ele>
<time>2026-09-04T06:39:35Z</time>
</trkpt>
<trkpt lat="46.542690000" lon="-72.955230000">
<ele>0</ele>
<time>2026-09-04T06:39:36Z</time>
</trkpt>
<trkpt lat="46.542500000" lon="-72.955240000">
<ele>0</ele>
<time>2026-09-04T06:39:37Z</time>
</trkpt>
<trkpt lat="46.542430000" lon="-72.955220000">
<ele>0</ele>
<time>2026-09-04T06:39:38Z</time>
</trkpt>
<trkpt lat="46.542260000" lon="-72.955140000">
<ele>0</ele>
<time>2026-09-04T06:39:39Z</time>
</trkpt>
<trkpt lat="46.542090000" lon="-72.955030000">
<ele>0</ele>
<time>2026-09-04T06:39:40Z</time>
</trkpt>
<trkpt lat="46.541910000" lon="-72.954820000">
<ele>0</ele>
<time>2026-09-04T06:39:41Z</time>
</trkpt>
<trkpt lat="46.541780000" lon="-72.954630000">
<ele>0</ele>
<time>2026-09-04T06:39:42Z</time>
</trkpt>
<trkpt lat="46.541490000" lon="-72.954210000">
<ele>0</ele>
<time>2026-09-04T06:39:43Z</time>
</trkpt>
<trkpt lat="46.541210000" lon="-72.953880000">
<ele>0</ele>
<time>2026-09-04T06:39:44Z</time>
</trkpt>
<trkpt lat="46.540440000" lon="-72.952940000">
<ele>0</ele>
<time>2026-09-04T06:39:45Z</time>
</trkpt>
<trkpt lat="46.540090000" lon="-72.952570000">
<ele>0</ele>
<time>2026-09-04T06:39:46Z</time>
</trkpt>
<trkpt lat="46.539740000" lon="-72.952250000">
<ele>0</ele>
<time>2026-09-04T06:39:47Z</time>
</trkpt>
<trkpt lat="46.539620000" lon="-72.952160000">
<ele>0</ele>
<time>2026-09-04T06:39:48Z</time>
</trkpt>
<trkpt lat="46.539460000" lon="-72.952100000">
<ele>0</ele>
<time>2026-09-04T06:39:49Z</time>
</trkpt>
<trkpt lat="46.539310000" lon="-72.952100000">
<ele>0</ele>
<time>2026-09-04T06:39:50Z</time>
</trkpt>
<trkpt lat="46.539110000" lon="-72.952160000">
<ele>0</ele>
<time>2026-09-04T06:39:51Z</time>
</trkpt>
<trkpt lat="46.538550000" lon="-72.952420000">
<ele>0</ele>
<time>2026-09-04T06:39:52Z</time>
</trkpt>
<trkpt lat="46.538020000" lon="-72.952650000">
<ele>0</ele>
<time>2026-09-04T06:39:53Z</time>
</trkpt>
<trkpt lat="46.537900000" lon="-72.952690000">
<ele>0</ele>
<time>2026-09-04T06:39:54Z</time>
</trkpt>
<trkpt lat="46.537780000" lon="-72.952700000">
<ele>0</ele>
<time>2026-09-04T06:39:55Z</time>
</trkpt>
<trkpt lat="46.537600000" lon="-72.952670000">
<ele>0</ele>
<time>2026-09-04T06:39:56Z</time>
</trkpt>
<trkpt lat="46.537450000" lon="-72.952620000">
<ele>0</ele>
<time>2026-09-04T06:39:57Z</time>
</trkpt>
<trkpt lat="46.537230000" lon="-72.952520000">
<ele>0</ele>
<time>2026-09-04T06:39:58Z</time>
</trkpt>
<trkpt lat="46.536930000" lon="-72.952310000">
<ele>0</ele>
<time>2026-09-04T06:39:59Z</time>
</trkpt>
<trkpt lat="46.536620000" lon="-72.952020000">
<ele>0</ele>
<time>2026-09-04T06:40:00Z</time>
</trkpt>
<trkpt lat="46.536350000" lon="-72.951690000">
<ele>0</ele>
<time>2026-09-04T06:40:01Z</time>
</trkpt>
<trkpt lat="46.535820000" lon="-72.950960000">
<ele>0</ele>
<time>2026-09-04T06:40:02Z</time>
</trkpt>
<trkpt lat="46.535570000" lon="-72.950740000">
<ele>0</ele>
<time>2026-09-04T06:40:03Z</time>
</trkpt>
<trkpt lat="46.535430000" lon="-72.950640000">
<ele>0</ele>
<time>2026-09-04T06:40:04Z</time>
</trkpt>
<trkpt lat="46.535140000" lon="-72.950500000">
<ele>0</ele>
<time>2026-09-04T06:40:05Z</time>
</trkpt>
<trkpt lat="46.534950000" lon="-72.950450000">
<ele>0</ele>
<time>2026-09-04T06:40:06Z</time>
</trkpt>
<trkpt lat="46.534780000" lon="-72.950390000">
<ele>0</ele>
<time>2026-09-04T06:40:07Z</time>
</trkpt>
<trkpt lat="46.534600000" lon="-72.950370000">
<ele>0</ele>
<time>2026-09-04T06:40:08Z</time>
</trkpt>
<trkpt lat="46.534430000" lon="-72.950410000">
<ele>0</ele>
<time>2026-09-04T06:40:09Z</time>
</trkpt>
<trkpt lat="46.534270000" lon="-72.950500000">
<ele>0</ele>
<time>2026-09-04T06:40:10Z</time>
</trkpt>
<trkpt lat="46.533770000" lon="-72.950810000">
<ele>0</ele>
<time>2026-09-04T06:40:11Z</time>
</trkpt>
<trkpt lat="46.533270000" lon="-72.951160000">
<ele>0</ele>
<time>2026-09-04T06:40:12Z</time>
</trkpt>
<trkpt lat="46.532870000" lon="-72.951500000">
<ele>0</ele>
<time>2026-09-04T06:40:13Z</time>
</trkpt>
<trkpt lat="46.532680000" lon="-72.951740000">
<ele>0</ele>
<time>2026-09-04T06:40:14Z</time>
</trkpt>
<trkpt lat="46.532570000" lon="-72.951920000">
<ele>0</ele>
<time>2026-09-04T06:40:15Z</time>
</trkpt>
<trkpt lat="46.532350000" lon="-72.952420000">
<ele>0</ele>
<time>2026-09-04T06:40:16Z</time>
</trkpt>
<trkpt lat="46.531950000" lon="-72.953410000">
<ele>0</ele>
<time>2026-09-04T06:40:17Z</time>
</trkpt>
<trkpt lat="46.531660000" lon="-72.954070000">
<ele>0</ele>
<time>2026-09-04T06:40:18Z</time>
</trkpt>
<trkpt lat="46.531380000" lon="-72.954550000">
<ele>0</ele>
<time>2026-09-04T06:40:19Z</time>
</trkpt>
<trkpt lat="46.531250000" lon="-72.954740000">
<ele>0</ele>
<time>2026-09-04T06:40:20Z</time>
</trkpt>
<trkpt lat="46.530840000" lon="-72.955250000">
<ele>0</ele>
<time>2026-09-04T06:40:21Z</time>
</trkpt>
<trkpt lat="46.530290000" lon="-72.955920000">
<ele>0</ele>
<time>2026-09-04T06:40:22Z</time>
</trkpt>
<trkpt lat="46.529690000" lon="-72.956660000">
<ele>0</ele>
<time>2026-09-04T06:40:23Z</time>
</trkpt>
<trkpt lat="46.529490000" lon="-72.956950000">
<ele>0</ele>
<time>2026-09-04T06:40:24Z</time>
</trkpt>
<trkpt lat="46.529420000" lon="-72.957090000">
<ele>0</ele>
<time>2026-09-04T06:40:25Z</time>
</trkpt>
<trkpt lat="46.529350000" lon="-72.957270000">
<ele>0</ele>
<time>2026-09-04T06:40:26Z</time>
</trkpt>
<trkpt lat="46.529280000" lon="-72.957660000">
<ele>0</ele>
<time>2026-09-04T06:40:27Z</time>
</trkpt>
<trkpt lat="46.529230000" lon="-72.958070000">
<ele>0</ele>
<time>2026-09-04T06:40:28Z</time>
</trkpt>
<trkpt lat="46.529200000" lon="-72.958180000">
<ele>0</ele>
<time>2026-09-04T06:40:29Z</time>
</trkpt>
<trkpt lat="46.529130000" lon="-72.958330000">
<ele>0</ele>
<time>2026-09-04T06:40:30Z</time>
</trkpt>
<trkpt lat="46.528950000" lon="-72.958540000">
<ele>0</ele>
<time>2026-09-04T06:40:31Z</time>
</trkpt>
<trkpt lat="46.528360000" lon="-72.959140000">
<ele>0</ele>
<time>2026-09-04T06:40:32Z</time>
</trkpt>
<trkpt lat="46.528190000" lon="-72.959300000">
<ele>0</ele>
<time>2026-09-04T06:40:33Z</time>
</trkpt>
<trkpt lat="46.527930000" lon="-72.959490000">
<ele>0</ele>
<time>2026-09-04T06:40:34Z</time>
</trkpt>
<trkpt lat="46.527720000" lon="-72.959580000">
<ele>0</ele>
<time>2026-09-04T06:40:35Z</time>
</trkpt>
<trkpt lat="46.527590000" lon="-72.959600000">
<ele>0</ele>
<time>2026-09-04T06:40:36Z</time>
</trkpt>
<trkpt lat="46.527400000" lon="-72.959580000">
<ele>0</ele>
<time>2026-09-04T06:40:37Z</time>
</trkpt>
<trkpt lat="46.527130000" lon="-72.959540000">
<ele>0</ele>
<time>2026-09-04T06:40:38Z</time>
</trkpt>
<trkpt lat="46.526870000" lon="-72.959560000">
<ele>0</ele>
<time>2026-09-04T06:40:39Z</time>
</trkpt>
<trkpt lat="46.526670000" lon="-72.959640000">
<ele>0</ele>
<time>2026-09-04T06:40:40Z</time>
</trkpt>
<trkpt lat="46.526490000" lon="-72.959750000">
<ele>0</ele>
<time>2026-09-04T06:40:41Z</time>
</trkpt>
<trkpt lat="46.526300000" lon="-72.959920000">
<ele>0</ele>
<time>2026-09-04T06:40:42Z</time>
</trkpt>
<trkpt lat="46.526160000" lon="-72.960070000">
<ele>0</ele>
<time>2026-09-04T06:40:43Z</time>
</trkpt>
<trkpt lat="46.525790000" lon="-72.960530000">
<ele>0</ele>
<time>2026-09-04T06:40:44Z</time>
</trkpt>
<trkpt lat="46.525450000" lon="-72.960950000">
<ele>0</ele>
<time>2026-09-04T06:40:45Z</time>
</trkpt>
<trkpt lat="46.525310000" lon="-72.961060000">
<ele>0</ele>
<time>2026-09-04T06:40:46Z</time>
</trkpt>
<trkpt lat="46.525200000" lon="-72.961080000">
<ele>0</ele>
<time>2026-09-04T06:40:47Z</time>
</trkpt>
<trkpt lat="46.525040000" lon="-72.961110000">
<ele>0</ele>
<time>2026-09-04T06:40:48Z</time>
</trkpt>
<trkpt lat="46.524880000" lon="-72.961160000">
<ele>0</ele>
<time>2026-09-04T06:40:49Z</time>
</trkpt>
<trkpt lat="46.524670000" lon="-72.961260000">
<ele>0</ele>
<time>2026-09-04T06:40:50Z</time>
</trkpt>
<trkpt lat="46.524350000" lon="-72.961470000">
<ele>0</ele>
<time>2026-09-04T06:40:51Z</time>
</trkpt>
<trkpt lat="46.524030000" lon="-72.961720000">
<ele>0</ele>
<time>2026-09-04T06:40:52Z</time>
</trkpt>
<trkpt lat="46.523430000" lon="-72.962300000">
<ele>0</ele>
<time>2026-09-04T06:40:53Z</time>
</trkpt>
<trkpt lat="46.522860000" lon="-72.962850000">
<ele>0</ele>
<time>2026-09-04T06:40:54Z</time>
</trkpt>
<trkpt lat="46.522540000" lon="-72.963070000">
<ele>0</ele>
<time>2026-09-04T06:40:55Z</time>
</trkpt>
<trkpt lat="46.522010000" lon="-72.963280000">
<ele>0</ele>
<time>2026-09-04T06:40:56Z</time>
</trkpt>
<trkpt lat="46.521720000" lon="-72.963400000">
<ele>0</ele>
<time>2026-09-04T06:40:57Z</time>
</trkpt>
<trkpt lat="46.521410000" lon="-72.963480000">
<ele>0</ele>
<time>2026-09-04T06:40:58Z</time>
</trkpt>
<trkpt lat="46.521230000" lon="-72.963480000">
<ele>0</ele>
<time>2026-09-04T06:40:59Z</time>
</trkpt>
<trkpt lat="46.521060000" lon="-72.963430000">
<ele>0</ele>
<time>2026-09-04T06:41:00Z</time>
</trkpt>
<trkpt lat="46.520930000" lon="-72.963370000">
<ele>0</ele>
<time>2026-09-04T06:41:01Z</time>
</trkpt>
<trkpt lat="46.520700000" lon="-72.963190000">
<ele>0</ele>
<time>2026-09-04T06:41:02Z</time>
</trkpt>
<trkpt lat="46.520510000" lon="-72.962970000">
<ele>0</ele>
<time>2026-09-04T06:41:03Z</time>
</trkpt>
<trkpt lat="46.520430000" lon="-72.962830000">
<ele>0</ele>
<time>2026-09-04T06:41:04Z</time>
</trkpt>
<trkpt lat="46.520350000" lon="-72.962640000">
<ele>0</ele>
<time>2026-09-04T06:41:05Z</time>
</trkpt>
<trkpt lat="46.520210000" lon="-72.962300000">
<ele>0</ele>
<time>2026-09-04T06:41:06Z</time>
</trkpt>
<trkpt lat="46.520070000" lon="-72.961830000">
<ele>0</ele>
<time>2026-09-04T06:41:07Z</time>
</trkpt>
<trkpt lat="46.519940000" lon="-72.961350000">
<ele>0</ele>
<time>2026-09-04T06:41:08Z</time>
</trkpt>
<trkpt lat="46.519880000" lon="-72.961100000">
<ele>0</ele>
<time>2026-09-04T06:41:09Z</time>
</trkpt>
<trkpt lat="46.519600000" lon="-72.960140000">
<ele>0</ele>
<time>2026-09-04T06:41:10Z</time>
</trkpt>
<trkpt lat="46.519230000" lon="-72.958950000">
<ele>0</ele>
<time>2026-09-04T06:41:11Z</time>
</trkpt>
<trkpt lat="46.518910000" lon="-72.958010000">
<ele>0</ele>
<time>2026-09-04T06:41:12Z</time>
</trkpt>
<trkpt lat="46.518660000" lon="-72.957320000">
<ele>0</ele>
<time>2026-09-04T06:41:13Z</time>
</trkpt>
<trkpt lat="46.518570000" lon="-72.957090000">
<ele>0</ele>
<time>2026-09-04T06:41:14Z</time>
</trkpt>
<trkpt lat="46.518390000" lon="-72.956740000">
<ele>0</ele>
<time>2026-09-04T06:41:15Z</time>
</trkpt>
<trkpt lat="46.518020000" lon="-72.956160000">
<ele>0</ele>
<time>2026-09-04T06:41:16Z</time>
</trkpt>
<trkpt lat="46.517780000" lon="-72.955920000">
<ele>0</ele>
<time>2026-09-04T06:41:17Z</time>
</trkpt>
<trkpt lat="46.517660000" lon="-72.955850000">
<ele>0</ele>
<time>2026-09-04T06:41:18Z</time>
</trkpt>
<trkpt lat="46.517450000" lon="-72.955820000">
<ele>0</ele>
<time>2026-09-04T06:41:19Z</time>
</trkpt>
<trkpt lat="46.516970000" lon="-72.955920000">
<ele>0</ele>
<time>2026-09-04T06:41:20Z</time>
</trkpt>
<trkpt lat="46.516780000" lon="-72.955900000">
<ele>0</ele>
<time>2026-09-04T06:41:21Z</time>
</trkpt>
<trkpt lat="46.516630000" lon="-72.955800000">
<ele>0</ele>
<time>2026-09-04T06:41:22Z</time>
</trkpt>
<trkpt lat="46.516570000" lon="-72.955710000">
<ele>0</ele>
<time>2026-09-04T06:41:23Z</time>
</trkpt>
<trkpt lat="46.516380000" lon="-72.955400000">
<ele>0</ele>
<time>2026-09-04T06:41:24Z</time>
</trkpt>
<trkpt lat="46.516180000" lon="-72.954850000">
<ele>0</ele>
<time>2026-09-04T06:41:25Z</time>
</trkpt>
<trkpt lat="46.516040000" lon="-72.954470000">
<ele>0</ele>
<time>2026-09-04T06:41:26Z</time>
</trkpt>
<trkpt lat="46.515890000" lon="-72.954110000">
<ele>0</ele>
<time>2026-09-04T06:41:27Z</time>
</trkpt>
<trkpt lat="46.515830000" lon="-72.954010000">
<ele>0</ele>
<time>2026-09-04T06:41:28Z</time>
</trkpt>
<trkpt lat="46.515700000" lon="-72.953880000">
<ele>0</ele>
<time>2026-09-04T06:41:29Z</time>
</trkpt>
<trkpt lat="46.515470000" lon="-72.953710000">
<ele>0</ele>
<time>2026-09-04T06:41:30Z</time>
</trkpt>
<trkpt lat="46.515020000" lon="-72.953430000">
<ele>0</ele>
<time>2026-09-04T06:41:31Z</time>
</trkpt>
<trkpt lat="46.514730000" lon="-72.953190000">
<ele>0</ele>
<time>2026-09-04T06:41:32Z</time>
</trkpt>
<trkpt lat="46.513990000" lon="-72.952470000">
<ele>0</ele>
<time>2026-09-04T06:41:33Z</time>
</trkpt>
<trkpt lat="46.513560000" lon="-72.952140000">
<ele>0</ele>
<time>2026-09-04T06:41:34Z</time>
</trkpt>
<trkpt lat="46.513180000" lon="-72.951890000">
<ele>0</ele>
<time>2026-09-04T06:41:35Z</time>
</trkpt>
<trkpt lat="46.512840000" lon="-72.951710000">
<ele>0</ele>
<time>2026-09-04T06:41:36Z</time>
</trkpt>
<trkpt lat="46.512590000" lon="-72.951640000">
<ele>0</ele>
<time>2026-09-04T06:41:37Z</time>
</trkpt>
<trkpt lat="46.512130000" lon="-72.951630000">
<ele>0</ele>
<time>2026-09-04T06:41:38Z</time>
</trkpt>
<trkpt lat="46.511140000" lon="-72.951610000">
<ele>0</ele>
<time>2026-09-04T06:41:39Z</time>
</trkpt>
<trkpt lat="46.510690000" lon="-72.951640000">
<ele>0</ele>
<time>2026-09-04T06:41:40Z</time>
</trkpt>
<trkpt lat="46.510510000" lon="-72.951670000">
<ele>0</ele>
<time>2026-09-04T06:41:41Z</time>
</trkpt>
<trkpt lat="46.510280000" lon="-72.951730000">
<ele>0</ele>
<time>2026-09-04T06:41:42Z</time>
</trkpt>
<trkpt lat="46.510030000" lon="-72.951890000">
<ele>0</ele>
<time>2026-09-04T06:41:43Z</time>
</trkpt>
<trkpt lat="46.509780000" lon="-72.952070000">
<ele>0</ele>
<time>2026-09-04T06:41:44Z</time>
</trkpt>
<trkpt lat="46.509030000" lon="-72.952480000">
<ele>0</ele>
<time>2026-09-04T06:41:45Z</time>
</trkpt>
<trkpt lat="46.508770000" lon="-72.952620000">
<ele>0</ele>
<time>2026-09-04T06:41:46Z</time>
</trkpt>
<trkpt lat="46.508550000" lon="-72.952700000">
<ele>0</ele>
<time>2026-09-04T06:41:47Z</time>
</trkpt>
<trkpt lat="46.508330000" lon="-72.952760000">
<ele>0</ele>
<time>2026-09-04T06:41:48Z</time>
</trkpt>
<trkpt lat="46.508090000" lon="-72.952780000">
<ele>0</ele>
<time>2026-09-04T06:41:49Z</time>
</trkpt>
<trkpt lat="46.507740000" lon="-72.952750000">
<ele>0</ele>
<time>2026-09-04T06:41:50Z</time>
</trkpt>
<trkpt lat="46.506380000" lon="-72.952580000">
<ele>0</ele>
<time>2026-09-04T06:41:51Z</time>
</trkpt>
<trkpt lat="46.505210000" lon="-72.952440000">
<ele>0</ele>
<time>2026-09-04T06:41:52Z</time>
</trkpt>
<trkpt lat="46.504820000" lon="-72.952370000">
<ele>0</ele>
<time>2026-09-04T06:41:53Z</time>
</trkpt>
<trkpt lat="46.504500000" lon="-72.952270000">
<ele>0</ele>
<time>2026-09-04T06:41:54Z</time>
</trkpt>
<trkpt lat="46.504170000" lon="-72.952080000">
<ele>0</ele>
<time>2026-09-04T06:41:55Z</time>
</trkpt>
<trkpt lat="46.504000000" lon="-72.951920000">
<ele>0</ele>
<time>2026-09-04T06:41:56Z</time>
</trkpt>
<trkpt lat="46.503770000" lon="-72.951630000">
<ele>0</ele>
<time>2026-09-04T06:41:57Z</time>
</trkpt>
<trkpt lat="46.503180000" lon="-72.950820000">
<ele>0</ele>
<time>2026-09-04T06:41:58Z</time>
</trkpt>
<trkpt lat="46.502520000" lon="-72.949880000">
<ele>0</ele>
<time>2026-09-04T06:41:59Z</time>
</trkpt>
<trkpt lat="46.502260000" lon="-72.949500000">
<ele>0</ele>
<time>2026-09-04T06:42:00Z</time>
</trkpt>
<trkpt lat="46.501900000" lon="-72.949030000">
<ele>0</ele>
<time>2026-09-04T06:42:01Z</time>
</trkpt>
<trkpt lat="46.501490000" lon="-72.948570000">
<ele>0</ele>
<time>2026-09-04T06:42:02Z</time>
</trkpt>
<trkpt lat="46.500840000" lon="-72.949640000">
<ele>0</ele>
<time>2026-09-04T06:42:03Z</time>
</trkpt>
<trkpt lat="46.500350000" lon="-72.950410000">
<ele>0</ele>
<time>2026-09-04T06:42:04Z</time>
</trkpt>
<trkpt lat="46.500350000" lon="-72.950410000">
<ele>0</ele>
<time>2026-09-04T06:42:05Z</time>
</trkpt>
<trkpt lat="46.497270000" lon="-72.955270000">
<ele>0</ele>
<time>2026-09-04T06:42:06Z</time>
</trkpt>
<trkpt lat="46.496210000" lon="-72.956920000">
<ele>0</ele>
<time>2026-09-04T06:42:07Z</time>
</trkpt>
<trkpt lat="46.495670000" lon="-72.957750000">
<ele>0</ele>
<time>2026-09-04T06:42:08Z</time>
</trkpt>
<trkpt lat="46.495360000" lon="-72.958190000">
<ele>0</ele>
<time>2026-09-04T06:42:09Z</time>
</trkpt>
<trkpt lat="46.494930000" lon="-72.958700000">
<ele>0</ele>
<time>2026-09-04T06:42:10Z</time>
</trkpt>
<trkpt lat="46.494300000" lon="-72.959640000">
<ele>0</ele>
<time>2026-09-04T06:42:11Z</time>
</trkpt>
<trkpt lat="46.492600000" lon="-72.962220000">
<ele>0</ele>
<time>2026-09-04T06:42:12Z</time>
</trkpt>
<trkpt lat="46.492390000" lon="-72.961480000">
<ele>0</ele>
<time>2026-09-04T06:42:13Z</time>
</trkpt>
<trkpt lat="46.492210000" lon="-72.960990000">
<ele>0</ele>
<time>2026-09-04T06:42:14Z</time>
</trkpt>
<trkpt lat="46.492020000" lon="-72.960670000">
<ele>0</ele>
<time>2026-09-04T06:42:15Z</time>
</trkpt>
<trkpt lat="46.492020000" lon="-72.960670000">
<ele>0</ele>
<time>2026-09-04T06:42:16Z</time>
</trkpt>
<trkpt lat="46.491920000" lon="-72.960550000">
<ele>0</ele>
<time>2026-09-04T06:42:17Z</time>
</trkpt>
<trkpt lat="46.491790000" lon="-72.960440000">
<ele>0</ele>
<time>2026-09-04T06:42:18Z</time>
</trkpt>
<trkpt lat="46.491500000" lon="-72.960290000">
<ele>0</ele>
<time>2026-09-04T06:42:19Z</time>
</trkpt>
<trkpt lat="46.491110000" lon="-72.960090000">
<ele>0</ele>
<time>2026-09-04T06:42:20Z</time>
</trkpt>
<trkpt lat="46.490930000" lon="-72.959950000">
<ele>0</ele>
<time>2026-09-04T06:42:21Z</time>
</trkpt>
<trkpt lat="46.490720000" lon="-72.959700000">
<ele>0</ele>
<time>2026-09-04T06:42:22Z</time>
</trkpt>
<trkpt lat="46.490370000" lon="-72.959210000">
<ele>0</ele>
<time>2026-09-04T06:42:23Z</time>
</trkpt>
<trkpt lat="46.489940000" lon="-72.958600000">
<ele>0</ele>
<time>2026-09-04T06:42:24Z</time>
</trkpt>
<trkpt lat="46.489410000" lon="-72.957900000">
<ele>0</ele>
<time>2026-09-04T06:42:25Z</time>
</trkpt>
<trkpt lat="46.488510000" lon="-72.956700000">
<ele>0</ele>
<time>2026-09-04T06:42:26Z</time>
</trkpt>
<trkpt lat="46.487240000" lon="-72.958610000">
<ele>0</ele>
<time>2026-09-04T06:42:27Z</time>
</trkpt>
<trkpt lat="46.487040000" lon="-72.958920000">
<ele>0</ele>
<time>2026-09-04T06:42:28Z</time>
</trkpt>
<trkpt lat="46.487040000" lon="-72.958920000">
<ele>0</ele>
<time>2026-09-04T06:42:29Z</time>
</trkpt>
<trkpt lat="46.487680000" lon="-72.957950000">
<ele>0</ele>
<time>2026-09-04T06:42:30Z</time>
</trkpt>
<trkpt lat="46.488510000" lon="-72.956700000">
<ele>0</ele>
<time>2026-09-04T06:42:31Z</time>
</trkpt>
<trkpt lat="46.488630000" lon="-72.956870000">
<ele>0</ele>
<time>2026-09-04T06:42:32Z</time>
</trkpt>
<trkpt lat="46.488630000" lon="-72.956870000">
<ele>0</ele>
<time>2026-09-04T06:42:33Z</time>
</trkpt>
<trkpt lat="46.489940000" lon="-72.958600000">
<ele>0</ele>
<time>2026-09-04T06:42:34Z</time>
</trkpt>
<trkpt lat="46.490720000" lon="-72.959700000">
<ele>0</ele>
<time>2026-09-04T06:42:35Z</time>
</trkpt>
<trkpt lat="46.490930000" lon="-72.959950000">
<ele>0</ele>
<time>2026-09-04T06:42:36Z</time>
</trkpt>
<trkpt lat="46.491110000" lon="-72.960080000">
<ele>0</ele>
<time>2026-09-04T06:42:37Z</time>
</trkpt>
<trkpt lat="46.491450000" lon="-72.960260000">
<ele>0</ele>
<time>2026-09-04T06:42:38Z</time>
</trkpt>
<trkpt lat="46.491770000" lon="-72.960430000">
<ele>0</ele>
<time>2026-09-04T06:42:39Z</time>
</trkpt>
<trkpt lat="46.491920000" lon="-72.960550000">
<ele>0</ele>
<time>2026-09-04T06:42:40Z</time>
</trkpt>
<trkpt lat="46.492030000" lon="-72.960670000">
<ele>0</ele>
<time>2026-09-04T06:42:41Z</time>
</trkpt>
<trkpt lat="46.492160000" lon="-72.960880000">
<ele>0</ele>
<time>2026-09-04T06:42:42Z</time>
</trkpt>
<trkpt lat="46.492370000" lon="-72.961410000">
<ele>0</ele>
<time>2026-09-04T06:42:43Z</time>
</trkpt>
<trkpt lat="46.492450000" lon="-72.961690000">
<ele>0</ele>
<time>2026-09-04T06:42:44Z</time>
</trkpt>
<trkpt lat="46.492600000" lon="-72.962220000">
<ele>0</ele>
<time>2026-09-04T06:42:45Z</time>
</trkpt>
<trkpt lat="46.492940000" lon="-72.961710000">
<ele>0</ele>
<time>2026-09-04T06:42:46Z</time>
</trkpt>
<trkpt lat="46.493060000" lon="-72.961530000">
<ele>0</ele>
<time>2026-09-04T06:42:47Z</time>
</trkpt>
<trkpt lat="46.493800000" lon="-72.960410000">
<ele>0</ele>
<time>2026-09-04T06:42:48Z</time>
</trkpt>
<trkpt lat="46.493800000" lon="-72.960410000">
<ele>0</ele>
<time>2026-09-04T06:42:49Z</time>
</trkpt>
<trkpt lat="46.494490000" lon="-72.959340000">
<ele>0</ele>
<time>2026-09-04T06:42:50Z</time>
</trkpt>
<trkpt lat="46.494820000" lon="-72.958840000">
<ele>0</ele>
<time>2026-09-04T06:42:51Z</time>
</trkpt>
<trkpt lat="46.495020000" lon="-72.958590000">
<ele>0</ele>
<time>2026-09-04T06:42:52Z</time>
</trkpt>
<trkpt lat="46.495150000" lon="-72.958460000">
<ele>0</ele>
<time>2026-09-04T06:42:53Z</time>
</trkpt>
<trkpt lat="46.495500000" lon="-72.958000000">
<ele>0</ele>
<time>2026-09-04T06:42:54Z</time>
</trkpt>
<trkpt lat="46.496800000" lon="-72.955990000">
<ele>0</ele>
<time>2026-09-04T06:42:55Z</time>
</trkpt>
<trkpt lat="46.497670000" lon="-72.954630000">
<ele>0</ele>
<time>2026-09-04T06:42:56Z</time>
</trkpt>
<trkpt lat="46.499940000" lon="-72.951060000">
<ele>0</ele>
<time>2026-09-04T06:42:57Z</time>
</trkpt>
<trkpt lat="46.501490000" lon="-72.948570000">
<ele>0</ele>
<time>2026-09-04T06:42:58Z</time>
</trkpt>
<trkpt lat="46.501900000" lon="-72.949030000">
<ele>0</ele>
<time>2026-09-04T06:42:59Z</time>
</trkpt>
<trkpt lat="46.502260000" lon="-72.949500000">
<ele>0</ele>
<time>2026-09-04T06:43:00Z</time>
</trkpt>
<trkpt lat="46.503050000" lon="-72.950640000">
<ele>0</ele>
<time>2026-09-04T06:43:01Z</time>
</trkpt>
<trkpt lat="46.503570000" lon="-72.951380000">
<ele>0</ele>
<time>2026-09-04T06:43:02Z</time>
</trkpt>
<trkpt lat="46.504000000" lon="-72.951920000">
<ele>0</ele>
<time>2026-09-04T06:43:03Z</time>
</trkpt>
<trkpt lat="46.504170000" lon="-72.952080000">
<ele>0</ele>
<time>2026-09-04T06:43:04Z</time>
</trkpt>
<trkpt lat="46.504310000" lon="-72.952170000">
<ele>0</ele>
<time>2026-09-04T06:43:05Z</time>
</trkpt>
<trkpt lat="46.504500000" lon="-72.952270000">
<ele>0</ele>
<time>2026-09-04T06:43:06Z</time>
</trkpt>
<trkpt lat="46.504690000" lon="-72.952340000">
<ele>0</ele>
<time>2026-09-04T06:43:07Z</time>
</trkpt>
<trkpt lat="46.505000000" lon="-72.952410000">
<ele>0</ele>
<time>2026-09-04T06:43:08Z</time>
</trkpt>
<trkpt lat="46.505640000" lon="-72.952500000">
<ele>0</ele>
<time>2026-09-04T06:43:09Z</time>
</trkpt>
<trkpt lat="46.507820000" lon="-72.952760000">
<ele>0</ele>
<time>2026-09-04T06:43:10Z</time>
</trkpt>
<trkpt lat="46.508160000" lon="-72.952780000">
<ele>0</ele>
<time>2026-09-04T06:43:11Z</time>
</trkpt>
<trkpt lat="46.508350000" lon="-72.952760000">
<ele>0</ele>
<time>2026-09-04T06:43:12Z</time>
</trkpt>
<trkpt lat="46.508550000" lon="-72.952700000">
<ele>0</ele>
<time>2026-09-04T06:43:13Z</time>
</trkpt>
<trkpt lat="46.508770000" lon="-72.952620000">
<ele>0</ele>
<time>2026-09-04T06:43:14Z</time>
</trkpt>
<trkpt lat="46.509370000" lon="-72.952300000">
<ele>0</ele>
<time>2026-09-04T06:43:15Z</time>
</trkpt>
<trkpt lat="46.509780000" lon="-72.952070000">
<ele>0</ele>
<time>2026-09-04T06:43:16Z</time>
</trkpt>
<trkpt lat="46.509910000" lon="-72.951980000">
<ele>0</ele>
<time>2026-09-04T06:43:17Z</time>
</trkpt>
<trkpt lat="46.510280000" lon="-72.951730000">
<ele>0</ele>
<time>2026-09-04T06:43:18Z</time>
</trkpt>
<trkpt lat="46.510510000" lon="-72.951670000">
<ele>0</ele>
<time>2026-09-04T06:43:19Z</time>
</trkpt>
<trkpt lat="46.510690000" lon="-72.951640000">
<ele>0</ele>
<time>2026-09-04T06:43:20Z</time>
</trkpt>
<trkpt lat="46.511590000" lon="-72.951610000">
<ele>0</ele>
<time>2026-09-04T06:43:21Z</time>
</trkpt>
<trkpt lat="46.512430000" lon="-72.951630000">
<ele>0</ele>
<time>2026-09-04T06:43:22Z</time>
</trkpt>
<trkpt lat="46.512690000" lon="-72.951660000">
<ele>0</ele>
<time>2026-09-04T06:43:23Z</time>
</trkpt>
<trkpt lat="46.512840000" lon="-72.951710000">
<ele>0</ele>
<time>2026-09-04T06:43:24Z</time>
</trkpt>
<trkpt lat="46.513010000" lon="-72.951790000">
<ele>0</ele>
<time>2026-09-04T06:43:25Z</time>
</trkpt>
<trkpt lat="46.513350000" lon="-72.951990000">
<ele>0</ele>
<time>2026-09-04T06:43:26Z</time>
</trkpt>
<trkpt lat="46.513740000" lon="-72.952260000">
<ele>0</ele>
<time>2026-09-04T06:43:27Z</time>
</trkpt>
<trkpt lat="46.514140000" lon="-72.952610000">
<ele>0</ele>
<time>2026-09-04T06:43:28Z</time>
</trkpt>
<trkpt lat="46.514440000" lon="-72.952900000">
<ele>0</ele>
<time>2026-09-04T06:43:29Z</time>
</trkpt>
<trkpt lat="46.514870000" lon="-72.953320000">
<ele>0</ele>
<time>2026-09-04T06:43:30Z</time>
</trkpt>
<trkpt lat="46.515180000" lon="-72.953540000">
<ele>0</ele>
<time>2026-09-04T06:43:31Z</time>
</trkpt>
<trkpt lat="46.515610000" lon="-72.953810000">
<ele>0</ele>
<time>2026-09-04T06:43:32Z</time>
</trkpt>
<trkpt lat="46.515700000" lon="-72.953880000">
<ele>0</ele>
<time>2026-09-04T06:43:33Z</time>
</trkpt>
<trkpt lat="46.515830000" lon="-72.954010000">
<ele>0</ele>
<time>2026-09-04T06:43:34Z</time>
</trkpt>
<trkpt lat="46.515890000" lon="-72.954110000">
<ele>0</ele>
<time>2026-09-04T06:43:35Z</time>
</trkpt>
<trkpt lat="46.516040000" lon="-72.954470000">
<ele>0</ele>
<time>2026-09-04T06:43:36Z</time>
</trkpt>
<trkpt lat="46.516180000" lon="-72.954850000">
<ele>0</ele>
<time>2026-09-04T06:43:37Z</time>
</trkpt>
<trkpt lat="46.516380000" lon="-72.955400000">
<ele>0</ele>
<time>2026-09-04T06:43:38Z</time>
</trkpt>
<trkpt lat="46.516570000" lon="-72.955710000">
<ele>0</ele>
<time>2026-09-04T06:43:39Z</time>
</trkpt>
<trkpt lat="46.516630000" lon="-72.955800000">
<ele>0</ele>
<time>2026-09-04T06:43:40Z</time>
</trkpt>
<trkpt lat="46.516780000" lon="-72.955900000">
<ele>0</ele>
<time>2026-09-04T06:43:41Z</time>
</trkpt>
<trkpt lat="46.516870000" lon="-72.955920000">
<ele>0</ele>
<time>2026-09-04T06:43:42Z</time>
</trkpt>
<trkpt lat="46.516970000" lon="-72.955920000">
<ele>0</ele>
<time>2026-09-04T06:43:43Z</time>
</trkpt>
<trkpt lat="46.517310000" lon="-72.955850000">
<ele>0</ele>
<time>2026-09-04T06:43:44Z</time>
</trkpt>
<trkpt lat="46.517450000" lon="-72.955820000">
<ele>0</ele>
<time>2026-09-04T06:43:45Z</time>
</trkpt>
<trkpt lat="46.517660000" lon="-72.955850000">
<ele>0</ele>
<time>2026-09-04T06:43:46Z</time>
</trkpt>
<trkpt lat="46.517780000" lon="-72.955920000">
<ele>0</ele>
<time>2026-09-04T06:43:47Z</time>
</trkpt>
<trkpt lat="46.517880000" lon="-72.956010000">
<ele>0</ele>
<time>2026-09-04T06:43:48Z</time>
</trkpt>
<trkpt lat="46.518020000" lon="-72.956160000">
<ele>0</ele>
<time>2026-09-04T06:43:49Z</time>
</trkpt>
<trkpt lat="46.518250000" lon="-72.956510000">
<ele>0</ele>
<time>2026-09-04T06:43:50Z</time>
</trkpt>
<trkpt lat="46.518390000" lon="-72.956740000">
<ele>0</ele>
<time>2026-09-04T06:43:51Z</time>
</trkpt>
<trkpt lat="46.518570000" lon="-72.957090000">
<ele>0</ele>
<time>2026-09-04T06:43:52Z</time>
</trkpt>
<trkpt lat="46.518830000" lon="-72.957780000">
<ele>0</ele>
<time>2026-09-04T06:43:53Z</time>
</trkpt>
<trkpt lat="46.518860000" lon="-72.957870000">
<ele>0</ele>
<time>2026-09-04T06:43:54Z</time>
</trkpt>
<trkpt lat="46.518860000" lon="-72.957870000">
<ele>0</ele>
<time>2026-09-04T06:43:55Z</time>
</trkpt>
<trkpt lat="46.519460000" lon="-72.959650000">
<ele>0</ele>
<time>2026-09-04T06:43:56Z</time>
</trkpt>
<trkpt lat="46.519940000" lon="-72.961350000">
<ele>0</ele>
<time>2026-09-04T06:43:57Z</time>
</trkpt>
<trkpt lat="46.520070000" lon="-72.961830000">
<ele>0</ele>
<time>2026-09-04T06:43:58Z</time>
</trkpt>
<trkpt lat="46.520210000" lon="-72.962300000">
<ele>0</ele>
<time>2026-09-04T06:43:59Z</time>
</trkpt>
<trkpt lat="46.520350000" lon="-72.962640000">
<ele>0</ele>
<time>2026-09-04T06:44:00Z</time>
</trkpt>
<trkpt lat="46.520430000" lon="-72.962830000">
<ele>0</ele>
<time>2026-09-04T06:44:01Z</time>
</trkpt>
<trkpt lat="46.520510000" lon="-72.962970000">
<ele>0</ele>
<time>2026-09-04T06:44:02Z</time>
</trkpt>
<trkpt lat="46.520700000" lon="-72.963190000">
<ele>0</ele>
<time>2026-09-04T06:44:03Z</time>
</trkpt>
<trkpt lat="46.520930000" lon="-72.963370000">
<ele>0</ele>
<time>2026-09-04T06:44:04Z</time>
</trkpt>
<trkpt lat="46.521060000" lon="-72.963430000">
<ele>0</ele>
<time>2026-09-04T06:44:05Z</time>
</trkpt>
<trkpt lat="46.521230000" lon="-72.963480000">
<ele>0</ele>
<time>2026-09-04T06:44:06Z</time>
</trkpt>
<trkpt lat="46.521410000" lon="-72.963480000">
<ele>0</ele>
<time>2026-09-04T06:44:07Z</time>
</trkpt>
<trkpt lat="46.521720000" lon="-72.963400000">
<ele>0</ele>
<time>2026-09-04T06:44:08Z</time>
</trkpt>
<trkpt lat="46.522360000" lon="-72.963150000">
<ele>0</ele>
<time>2026-09-04T06:44:09Z</time>
</trkpt>
<trkpt lat="46.522700000" lon="-72.962980000">
<ele>0</ele>
<time>2026-09-04T06:44:10Z</time>
</trkpt>
<trkpt lat="46.522860000" lon="-72.962850000">
<ele>0</ele>
<time>2026-09-04T06:44:11Z</time>
</trkpt>
<trkpt lat="46.523120000" lon="-72.962610000">
<ele>0</ele>
<time>2026-09-04T06:44:12Z</time>
</trkpt>
<trkpt lat="46.523720000" lon="-72.962010000">
<ele>0</ele>
<time>2026-09-04T06:44:13Z</time>
</trkpt>
<trkpt lat="46.524180000" lon="-72.961590000">
<ele>0</ele>
<time>2026-09-04T06:44:14Z</time>
</trkpt>
<trkpt lat="46.524510000" lon="-72.961360000">
<ele>0</ele>
<time>2026-09-04T06:44:15Z</time>
</trkpt>
<trkpt lat="46.524790000" lon="-72.961200000">
<ele>0</ele>
<time>2026-09-04T06:44:16Z</time>
</trkpt>
<trkpt lat="46.525040000" lon="-72.961110000">
<ele>0</ele>
<time>2026-09-04T06:44:17Z</time>
</trkpt>
<trkpt lat="46.525310000" lon="-72.961060000">
<ele>0</ele>
<time>2026-09-04T06:44:18Z</time>
</trkpt>
<trkpt lat="46.525450000" lon="-72.960950000">
<ele>0</ele>
<time>2026-09-04T06:44:19Z</time>
</trkpt>
<trkpt lat="46.525660000" lon="-72.960710000">
<ele>0</ele>
<time>2026-09-04T06:44:20Z</time>
</trkpt>
<trkpt lat="46.525930000" lon="-72.960360000">
<ele>0</ele>
<time>2026-09-04T06:44:21Z</time>
</trkpt>
<trkpt lat="46.526300000" lon="-72.959920000">
<ele>0</ele>
<time>2026-09-04T06:44:22Z</time>
</trkpt>
<trkpt lat="46.526490000" lon="-72.959750000">
<ele>0</ele>
<time>2026-09-04T06:44:23Z</time>
</trkpt>
<trkpt lat="46.526670000" lon="-72.959640000">
<ele>0</ele>
<time>2026-09-04T06:44:24Z</time>
</trkpt>
<trkpt lat="46.526870000" lon="-72.959560000">
<ele>0</ele>
<time>2026-09-04T06:44:25Z</time>
</trkpt>
<trkpt lat="46.527000000" lon="-72.959540000">
<ele>0</ele>
<time>2026-09-04T06:44:26Z</time>
</trkpt>
<trkpt lat="46.527270000" lon="-72.959550000">
<ele>0</ele>
<time>2026-09-04T06:44:27Z</time>
</trkpt>
<trkpt lat="46.527590000" lon="-72.959600000">
<ele>0</ele>
<time>2026-09-04T06:44:28Z</time>
</trkpt>
<trkpt lat="46.527720000" lon="-72.959580000">
<ele>0</ele>
<time>2026-09-04T06:44:29Z</time>
</trkpt>
<trkpt lat="46.527840000" lon="-72.959540000">
<ele>0</ele>
<time>2026-09-04T06:44:30Z</time>
</trkpt>
<trkpt lat="46.528060000" lon="-72.959410000">
<ele>0</ele>
<time>2026-09-04T06:44:31Z</time>
</trkpt>
<trkpt lat="46.528240000" lon="-72.959260000">
<ele>0</ele>
<time>2026-09-04T06:44:32Z</time>
</trkpt>
<trkpt lat="46.528660000" lon="-72.958840000">
<ele>0</ele>
<time>2026-09-04T06:44:33Z</time>
</trkpt>
<trkpt lat="46.529090000" lon="-72.958390000">
<ele>0</ele>
<time>2026-09-04T06:44:34Z</time>
</trkpt>
<trkpt lat="46.529200000" lon="-72.958180000">
<ele>0</ele>
<time>2026-09-04T06:44:35Z</time>
</trkpt>
<trkpt lat="46.529250000" lon="-72.957920000">
<ele>0</ele>
<time>2026-09-04T06:44:36Z</time>
</trkpt>
<trkpt lat="46.529320000" lon="-72.957400000">
<ele>0</ele>
<time>2026-09-04T06:44:37Z</time>
</trkpt>
<trkpt lat="46.529420000" lon="-72.957090000">
<ele>0</ele>
<time>2026-09-04T06:44:38Z</time>
</trkpt>
<trkpt lat="46.529600000" lon="-72.956790000">
<ele>0</ele>
<time>2026-09-04T06:44:39Z</time>
</trkpt>
<trkpt lat="46.529880000" lon="-72.956430000">
<ele>0</ele>
<time>2026-09-04T06:44:40Z</time>
</trkpt>
<trkpt lat="46.530980000" lon="-72.955080000">
<ele>0</ele>
<time>2026-09-04T06:44:41Z</time>
</trkpt>
<trkpt lat="46.531380000" lon="-72.954550000">
<ele>0</ele>
<time>2026-09-04T06:44:42Z</time>
</trkpt>
<trkpt lat="46.531660000" lon="-72.954070000">
<ele>0</ele>
<time>2026-09-04T06:44:43Z</time>
</trkpt>
<trkpt lat="46.531820000" lon="-72.953730000">
<ele>0</ele>
<time>2026-09-04T06:44:44Z</time>
</trkpt>
<trkpt lat="46.532180000" lon="-72.952830000">
<ele>0</ele>
<time>2026-09-04T06:44:45Z</time>
</trkpt>
<trkpt lat="46.532460000" lon="-72.952160000">
<ele>0</ele>
<time>2026-09-04T06:44:46Z</time>
</trkpt>
<trkpt lat="46.532570000" lon="-72.951920000">
<ele>0</ele>
<time>2026-09-04T06:44:47Z</time>
</trkpt>
<trkpt lat="46.532680000" lon="-72.951740000">
<ele>0</ele>
<time>2026-09-04T06:44:48Z</time>
</trkpt>
<trkpt lat="46.532870000" lon="-72.951500000">
<ele>0</ele>
<time>2026-09-04T06:44:49Z</time>
</trkpt>
<trkpt lat="46.533110000" lon="-72.951280000">
<ele>0</ele>
<time>2026-09-04T06:44:50Z</time>
</trkpt>
<trkpt lat="46.533430000" lon="-72.951040000">
<ele>0</ele>
<time>2026-09-04T06:44:51Z</time>
</trkpt>
<trkpt lat="46.534030000" lon="-72.950650000">
<ele>0</ele>
<time>2026-09-04T06:44:52Z</time>
</trkpt>
<trkpt lat="46.534430000" lon="-72.950410000">
<ele>0</ele>
<time>2026-09-04T06:44:53Z</time>
</trkpt>
<trkpt lat="46.534600000" lon="-72.950370000">
<ele>0</ele>
<time>2026-09-04T06:44:54Z</time>
</trkpt>
<trkpt lat="46.534780000" lon="-72.950390000">
<ele>0</ele>
<time>2026-09-04T06:44:55Z</time>
</trkpt>
<trkpt lat="46.535140000" lon="-72.950500000">
<ele>0</ele>
<time>2026-09-04T06:44:56Z</time>
</trkpt>
<trkpt lat="46.535430000" lon="-72.950640000">
<ele>0</ele>
<time>2026-09-04T06:44:57Z</time>
</trkpt>
<trkpt lat="46.535570000" lon="-72.950740000">
<ele>0</ele>
<time>2026-09-04T06:44:58Z</time>
</trkpt>
<trkpt lat="46.535820000" lon="-72.950960000">
<ele>0</ele>
<time>2026-09-04T06:44:59Z</time>
</trkpt>
<trkpt lat="46.535960000" lon="-72.951150000">
<ele>0</ele>
<time>2026-09-04T06:45:00Z</time>
</trkpt>
<trkpt lat="46.536480000" lon="-72.951860000">
<ele>0</ele>
<time>2026-09-04T06:45:01Z</time>
</trkpt>
<trkpt lat="46.536770000" lon="-72.952170000">
<ele>0</ele>
<time>2026-09-04T06:45:02Z</time>
</trkpt>
<trkpt lat="46.537080000" lon="-72.952430000">
<ele>0</ele>
<time>2026-09-04T06:45:03Z</time>
</trkpt>
<trkpt lat="46.537310000" lon="-72.952560000">
<ele>0</ele>
<time>2026-09-04T06:45:04Z</time>
</trkpt>
<trkpt lat="46.537600000" lon="-72.952670000">
<ele>0</ele>
<time>2026-09-04T06:45:05Z</time>
</trkpt>
<trkpt lat="46.537780000" lon="-72.952700000">
<ele>0</ele>
<time>2026-09-04T06:45:06Z</time>
</trkpt>
<trkpt lat="46.537900000" lon="-72.952690000">
<ele>0</ele>
<time>2026-09-04T06:45:07Z</time>
</trkpt>
<trkpt lat="46.538200000" lon="-72.952570000">
<ele>0</ele>
<time>2026-09-04T06:45:08Z</time>
</trkpt>
<trkpt lat="46.538860000" lon="-72.952260000">
<ele>0</ele>
<time>2026-09-04T06:45:09Z</time>
</trkpt>
<trkpt lat="46.539110000" lon="-72.952160000">
<ele>0</ele>
<time>2026-09-04T06:45:10Z</time>
</trkpt>
<trkpt lat="46.539310000" lon="-72.952100000">
<ele>0</ele>
<time>2026-09-04T06:45:11Z</time>
</trkpt>
<trkpt lat="46.539460000" lon="-72.952100000">
<ele>0</ele>
<time>2026-09-04T06:45:12Z</time>
</trkpt>
<trkpt lat="46.539510000" lon="-72.952110000">
<ele>0</ele>
<time>2026-09-04T06:45:13Z</time>
</trkpt>
<trkpt lat="46.539620000" lon="-72.952160000">
<ele>0</ele>
<time>2026-09-04T06:45:14Z</time>
</trkpt>
<trkpt lat="46.539740000" lon="-72.952250000">
<ele>0</ele>
<time>2026-09-04T06:45:15Z</time>
</trkpt>
<trkpt lat="46.540240000" lon="-72.952720000">
<ele>0</ele>
<time>2026-09-04T06:45:16Z</time>
</trkpt>
<trkpt lat="46.540800000" lon="-72.953380000">
<ele>0</ele>
<time>2026-09-04T06:45:17Z</time>
</trkpt>
<trkpt lat="46.541350000" lon="-72.954040000">
<ele>0</ele>
<time>2026-09-04T06:45:18Z</time>
</trkpt>
<trkpt lat="46.541650000" lon="-72.954430000">
<ele>0</ele>
<time>2026-09-04T06:45:19Z</time>
</trkpt>
<trkpt lat="46.541910000" lon="-72.954820000">
<ele>0</ele>
<time>2026-09-04T06:45:20Z</time>
</trkpt>
<trkpt lat="46.542090000" lon="-72.955030000">
<ele>0</ele>
<time>2026-09-04T06:45:21Z</time>
</trkpt>
<trkpt lat="46.542180000" lon="-72.955100000">
<ele>0</ele>
<time>2026-09-04T06:45:22Z</time>
</trkpt>
<trkpt lat="46.542430000" lon="-72.955220000">
<ele>0</ele>
<time>2026-09-04T06:45:23Z</time>
</trkpt>
<trkpt lat="46.542500000" lon="-72.955240000">
<ele>0</ele>
<time>2026-09-04T06:45:24Z</time>
</trkpt>
<trkpt lat="46.542690000" lon="-72.955230000">
<ele>0</ele>
<time>2026-09-04T06:45:25Z</time>
</trkpt>
<trkpt lat="46.542930000" lon="-72.955130000">
<ele>0</ele>
<time>2026-09-04T06:45:26Z</time>
</trkpt>
<trkpt lat="46.543100000" lon="-72.954960000">
<ele>0</ele>
<time>2026-09-04T06:45:27Z</time>
</trkpt>
<trkpt lat="46.543220000" lon="-72.954770000">
<ele>0</ele>
<time>2026-09-04T06:45:28Z</time>
</trkpt>
<trkpt lat="46.543300000" lon="-72.954540000">
<ele>0</ele>
<time>2026-09-04T06:45:29Z</time>
</trkpt>
<trkpt lat="46.543470000" lon="-72.954080000">
<ele>0</ele>
<time>2026-09-04T06:45:30Z</time>
</trkpt>
<trkpt lat="46.543650000" lon="-72.953670000">
<ele>0</ele>
<time>2026-09-04T06:45:31Z</time>
</trkpt>
<trkpt lat="46.543790000" lon="-72.953210000">
<ele>0</ele>
<time>2026-09-04T06:45:32Z</time>
</trkpt>
<trkpt lat="46.543900000" lon="-72.952670000">
<ele>0</ele>
<time>2026-09-04T06:45:33Z</time>
</trkpt>
<trkpt lat="46.543910000" lon="-72.952620000">
<ele>0</ele>
<time>2026-09-04T06:45:34Z</time>
</trkpt>
<trkpt lat="46.543910000" lon="-72.952620000">
<ele>0</ele>
<time>2026-09-04T06:45:35Z</time>
</trkpt>
<trkpt lat="46.544050000" lon="-72.952140000">
<ele>0</ele>
<time>2026-09-04T06:45:36Z</time>
</trkpt>
<trkpt lat="46.544210000" lon="-72.951850000">
<ele>0</ele>
<time>2026-09-04T06:45:37Z</time>
</trkpt>
<trkpt lat="46.544480000" lon="-72.951410000">
<ele>0</ele>
<time>2026-09-04T06:45:38Z</time>
</trkpt>
<trkpt lat="46.544700000" lon="-72.951040000">
<ele>0</ele>
<time>2026-09-04T06:45:39Z</time>
</trkpt>
<trkpt lat="46.545230000" lon="-72.950190000">
<ele>0</ele>
<time>2026-09-04T06:45:40Z</time>
</trkpt>
<trkpt lat="46.545600000" lon="-72.949650000">
<ele>0</ele>
<time>2026-09-04T06:45:41Z</time>
</trkpt>
<trkpt lat="46.546030000" lon="-72.949080000">
<ele>0</ele>
<time>2026-09-04T06:45:42Z</time>
</trkpt>
<trkpt lat="46.546270000" lon="-72.948810000">
<ele>0</ele>
<time>2026-09-04T06:45:43Z</time>
</trkpt>
<trkpt lat="46.546530000" lon="-72.948550000">
<ele>0</ele>
<time>2026-09-04T06:45:44Z</time>
</trkpt>
<trkpt lat="46.547050000" lon="-72.948110000">
<ele>0</ele>
<time>2026-09-04T06:45:45Z</time>
</trkpt>
<trkpt lat="46.547240000" lon="-72.947950000">
<ele>0</ele>
<time>2026-09-04T06:45:46Z</time>
</trkpt>
<trkpt lat="46.547370000" lon="-72.947840000">
<ele>0</ele>
<time>2026-09-04T06:45:47Z</time>
</trkpt>
<trkpt lat="46.547550000" lon="-72.947740000">
<ele>0</ele>
<time>2026-09-04T06:45:48Z</time>
</trkpt>
<trkpt lat="46.547910000" lon="-72.947690000">
<ele>0</ele>
<time>2026-09-04T06:45:49Z</time>
</trkpt>
<trkpt lat="46.548010000" lon="-72.947700000">
<ele>0</ele>
<time>2026-09-04T06:45:50Z</time>
</trkpt>
<trkpt lat="46.548260000" lon="-72.947810000">
<ele>0</ele>
<time>2026-09-04T06:45:51Z</time>
</trkpt>
<trkpt lat="46.548410000" lon="-72.947880000">
<ele>0</ele>
<time>2026-09-04T06:45:52Z</time>
</trkpt>
<trkpt lat="46.548540000" lon="-72.947890000">
<ele>0</ele>
<time>2026-09-04T06:45:53Z</time>
</trkpt>
<trkpt lat="46.548630000" lon="-72.947900000">
<ele>0</ele>
<time>2026-09-04T06:45:54Z</time>
</trkpt>
<trkpt lat="46.548790000" lon="-72.947870000">
<ele>0</ele>
<time>2026-09-04T06:45:55Z</time>
</trkpt>
<trkpt lat="46.549050000" lon="-72.947760000">
<ele>0</ele>
<time>2026-09-04T06:45:56Z</time>
</trkpt>
<trkpt lat="46.549280000" lon="-72.947590000">
<ele>0</ele>
<time>2026-09-04T06:45:57Z</time>
</trkpt>
<trkpt lat="46.549430000" lon="-72.947440000">
<ele>0</ele>
<time>2026-09-04T06:45:58Z</time>
</trkpt>
<trkpt lat="46.549710000" lon="-72.947100000">
<ele>0</ele>
<time>2026-09-04T06:45:59Z</time>
</trkpt>
<trkpt lat="46.550020000" lon="-72.946700000">
<ele>0</ele>
<time>2026-09-04T06:46:00Z</time>
</trkpt>
<trkpt lat="46.550470000" lon="-72.946260000">
<ele>0</ele>
<time>2026-09-04T06:46:01Z</time>
</trkpt>
<trkpt lat="46.550730000" lon="-72.946030000">
<ele>0</ele>
<time>2026-09-04T06:46:02Z</time>
</trkpt>
<trkpt lat="46.551190000" lon="-72.945630000">
<ele>0</ele>
<time>2026-09-04T06:46:03Z</time>
</trkpt>
<trkpt lat="46.551820000" lon="-72.945180000">
<ele>0</ele>
<time>2026-09-04T06:46:04Z</time>
</trkpt>
<trkpt lat="46.552380000" lon="-72.944780000">
<ele>0</ele>
<time>2026-09-04T06:46:05Z</time>
</trkpt>
<trkpt lat="46.552750000" lon="-72.944560000">
<ele>0</ele>
<time>2026-09-04T06:46:06Z</time>
</trkpt>
<trkpt lat="46.553440000" lon="-72.944300000">
<ele>0</ele>
<time>2026-09-04T06:46:07Z</time>
</trkpt>
<trkpt lat="46.553930000" lon="-72.944100000">
<ele>0</ele>
<time>2026-09-04T06:46:08Z</time>
</trkpt>
<trkpt lat="46.554040000" lon="-72.944040000">
<ele>0</ele>
<time>2026-09-04T06:46:09Z</time>
</trkpt>
<trkpt lat="46.554240000" lon="-72.943860000">
<ele>0</ele>
<time>2026-09-04T06:46:10Z</time>
</trkpt>
<trkpt lat="46.554750000" lon="-72.943260000">
<ele>0</ele>
<time>2026-09-04T06:46:11Z</time>
</trkpt>
<trkpt lat="46.555740000" lon="-72.941880000">
<ele>0</ele>
<time>2026-09-04T06:46:12Z</time>
</trkpt>
<trkpt lat="46.556420000" lon="-72.941030000">
<ele>0</ele>
<time>2026-09-04T06:46:13Z</time>
</trkpt>
<trkpt lat="46.557340000" lon="-72.939890000">
<ele>0</ele>
<time>2026-09-04T06:46:14Z</time>
</trkpt>
<trkpt lat="46.557720000" lon="-72.939340000">
<ele>0</ele>
<time>2026-09-04T06:46:15Z</time>
</trkpt>
<trkpt lat="46.558120000" lon="-72.938740000">
<ele>0</ele>
<time>2026-09-04T06:46:16Z</time>
</trkpt>
<trkpt lat="46.558440000" lon="-72.938320000">
<ele>0</ele>
<time>2026-09-04T06:46:17Z</time>
</trkpt>
<trkpt lat="46.558680000" lon="-72.938030000">
<ele>0</ele>
<time>2026-09-04T06:46:18Z</time>
</trkpt>
<trkpt lat="46.558930000" lon="-72.937670000">
<ele>0</ele>
<time>2026-09-04T06:46:19Z</time>
</trkpt>
<trkpt lat="46.559310000" lon="-72.937270000">
<ele>0</ele>
<time>2026-09-04T06:46:20Z</time>
</trkpt>
<trkpt lat="46.559530000" lon="-72.937080000">
<ele>0</ele>
<time>2026-09-04T06:46:21Z</time>
</trkpt>
<trkpt lat="46.559930000" lon="-72.936850000">
<ele>0</ele>
<time>2026-09-04T06:46:22Z</time>
</trkpt>
<trkpt lat="46.561120000" lon="-72.936100000">
<ele>0</ele>
<time>2026-09-04T06:46:23Z</time>
</trkpt>
<trkpt lat="46.561560000" lon="-72.935760000">
<ele>0</ele>
<time>2026-09-04T06:46:24Z</time>
</trkpt>
<trkpt lat="46.561870000" lon="-72.935560000">
<ele>0</ele>
<time>2026-09-04T06:46:25Z</time>
</trkpt>
<trkpt lat="46.562310000" lon="-72.935190000">
<ele>0</ele>
<time>2026-09-04T06:46:26Z</time>
</trkpt>
<trkpt lat="46.562450000" lon="-72.935040000">
<ele>0</ele>
<time>2026-09-04T06:46:27Z</time>
</trkpt>
<trkpt lat="46.563360000" lon="-72.933900000">
<ele>0</ele>
<time>2026-09-04T06:46:28Z</time>
</trkpt>
<trkpt lat="46.563850000" lon="-72.933380000">
<ele>0</ele>
<time>2026-09-04T06:46:29Z</time>
</trkpt>
<trkpt lat="46.564440000" lon="-72.932790000">
<ele>0</ele>
<time>2026-09-04T06:46:30Z</time>
</trkpt>
<trkpt lat="46.564880000" lon="-72.932340000">
<ele>0</ele>
<time>2026-09-04T06:46:31Z</time>
</trkpt>
<trkpt lat="46.565020000" lon="-72.932180000">
<ele>0</ele>
<time>2026-09-04T06:46:32Z</time>
</trkpt>
<trkpt lat="46.565260000" lon="-72.931780000">
<ele>0</ele>
<time>2026-09-04T06:46:33Z</time>
</trkpt>
<trkpt lat="46.565710000" lon="-72.930970000">
<ele>0</ele>
<time>2026-09-04T06:46:34Z</time>
</trkpt>
<trkpt lat="46.566000000" lon="-72.930530000">
<ele>0</ele>
<time>2026-09-04T06:46:35Z</time>
</trkpt>
<trkpt lat="46.566150000" lon="-72.930380000">
<ele>0</ele>
<time>2026-09-04T06:46:36Z</time>
</trkpt>
<trkpt lat="46.566420000" lon="-72.930150000">
<ele>0</ele>
<time>2026-09-04T06:46:37Z</time>
</trkpt>
<trkpt lat="46.566800000" lon="-72.929930000">
<ele>0</ele>
<time>2026-09-04T06:46:38Z</time>
</trkpt>
<trkpt lat="46.567520000" lon="-72.929520000">
<ele>0</ele>
<time>2026-09-04T06:46:39Z</time>
</trkpt>
<trkpt lat="46.567810000" lon="-72.929380000">
<ele>0</ele>
<time>2026-09-04T06:46:40Z</time>
</trkpt>
<trkpt lat="46.567980000" lon="-72.929330000">
<ele>0</ele>
<time>2026-09-04T06:46:41Z</time>
</trkpt>
<trkpt lat="46.568170000" lon="-72.929270000">
<ele>0</ele>
<time>2026-09-04T06:46:42Z</time>
</trkpt>
<trkpt lat="46.568520000" lon="-72.929240000">
<ele>0</ele>
<time>2026-09-04T06:46:43Z</time>
</trkpt>
<trkpt lat="46.568700000" lon="-72.929220000">
<ele>0</ele>
<time>2026-09-04T06:46:44Z</time>
</trkpt>
<trkpt lat="46.568870000" lon="-72.929140000">
<ele>0</ele>
<time>2026-09-04T06:46:45Z</time>
</trkpt>
<trkpt lat="46.569060000" lon="-72.928990000">
<ele>0</ele>
<time>2026-09-04T06:46:46Z</time>
</trkpt>
<trkpt lat="46.569220000" lon="-72.928830000">
<ele>0</ele>
<time>2026-09-04T06:46:47Z</time>
</trkpt>
<trkpt lat="46.569510000" lon="-72.928420000">
<ele>0</ele>
<time>2026-09-04T06:46:48Z</time>
</trkpt>
<trkpt lat="46.569950000" lon="-72.927760000">
<ele>0</ele>
<time>2026-09-04T06:46:49Z</time>
</trkpt>
<trkpt lat="46.570190000" lon="-72.927400000">
<ele>0</ele>
<time>2026-09-04T06:46:50Z</time>
</trkpt>
<trkpt lat="46.570520000" lon="-72.926930000">
<ele>0</ele>
<time>2026-09-04T06:46:51Z</time>
</trkpt>
<trkpt lat="46.571260000" lon="-72.925760000">
<ele>0</ele>
<time>2026-09-04T06:46:52Z</time>
</trkpt>
<trkpt lat="46.572230000" lon="-72.924320000">
<ele>0</ele>
<time>2026-09-04T06:46:53Z</time>
</trkpt>
<trkpt lat="46.572890000" lon="-72.923320000">
<ele>0</ele>
<time>2026-09-04T06:46:54Z</time>
</trkpt>
<trkpt lat="46.573150000" lon="-72.922920000">
<ele>0</ele>
<time>2026-09-04T06:46:55Z</time>
</trkpt>
<trkpt lat="46.573210000" lon="-72.922940000">
<ele>0</ele>
<time>2026-09-04T06:46:56Z</time>
</trkpt>
<trkpt lat="46.573330000" lon="-72.923000000">
<ele>0</ele>
<time>2026-09-04T06:46:57Z</time>
</trkpt>
<trkpt lat="46.574010000" lon="-72.923450000">
<ele>0</ele>
<time>2026-09-04T06:46:58Z</time>
</trkpt>
<trkpt lat="46.574080000" lon="-72.923500000">
<ele>0</ele>
<time>2026-09-04T06:46:59Z</time>
</trkpt>
<trkpt lat="46.574180000" lon="-72.923610000">
<ele>0</ele>
<time>2026-09-04T06:47:00Z</time>
</trkpt>
<trkpt lat="46.574750000" lon="-72.924410000">
<ele>0</ele>
<time>2026-09-04T06:47:01Z</time>
</trkpt>
<trkpt lat="46.574750000" lon="-72.924410000">
<ele>0</ele>
<time>2026-09-04T06:47:02Z</time>
</trkpt>
<trkpt lat="46.576260000" lon="-72.926500000">
<ele>0</ele>
<time>2026-09-04T06:47:03Z</time>
</trkpt>
<trkpt lat="46.576530000" lon="-72.926840000">
<ele>0</ele>
<time>2026-09-04T06:47:04Z</time>
</trkpt>
<trkpt lat="46.576770000" lon="-72.927090000">
<ele>0</ele>
<time>2026-09-04T06:47:05Z</time>
</trkpt>
<trkpt lat="46.576960000" lon="-72.927280000">
<ele>0</ele>
<time>2026-09-04T06:47:06Z</time>
</trkpt>
<trkpt lat="46.577150000" lon="-72.927370000">
<ele>0</ele>
<time>2026-09-04T06:47:07Z</time>
</trkpt>
<trkpt lat="46.577550000" lon="-72.927480000">
<ele>0</ele>
<time>2026-09-04T06:47:08Z</time>
</trkpt>
<trkpt lat="46.577680000" lon="-72.927470000">
<ele>0</ele>
<time>2026-09-04T06:47:09Z</time>
</trkpt>
<trkpt lat="46.578020000" lon="-72.927390000">
<ele>0</ele>
<time>2026-09-04T06:47:10Z</time>
</trkpt>
<trkpt lat="46.578650000" lon="-72.927250000">
<ele>0</ele>
<time>2026-09-04T06:47:11Z</time>
</trkpt>
<trkpt lat="46.579280000" lon="-72.927150000">
<ele>0</ele>
<time>2026-09-04T06:47:12Z</time>
</trkpt>
<trkpt lat="46.579620000" lon="-72.927120000">
<ele>0</ele>
<time>2026-09-04T06:47:13Z</time>
</trkpt>
<trkpt lat="46.579970000" lon="-72.927250000">
<ele>0</ele>
<time>2026-09-04T06:47:14Z</time>
</trkpt>
<trkpt lat="46.580490000" lon="-72.927550000">
<ele>0</ele>
<time>2026-09-04T06:47:15Z</time>
</trkpt>
<trkpt lat="46.580950000" lon="-72.927860000">
<ele>0</ele>
<time>2026-09-04T06:47:16Z</time>
</trkpt>
<trkpt lat="46.581240000" lon="-72.928180000">
<ele>0</ele>
<time>2026-09-04T06:47:17Z</time>
</trkpt>
<trkpt lat="46.581380000" lon="-72.928350000">
<ele>0</ele>
<time>2026-09-04T06:47:18Z</time>
</trkpt>
<trkpt lat="46.581710000" lon="-72.928840000">
<ele>0</ele>
<time>2026-09-04T06:47:19Z</time>
</trkpt>
<trkpt lat="46.581750000" lon="-72.928910000">
<ele>0</ele>
<time>2026-09-04T06:47:20Z</time>
</trkpt>
<trkpt lat="46.581970000" lon="-72.929350000">
<ele>0</ele>
<time>2026-09-04T06:47:21Z</time>
</trkpt>
<trkpt lat="46.582210000" lon="-72.930080000">
<ele>0</ele>
<time>2026-09-04T06:47:22Z</time>
</trkpt>
<trkpt lat="46.582330000" lon="-72.930530000">
<ele>0</ele>
<time>2026-09-04T06:47:23Z</time>
</trkpt>
<trkpt lat="46.582680000" lon="-72.931870000">
<ele>0</ele>
<time>2026-09-04T06:47:24Z</time>
</trkpt>
<trkpt lat="46.582960000" lon="-72.932790000">
<ele>0</ele>
<time>2026-09-04T06:47:25Z</time>
</trkpt>
<trkpt lat="46.583040000" lon="-72.933020000">
<ele>0</ele>
<time>2026-09-04T06:47:26Z</time>
</trkpt>
<trkpt lat="46.583220000" lon="-72.933380000">
<ele>0</ele>
<time>2026-09-04T06:47:27Z</time>
</trkpt>
<trkpt lat="46.583570000" lon="-72.933780000">
<ele>0</ele>
<time>2026-09-04T06:47:28Z</time>
</trkpt>
<trkpt lat="46.583750000" lon="-72.933950000">
<ele>0</ele>
<time>2026-09-04T06:47:29Z</time>
</trkpt>
<trkpt lat="46.583900000" lon="-72.934040000">
<ele>0</ele>
<time>2026-09-04T06:47:30Z</time>
</trkpt>
<trkpt lat="46.584070000" lon="-72.934120000">
<ele>0</ele>
<time>2026-09-04T06:47:31Z</time>
</trkpt>
<trkpt lat="46.584610000" lon="-72.934250000">
<ele>0</ele>
<time>2026-09-04T06:47:32Z</time>
</trkpt>
<trkpt lat="46.585670000" lon="-72.934520000">
<ele>0</ele>
<time>2026-09-04T06:47:33Z</time>
</trkpt>
<trkpt lat="46.586250000" lon="-72.934700000">
<ele>0</ele>
<time>2026-09-04T06:47:34Z</time>
</trkpt>
<trkpt lat="46.586850000" lon="-72.934930000">
<ele>0</ele>
<time>2026-09-04T06:47:35Z</time>
</trkpt>
<trkpt lat="46.587040000" lon="-72.935030000">
<ele>0</ele>
<time>2026-09-04T06:47:36Z</time>
</trkpt>
<trkpt lat="46.587240000" lon="-72.935160000">
<ele>0</ele>
<time>2026-09-04T06:47:37Z</time>
</trkpt>
<trkpt lat="46.587690000" lon="-72.935550000">
<ele>0</ele>
<time>2026-09-04T06:47:38Z</time>
</trkpt>
<trkpt lat="46.588000000" lon="-72.935820000">
<ele>0</ele>
<time>2026-09-04T06:47:39Z</time>
</trkpt>
<trkpt lat="46.588260000" lon="-72.936090000">
<ele>0</ele>
<time>2026-09-04T06:47:40Z</time>
</trkpt>
<trkpt lat="46.588570000" lon="-72.936450000">
<ele>0</ele>
<time>2026-09-04T06:47:41Z</time>
</trkpt>
<trkpt lat="46.588760000" lon="-72.936710000">
<ele>0</ele>
<time>2026-09-04T06:47:42Z</time>
</trkpt>
<trkpt lat="46.589360000" lon="-72.937520000">
<ele>0</ele>
<time>2026-09-04T06:47:43Z</time>
</trkpt>
<trkpt lat="46.589760000" lon="-72.938090000">
<ele>0</ele>
<time>2026-09-04T06:47:44Z</time>
</trkpt>
<trkpt lat="46.590170000" lon="-72.938650000">
<ele>0</ele>
<time>2026-09-04T06:47:45Z</time>
</trkpt>
<trkpt lat="46.590440000" lon="-72.938980000">
<ele>0</ele>
<time>2026-09-04T06:47:46Z</time>
</trkpt>
<trkpt lat="46.590530000" lon="-72.939110000">
<ele>0</ele>
<time>2026-09-04T06:47:47Z</time>
</trkpt>
<trkpt lat="46.590660000" lon="-72.939060000">
<ele>0</ele>
<time>2026-09-04T06:47:48Z</time>
</trkpt>
<trkpt lat="46.591010000" lon="-72.939010000">
<ele>0</ele>
<time>2026-09-04T06:47:49Z</time>
</trkpt>
<trkpt lat="46.591210000" lon="-72.938940000">
<ele>0</ele>
<time>2026-09-04T06:47:50Z</time>
</trkpt>
<trkpt lat="46.591390000" lon="-72.938850000">
<ele>0</ele>
<time>2026-09-04T06:47:51Z</time>
</trkpt>
<trkpt lat="46.591640000" lon="-72.938670000">
<ele>0</ele>
<time>2026-09-04T06:47:52Z</time>
</trkpt>
<trkpt lat="46.592130000" lon="-72.938210000">
<ele>0</ele>
<time>2026-09-04T06:47:53Z</time>
</trkpt>
<trkpt lat="46.592590000" lon="-72.937810000">
<ele>0</ele>
<time>2026-09-04T06:47:54Z</time>
</trkpt>
<trkpt lat="46.593970000" lon="-72.936590000">
<ele>0</ele>
<time>2026-09-04T06:47:55Z</time>
</trkpt>
<trkpt lat="46.594400000" lon="-72.936230000">
<ele>0</ele>
<time>2026-09-04T06:47:56Z</time>
</trkpt>
<trkpt lat="46.594400000" lon="-72.936230000">
<ele>0</ele>
<time>2026-09-04T06:47:57Z</time>
</trkpt>
<trkpt lat="46.595070000" lon="-72.935680000">
<ele>0</ele>
<time>2026-09-04T06:47:58Z</time>
</trkpt>
<trkpt lat="46.595310000" lon="-72.935490000">
<ele>0</ele>
<time>2026-09-04T06:47:59Z</time>
</trkpt>
<trkpt lat="46.595710000" lon="-72.935220000">
<ele>0</ele>
<time>2026-09-04T06:48:00Z</time>
</trkpt>
<trkpt lat="46.596040000" lon="-72.935000000">
<ele>0</ele>
<time>2026-09-04T06:48:01Z</time>
</trkpt>
<trkpt lat="46.596990000" lon="-72.934370000">
<ele>0</ele>
<time>2026-09-04T06:48:02Z</time>
</trkpt>
<trkpt lat="46.597680000" lon="-72.933930000">
<ele>0</ele>
<time>2026-09-04T06:48:03Z</time>
</trkpt>
<trkpt lat="46.598500000" lon="-72.933400000">
<ele>0</ele>
<time>2026-09-04T06:48:04Z</time>
</trkpt>
<trkpt lat="46.598830000" lon="-72.933190000">
<ele>0</ele>
<time>2026-09-04T06:48:05Z</time>
</trkpt>
<trkpt lat="46.599000000" lon="-72.933110000">
<ele>0</ele>
<time>2026-09-04T06:48:06Z</time>
</trkpt>
<trkpt lat="46.600040000" lon="-72.932660000">
<ele>0</ele>
<time>2026-09-04T06:48:07Z</time>
</trkpt>
<trkpt lat="46.600550000" lon="-72.932440000">
<ele>0</ele>
<time>2026-09-04T06:48:08Z</time>
</trkpt>
<trkpt lat="46.601000000" lon="-72.932180000">
<ele>0</ele>
<time>2026-09-04T06:48:09Z</time>
</trkpt>
<trkpt lat="46.601140000" lon="-72.932040000">
<ele>0</ele>
<time>2026-09-04T06:48:10Z</time>
</trkpt>
<trkpt lat="46.601360000" lon="-72.931720000">
<ele>0</ele>
<time>2026-09-04T06:48:11Z</time>
</trkpt>
<trkpt lat="46.601800000" lon="-72.931070000">
<ele>0</ele>
<time>2026-09-04T06:48:12Z</time>
</trkpt>
<trkpt lat="46.602690000" lon="-72.929770000">
<ele>0</ele>
<time>2026-09-04T06:48:13Z</time>
</trkpt>
<trkpt lat="46.603710000" lon="-72.928290000">
<ele>0</ele>
<time>2026-09-04T06:48:14Z</time>
</trkpt>
<trkpt lat="46.604090000" lon="-72.927740000">
<ele>0</ele>
<time>2026-09-04T06:48:15Z</time>
</trkpt>
<trkpt lat="46.604400000" lon="-72.927290000">
<ele>0</ele>
<time>2026-09-04T06:48:16Z</time>
</trkpt>
<trkpt lat="46.604620000" lon="-72.927030000">
<ele>0</ele>
<time>2026-09-04T06:48:17Z</time>
</trkpt>
<trkpt lat="46.604940000" lon="-72.926720000">
<ele>0</ele>
<time>2026-09-04T06:48:18Z</time>
</trkpt>
<trkpt lat="46.605140000" lon="-72.926600000">
<ele>0</ele>
<time>2026-09-04T06:48:19Z</time>
</trkpt>
<trkpt lat="46.605930000" lon="-72.926220000">
<ele>0</ele>
<time>2026-09-04T06:48:20Z</time>
</trkpt>
<trkpt lat="46.607080000" lon="-72.925690000">
<ele>0</ele>
<time>2026-09-04T06:48:21Z</time>
</trkpt>
<trkpt lat="46.608090000" lon="-72.925300000">
<ele>0</ele>
<time>2026-09-04T06:48:22Z</time>
</trkpt>
<trkpt lat="46.608230000" lon="-72.925210000">
<ele>0</ele>
<time>2026-09-04T06:48:23Z</time>
</trkpt>
<trkpt lat="46.608330000" lon="-72.925120000">
<ele>0</ele>
<time>2026-09-04T06:48:24Z</time>
</trkpt>
<trkpt lat="46.608570000" lon="-72.924740000">
<ele>0</ele>
<time>2026-09-04T06:48:25Z</time>
</trkpt>
<trkpt lat="46.608940000" lon="-72.924160000">
<ele>0</ele>
<time>2026-09-04T06:48:26Z</time>
</trkpt>
<trkpt lat="46.609060000" lon="-72.923960000">
<ele>0</ele>
<time>2026-09-04T06:48:27Z</time>
</trkpt>
<trkpt lat="46.609270000" lon="-72.923540000">
<ele>0</ele>
<time>2026-09-04T06:48:28Z</time>
</trkpt>
<trkpt lat="46.609300000" lon="-72.923350000">
<ele>0</ele>
<time>2026-09-04T06:48:29Z</time>
</trkpt>
<trkpt lat="46.609340000" lon="-72.923070000">
<ele>0</ele>
<time>2026-09-04T06:48:30Z</time>
</trkpt>
<trkpt lat="46.609350000" lon="-72.922900000">
<ele>0</ele>
<time>2026-09-04T06:48:31Z</time>
</trkpt>
<trkpt lat="46.609360000" lon="-72.922750000">
<ele>0</ele>
<time>2026-09-04T06:48:32Z</time>
</trkpt>
<trkpt lat="46.609280000" lon="-72.922520000">
<ele>0</ele>
<time>2026-09-04T06:48:33Z</time>
</trkpt>
<trkpt lat="46.609120000" lon="-72.922050000">
<ele>0</ele>
<time>2026-09-04T06:48:34Z</time>
</trkpt>
<trkpt lat="46.608850000" lon="-72.921370000">
<ele>0</ele>
<time>2026-09-04T06:48:35Z</time>
</trkpt>
<trkpt lat="46.608480000" lon="-72.920580000">
<ele>0</ele>
<time>2026-09-04T06:48:36Z</time>
</trkpt>
<trkpt lat="46.608100000" lon="-72.919900000">
<ele>0</ele>
<time>2026-09-04T06:48:37Z</time>
</trkpt>
<trkpt lat="46.607770000" lon="-72.919310000">
<ele>0</ele>
<time>2026-09-04T06:48:38Z</time>
</trkpt>
<trkpt lat="46.607610000" lon="-72.919140000">
<ele>0</ele>
<time>2026-09-04T06:48:39Z</time>
</trkpt>
<trkpt lat="46.607460000" lon="-72.919010000">
<ele>0</ele>
<time>2026-09-04T06:48:40Z</time>
</trkpt>
<trkpt lat="46.607100000" lon="-72.918810000">
<ele>0</ele>
<time>2026-09-04T06:48:41Z</time>
</trkpt>
<trkpt lat="46.606850000" lon="-72.918730000">
<ele>0</ele>
<time>2026-09-04T06:48:42Z</time>
</trkpt>
<trkpt lat="46.606520000" lon="-72.918640000">
<ele>0</ele>
<time>2026-09-04T06:48:43Z</time>
</trkpt>
<trkpt lat="46.606410000" lon="-72.918590000">
<ele>0</ele>
<time>2026-09-04T06:48:44Z</time>
</trkpt>
<trkpt lat="46.606280000" lon="-72.918430000">
<ele>0</ele>
<time>2026-09-04T06:48:45Z</time>
</trkpt>
<trkpt lat="46.606140000" lon="-72.918090000">
<ele>0</ele>
<time>2026-09-04T06:48:46Z</time>
</trkpt>
<trkpt lat="46.605920000" lon="-72.917240000">
<ele>0</ele>
<time>2026-09-04T06:48:47Z</time>
</trkpt>
<trkpt lat="46.605580000" lon="-72.915890000">
<ele>0</ele>
<time>2026-09-04T06:48:48Z</time>
</trkpt>
<trkpt lat="46.605420000" lon="-72.914220000">
<ele>0</ele>
<time>2026-09-04T06:48:49Z</time>
</trkpt>
<trkpt lat="46.605310000" lon="-72.913170000">
<ele>0</ele>
<time>2026-09-04T06:48:50Z</time>
</trkpt>
<trkpt lat="46.604980000" lon="-72.910440000">
<ele>0</ele>
<time>2026-09-04T06:48:51Z</time>
</trkpt>
<trkpt lat="46.604630000" lon="-72.907600000">
<ele>0</ele>
<time>2026-09-04T06:48:52Z</time>
</trkpt>
<trkpt lat="46.604390000" lon="-72.905700000">
<ele>0</ele>
<time>2026-09-04T06:48:53Z</time>
</trkpt>
<trkpt lat="46.604200000" lon="-72.903900000">
<ele>0</ele>
<time>2026-09-04T06:48:54Z</time>
</trkpt>
<trkpt lat="46.604120000" lon="-72.902580000">
<ele>0</ele>
<time>2026-09-04T06:48:55Z</time>
</trkpt>
<trkpt lat="46.604060000" lon="-72.901910000">
<ele>0</ele>
<time>2026-09-04T06:48:56Z</time>
</trkpt>
<trkpt lat="46.603980000" lon="-72.901290000">
<ele>0</ele>
<time>2026-09-04T06:48:57Z</time>
</trkpt>
<trkpt lat="46.603830000" lon="-72.900350000">
<ele>0</ele>
<time>2026-09-04T06:48:58Z</time>
</trkpt>
<trkpt lat="46.603730000" lon="-72.899760000">
<ele>0</ele>
<time>2026-09-04T06:48:59Z</time>
</trkpt>
<trkpt lat="46.603480000" lon="-72.898230000">
<ele>0</ele>
<time>2026-09-04T06:49:00Z</time>
</trkpt>
<trkpt lat="46.603290000" lon="-72.897190000">
<ele>0</ele>
<time>2026-09-04T06:49:01Z</time>
</trkpt>
<trkpt lat="46.603040000" lon="-72.896090000">
<ele>0</ele>
<time>2026-09-04T06:49:02Z</time>
</trkpt>
<trkpt lat="46.602790000" lon="-72.895100000">
<ele>0</ele>
<time>2026-09-04T06:49:03Z</time>
</trkpt>
<trkpt lat="46.602450000" lon="-72.893610000">
<ele>0</ele>
<time>2026-09-04T06:49:04Z</time>
</trkpt>
<trkpt lat="46.602040000" lon="-72.891850000">
<ele>0</ele>
<time>2026-09-04T06:49:05Z</time>
</trkpt>
<trkpt lat="46.601790000" lon="-72.890640000">
<ele>0</ele>
<time>2026-09-04T06:49:06Z</time>
</trkpt>
<trkpt lat="46.601770000" lon="-72.890360000">
<ele>0</ele>
<time>2026-09-04T06:49:07Z</time>
</trkpt>
<trkpt lat="46.601780000" lon="-72.890100000">
<ele>0</ele>
<time>2026-09-04T06:49:08Z</time>
</trkpt>
<trkpt lat="46.601800000" lon="-72.889860000">
<ele>0</ele>
<time>2026-09-04T06:49:09Z</time>
</trkpt>
<trkpt lat="46.601930000" lon="-72.889090000">
<ele>0</ele>
<time>2026-09-04T06:49:10Z</time>
</trkpt>
<trkpt lat="46.602070000" lon="-72.888380000">
<ele>0</ele>
<time>2026-09-04T06:49:11Z</time>
</trkpt>
<trkpt lat="46.602210000" lon="-72.887500000">
<ele>0</ele>
<time>2026-09-04T06:49:12Z</time>
</trkpt>
<trkpt lat="46.602240000" lon="-72.887180000">
<ele>0</ele>
<time>2026-09-04T06:49:13Z</time>
</trkpt>
<trkpt lat="46.602270000" lon="-72.886570000">
<ele>0</ele>
<time>2026-09-04T06:49:14Z</time>
</trkpt>
<trkpt lat="46.602250000" lon="-72.886360000">
<ele>0</ele>
<time>2026-09-04T06:49:15Z</time>
</trkpt>
<trkpt lat="46.602080000" lon="-72.885020000">
<ele>0</ele>
<time>2026-09-04T06:49:16Z</time>
</trkpt>
<trkpt lat="46.601960000" lon="-72.884480000">
<ele>0</ele>
<time>2026-09-04T06:49:17Z</time>
</trkpt>
<trkpt lat="46.601780000" lon="-72.884030000">
<ele>0</ele>
<time>2026-09-04T06:49:18Z</time>
</trkpt>
<trkpt lat="46.601630000" lon="-72.883750000">
<ele>0</ele>
<time>2026-09-04T06:49:19Z</time>
</trkpt>
<trkpt lat="46.601770000" lon="-72.883710000">
<ele>0</ele>
<time>2026-09-04T06:49:20Z</time>
</trkpt>
<trkpt lat="46.601910000" lon="-72.883620000">
<ele>0</ele>
<time>2026-09-04T06:49:21Z</time>
</trkpt>
<trkpt lat="46.601970000" lon="-72.883580000">
<ele>0</ele>
<time>2026-09-04T06:49:22Z</time>
</trkpt>
<trkpt lat="46.602070000" lon="-72.883550000">
<ele>0</ele>
<time>2026-09-04T06:49:23Z</time>
</trkpt>
<trkpt lat="46.602310000" lon="-72.883680000">
<ele>0</ele>
<time>2026-09-04T06:49:24Z</time>
</trkpt>
<trkpt lat="46.602640000" lon="-72.883870000">
<ele>0</ele>
<time>2026-09-04T06:49:25Z</time>
</trkpt>
<trkpt lat="46.602740000" lon="-72.883910000">
<ele>0</ele>
<time>2026-09-04T06:49:26Z</time>
</trkpt>
<trkpt lat="46.602740000" lon="-72.883910000">
<ele>0</ele>
<time>2026-09-04T06:49:27Z</time>
</trkpt>
<trkpt lat="46.602870000" lon="-72.883940000">
<ele>0</ele>
<time>2026-09-04T06:49:28Z</time>
</trkpt>
<trkpt lat="46.603080000" lon="-72.883940000">
<ele>0</ele>
<time>2026-09-04T06:49:29Z</time>
</trkpt>
<trkpt lat="46.603180000" lon="-72.883920000">
<ele>0</ele>
<time>2026-09-04T06:49:30Z</time>
</trkpt>
<trkpt lat="46.603290000" lon="-72.883870000">
<ele>0</ele>
<time>2026-09-04T06:49:31Z</time>
</trkpt>
<trkpt lat="46.603400000" lon="-72.883790000">
<ele>0</ele>
<time>2026-09-04T06:49:32Z</time>
</trkpt>
<trkpt lat="46.603480000" lon="-72.883730000">
<ele>0</ele>
<time>2026-09-04T06:49:33Z</time>
</trkpt>
<trkpt lat="46.603510000" lon="-72.883660000">
<ele>0</ele>
<time>2026-09-04T06:49:34Z</time>
</trkpt>
<trkpt lat="46.603510000" lon="-72.883660000">
<ele>0</ele>
<time>2026-09-04T06:49:35Z</time>
</trkpt>
<trkpt lat="46.603600000" lon="-72.883410000">
<ele>0</ele>
<time>2026-09-04T06:49:36Z</time>
</trkpt>
<trkpt lat="46.603620000" lon="-72.883260000">
<ele>0</ele>
<time>2026-09-04T06:49:37Z</time>
</trkpt>
<trkpt lat="46.603620000" lon="-72.882990000">
<ele>0</ele>
<time>2026-09-04T06:49:38Z</time>
</trkpt>
<trkpt lat="46.603540000" lon="-72.882380000">
<ele>0</ele>
<time>2026-09-04T06:49:39Z</time>
</trkpt>
<trkpt lat="46.603510000" lon="-72.881960000">
<ele>0</ele>
<time>2026-09-04T06:49:40Z</time>
</trkpt>
<trkpt lat="46.603520000" lon="-72.881670000">
<ele>0</ele>
<time>2026-09-04T06:49:41Z</time>
</trkpt>
<trkpt lat="46.603630000" lon="-72.880700000">
<ele>0</ele>
<time>2026-09-04T06:49:42Z</time>
</trkpt>
<trkpt lat="46.603640000" lon="-72.880250000">
<ele>0</ele>
<time>2026-09-04T06:49:43Z</time>
</trkpt>
<trkpt lat="46.603650000" lon="-72.879980000">
<ele>0</ele>
<time>2026-09-04T06:49:44Z</time>
</trkpt>
<trkpt lat="46.603710000" lon="-72.879750000">
<ele>0</ele>
<time>2026-09-04T06:49:45Z</time>
</trkpt>
<trkpt lat="46.603760000" lon="-72.879640000">
<ele>0</ele>
<time>2026-09-04T06:49:46Z</time>
</trkpt>
<trkpt lat="46.603870000" lon="-72.879500000">
<ele>0</ele>
<time>2026-09-04T06:49:47Z</time>
</trkpt>
<trkpt lat="46.603990000" lon="-72.879400000">
<ele>0</ele>
<time>2026-09-04T06:49:48Z</time>
</trkpt>
<trkpt lat="46.604060000" lon="-72.879370000">
<ele>0</ele>
<time>2026-09-04T06:49:49Z</time>
</trkpt>
<trkpt lat="46.604460000" lon="-72.879350000">
<ele>0</ele>
<time>2026-09-04T06:49:50Z</time>
</trkpt>
<trkpt lat="46.604460000" lon="-72.879350000">
<ele>0</ele>
<time>2026-09-04T06:49:51Z</time>
</trkpt>
<trkpt lat="46.605150000" lon="-72.879260000">
<ele>0</ele>
<time>2026-09-04T06:49:52Z</time>
</trkpt>
<trkpt lat="46.605580000" lon="-72.879160000">
<ele>0</ele>
<time>2026-09-04T06:49:53Z</time>
</trkpt>
<trkpt lat="46.605770000" lon="-72.879080000">
<ele>0</ele>
<time>2026-09-04T06:49:54Z</time>
</trkpt>
<trkpt lat="46.605910000" lon="-72.878920000">
<ele>0</ele>
<time>2026-09-04T06:49:55Z</time>
</trkpt>
<trkpt lat="46.606080000" lon="-72.878670000">
<ele>0</ele>
<time>2026-09-04T06:49:56Z</time>
</trkpt>
<trkpt lat="46.606830000" lon="-72.877500000">
<ele>0</ele>
<time>2026-09-04T06:49:57Z</time>
</trkpt>
<trkpt lat="46.607090000" lon="-72.877090000">
<ele>0</ele>
<time>2026-09-04T06:49:58Z</time>
</trkpt>
<trkpt lat="46.607090000" lon="-72.877090000">
<ele>0</ele>
<time>2026-09-04T06:49:59Z</time>
</trkpt>
<trkpt lat="46.607670000" lon="-72.876150000">
<ele>0</ele>
<time>2026-09-04T06:50:00Z</time>
</trkpt>
<trkpt lat="46.607550000" lon="-72.875960000">
<ele>0</ele>
<time>2026-09-04T06:50:01Z</time>
</trkpt>
<trkpt lat="46.607200000" lon="-72.875360000">
<ele>0</ele>
<time>2026-09-04T06:50:02Z</time>
</trkpt>
<trkpt lat="46.606950000" lon="-72.874990000">
<ele>0</ele>
<time>2026-09-04T06:50:03Z</time>
</trkpt>
<trkpt lat="46.606840000" lon="-72.874850000">
<ele>0</ele>
<time>2026-09-04T06:50:04Z</time>
</trkpt>
<trkpt lat="46.606840000" lon="-72.874850000">
<ele>0</ele>
<time>2026-09-04T06:50:05Z</time>
</trkpt>
<trkpt lat="46.606380000" lon="-72.874320000">
<ele>0</ele>
<time>2026-09-04T06:50:06Z</time>
</trkpt>
<trkpt lat="46.606110000" lon="-72.873980000">
<ele>0</ele>
<time>2026-09-04T06:50:07Z</time>
</trkpt>
<trkpt lat="46.605390000" lon="-72.873060000">
<ele>0</ele>
<time>2026-09-04T06:50:08Z</time>
</trkpt>
<trkpt lat="46.604900000" lon="-72.872390000">
<ele>0</ele>
<time>2026-09-04T06:50:09Z</time>
</trkpt>
<trkpt lat="46.604730000" lon="-72.872190000">
<ele>0</ele>
<time>2026-09-04T06:50:10Z</time>
</trkpt>
<trkpt lat="46.604540000" lon="-72.872020000">
<ele>0</ele>
<time>2026-09-04T06:50:11Z</time>
</trkpt>
<trkpt lat="46.604330000" lon="-72.871880000">
<ele>0</ele>
<time>2026-09-04T06:50:12Z</time>
</trkpt>
<trkpt lat="46.604140000" lon="-72.871610000">
<ele>0</ele>
<time>2026-09-04T06:50:13Z</time>
</trkpt>
<trkpt lat="46.603970000" lon="-72.871300000">
<ele>0</ele>
<time>2026-09-04T06:50:14Z</time>
</trkpt>
<trkpt lat="46.603850000" lon="-72.871040000">
<ele>0</ele>
<time>2026-09-04T06:50:15Z</time>
</trkpt>
<trkpt lat="46.603760000" lon="-72.870730000">
<ele>0</ele>
<time>2026-09-04T06:50:16Z</time>
</trkpt>
<trkpt lat="46.603710000" lon="-72.870370000">
<ele>0</ele>
<time>2026-09-04T06:50:17Z</time>
</trkpt>
<trkpt lat="46.603690000" lon="-72.869620000">
<ele>0</ele>
<time>2026-09-04T06:50:18Z</time>
</trkpt>
<trkpt lat="46.603650000" lon="-72.869330000">
<ele>0</ele>
<time>2026-09-04T06:50:19Z</time>
</trkpt>
<trkpt lat="46.603500000" lon="-72.868860000">
<ele>0</ele>
<time>2026-09-04T06:50:20Z</time>
</trkpt>
<trkpt lat="46.603450000" lon="-72.868760000">
<ele>0</ele>
<time>2026-09-04T06:50:21Z</time>
</trkpt>
<trkpt lat="46.603270000" lon="-72.868420000">
<ele>0</ele>
<time>2026-09-04T06:50:22Z</time>
</trkpt>
<trkpt lat="46.603140000" lon="-72.868120000">
<ele>0</ele>
<time>2026-09-04T06:50:23Z</time>
</trkpt>
<trkpt lat="46.603140000" lon="-72.868120000">
<ele>0</ele>
<time>2026-09-04T06:50:24Z</time>
</trkpt>
<trkpt lat="46.602900000" lon="-72.867590000">
<ele>0</ele>
<time>2026-09-04T06:50:25Z</time>
</trkpt>
<trkpt lat="46.602820000" lon="-72.867490000">
<ele>0</ele>
<time>2026-09-04T06:50:26Z</time>
</trkpt>
<trkpt lat="46.602710000" lon="-72.867370000">
<ele>0</ele>
<time>2026-09-04T06:50:27Z</time>
</trkpt>
<trkpt lat="46.602730000" lon="-72.867120000">
<ele>0</ele>
<time>2026-09-04T06:50:28Z</time>
</trkpt>
<trkpt lat="46.602750000" lon="-72.866670000">
<ele>0</ele>
<time>2026-09-04T06:50:29Z</time>
</trkpt>
<trkpt lat="46.602740000" lon="-72.866170000">
<ele>0</ele>
<time>2026-09-04T06:50:30Z</time>
</trkpt>
<trkpt lat="46.602700000" lon="-72.865700000">
<ele>0</ele>
<time>2026-09-04T06:50:31Z</time>
</trkpt>
<trkpt lat="46.602640000" lon="-72.865280000">
<ele>0</ele>
<time>2026-09-04T06:50:32Z</time>
</trkpt>
<trkpt lat="46.602570000" lon="-72.864940000">
<ele>0</ele>
<time>2026-09-04T06:50:33Z</time>
</trkpt>
<trkpt lat="46.602410000" lon="-72.864360000">
<ele>0</ele>
<time>2026-09-04T06:50:34Z</time>
</trkpt>
<trkpt lat="46.602000000" lon="-72.862990000">
<ele>0</ele>
<time>2026-09-04T06:50:35Z</time>
</trkpt>
<trkpt lat="46.601350000" lon="-72.860840000">
<ele>0</ele>
<time>2026-09-04T06:50:36Z</time>
</trkpt>
<trkpt lat="46.601020000" lon="-72.859790000">
<ele>0</ele>
<time>2026-09-04T06:50:37Z</time>
</trkpt>
<trkpt lat="46.600640000" lon="-72.858420000">
<ele>0</ele>
<time>2026-09-04T06:50:38Z</time>
</trkpt>
<trkpt lat="46.600370000" lon="-72.857350000">
<ele>0</ele>
<time>2026-09-04T06:50:39Z</time>
</trkpt>
<trkpt lat="46.600150000" lon="-72.856230000">
<ele>0</ele>
<time>2026-09-04T06:50:40Z</time>
</trkpt>
<trkpt lat="46.599680000" lon="-72.853580000">
<ele>0</ele>
<time>2026-09-04T06:50:41Z</time>
</trkpt>
<trkpt lat="46.599460000" lon="-72.852280000">
<ele>0</ele>
<time>2026-09-04T06:50:42Z</time>
</trkpt>
<trkpt lat="46.599310000" lon="-72.851290000">
<ele>0</ele>
<time>2026-09-04T06:50:43Z</time>
</trkpt>
<trkpt lat="46.599260000" lon="-72.850800000">
<ele>0</ele>
<time>2026-09-04T06:50:44Z</time>
</trkpt>
<trkpt lat="46.599200000" lon="-72.849850000">
<ele>0</ele>
<time>2026-09-04T06:50:45Z</time>
</trkpt>
<trkpt lat="46.599170000" lon="-72.848850000">
<ele>0</ele>
<time>2026-09-04T06:50:46Z</time>
</trkpt>
<trkpt lat="46.599190000" lon="-72.848210000">
<ele>0</ele>
<time>2026-09-04T06:50:47Z</time>
</trkpt>
<trkpt lat="46.599260000" lon="-72.847220000">
<ele>0</ele>
<time>2026-09-04T06:50:48Z</time>
</trkpt>
<trkpt lat="46.599350000" lon="-72.846420000">
<ele>0</ele>
<time>2026-09-04T06:50:49Z</time>
</trkpt>
<trkpt lat="46.599450000" lon="-72.845570000">
<ele>0</ele>
<time>2026-09-04T06:50:50Z</time>
</trkpt>
<trkpt lat="46.599450000" lon="-72.845570000">
<ele>0</ele>
<time>2026-09-04T06:50:51Z</time>
</trkpt>
<trkpt lat="46.599630000" lon="-72.843790000">
<ele>0</ele>
<time>2026-09-04T06:50:52Z</time>
</trkpt>
<trkpt lat="46.599620000" lon="-72.843090000">
<ele>0</ele>
<time>2026-09-04T06:50:53Z</time>
</trkpt>
<trkpt lat="46.599600000" lon="-72.842770000">
<ele>0</ele>
<time>2026-09-04T06:50:54Z</time>
</trkpt>
<trkpt lat="46.599550000" lon="-72.842350000">
<ele>0</ele>
<time>2026-09-04T06:50:55Z</time>
</trkpt>
<trkpt lat="46.599480000" lon="-72.841960000">
<ele>0</ele>
<time>2026-09-04T06:50:56Z</time>
</trkpt>
<trkpt lat="46.599400000" lon="-72.841640000">
<ele>0</ele>
<time>2026-09-04T06:50:57Z</time>
</trkpt>
<trkpt lat="46.599290000" lon="-72.841310000">
<ele>0</ele>
<time>2026-09-04T06:50:58Z</time>
</trkpt>
<trkpt lat="46.599080000" lon="-72.840770000">
<ele>0</ele>
<time>2026-09-04T06:50:59Z</time>
</trkpt>
<trkpt lat="46.598960000" lon="-72.840530000">
<ele>0</ele>
<time>2026-09-04T06:51:00Z</time>
</trkpt>
<trkpt lat="46.599000000" lon="-72.840280000">
<ele>0</ele>
<time>2026-09-04T06:51:01Z</time>
</trkpt>
<trkpt lat="46.599030000" lon="-72.839770000">
<ele>0</ele>
<time>2026-09-04T06:51:02Z</time>
</trkpt>
<trkpt lat="46.599100000" lon="-72.838790000">
<ele>0</ele>
<time>2026-09-04T06:51:03Z</time>
</trkpt>
<trkpt lat="46.599180000" lon="-72.838230000">
<ele>0</ele>
<time>2026-09-04T06:51:04Z</time>
</trkpt>
<trkpt lat="46.599240000" lon="-72.837510000">
<ele>0</ele>
<time>2026-09-04T06:51:05Z</time>
</trkpt>
<trkpt lat="46.599240000" lon="-72.837510000">
<ele>0</ele>
<time>2026-09-04T06:51:06Z</time>
</trkpt>
<trkpt lat="46.599390000" lon="-72.835750000">
<ele>0</ele>
<time>2026-09-04T06:51:07Z</time>
</trkpt>
<trkpt lat="46.599360000" lon="-72.835140000">
<ele>0</ele>
<time>2026-09-04T06:51:08Z</time>
</trkpt>
<trkpt lat="46.599200000" lon="-72.834680000">
<ele>0</ele>
<time>2026-09-04T06:51:09Z</time>
</trkpt>
<trkpt lat="46.599130000" lon="-72.834520000">
<ele>0</ele>
<time>2026-09-04T06:51:10Z</time>
</trkpt>
<trkpt lat="46.599130000" lon="-72.834400000">
<ele>0</ele>
<time>2026-09-04T06:51:11Z</time>
</trkpt>
<trkpt lat="46.599290000" lon="-72.834070000">
<ele>0</ele>
<time>2026-09-04T06:51:12Z</time>
</trkpt>
<trkpt lat="46.600250000" lon="-72.832270000">
<ele>0</ele>
<time>2026-09-04T06:51:13Z</time>
</trkpt>
<trkpt lat="46.600480000" lon="-72.831550000">
<ele>0</ele>
<time>2026-09-04T06:51:14Z</time>
</trkpt>
<trkpt lat="46.600570000" lon="-72.830800000">
<ele>0</ele>
<time>2026-09-04T06:51:15Z</time>
</trkpt>
<trkpt lat="46.600570000" lon="-72.830610000">
<ele>0</ele>
<time>2026-09-04T06:51:16Z</time>
</trkpt>
<trkpt lat="46.600680000" lon="-72.830370000">
<ele>0</ele>
<time>2026-09-04T06:51:17Z</time>
</trkpt>
<trkpt lat="46.601370000" lon="-72.829170000">
<ele>0</ele>
<time>2026-09-04T06:51:18Z</time>
</trkpt>
<trkpt lat="46.601950000" lon="-72.828160000">
<ele>0</ele>
<time>2026-09-04T06:51:19Z</time>
</trkpt>
<trkpt lat="46.603130000" lon="-72.826160000">
<ele>0</ele>
<time>2026-09-04T06:51:20Z</time>
</trkpt>
<trkpt lat="46.603560000" lon="-72.825380000">
<ele>0</ele>
<time>2026-09-04T06:51:21Z</time>
</trkpt>
<trkpt lat="46.603830000" lon="-72.824840000">
<ele>0</ele>
<time>2026-09-04T06:51:22Z</time>
</trkpt>
<trkpt lat="46.604130000" lon="-72.824050000">
<ele>0</ele>
<time>2026-09-04T06:51:23Z</time>
</trkpt>
<trkpt lat="46.604560000" lon="-72.822800000">
<ele>0</ele>
<time>2026-09-04T06:51:24Z</time>
</trkpt>
<trkpt lat="46.605010000" lon="-72.821770000">
<ele>0</ele>
<time>2026-09-04T06:51:25Z</time>
</trkpt>
<trkpt lat="46.605480000" lon="-72.820810000">
<ele>0</ele>
<time>2026-09-04T06:51:26Z</time>
</trkpt>
<trkpt lat="46.606030000" lon="-72.819780000">
<ele>0</ele>
<time>2026-09-04T06:51:27Z</time>
</trkpt>
<trkpt lat="46.606700000" lon="-72.818540000">
<ele>0</ele>
<time>2026-09-04T06:51:28Z</time>
</trkpt>
<trkpt lat="46.607250000" lon="-72.817510000">
<ele>0</ele>
<time>2026-09-04T06:51:29Z</time>
</trkpt>
<trkpt lat="46.607790000" lon="-72.816540000">
<ele>0</ele>
<time>2026-09-04T06:51:30Z</time>
</trkpt>
<trkpt lat="46.608250000" lon="-72.815740000">
<ele>0</ele>
<time>2026-09-04T06:51:31Z</time>
</trkpt>
<trkpt lat="46.608660000" lon="-72.815060000">
<ele>0</ele>
<time>2026-09-04T06:51:32Z</time>
</trkpt>
<trkpt lat="46.608890000" lon="-72.814830000">
<ele>0</ele>
<time>2026-09-04T06:51:33Z</time>
</trkpt>
<trkpt lat="46.608720000" lon="-72.814350000">
<ele>0</ele>
<time>2026-09-04T06:51:34Z</time>
</trkpt>
<trkpt lat="46.608640000" lon="-72.814150000">
<ele>0</ele>
<time>2026-09-04T06:51:35Z</time>
</trkpt>
<trkpt lat="46.608480000" lon="-72.813860000">
<ele>0</ele>
<time>2026-09-04T06:51:36Z</time>
</trkpt>
<trkpt lat="46.608350000" lon="-72.813580000">
<ele>0</ele>
<time>2026-09-04T06:51:37Z</time>
</trkpt>
<trkpt lat="46.608360000" lon="-72.813390000">
<ele>0</ele>
<time>2026-09-04T06:51:38Z</time>
</trkpt>
<trkpt lat="46.608320000" lon="-72.813080000">
<ele>0</ele>
<time>2026-09-04T06:51:39Z</time>
</trkpt>
<trkpt lat="46.608160000" lon="-72.812630000">
<ele>0</ele>
<time>2026-09-04T06:51:40Z</time>
</trkpt>
<trkpt lat="46.608160000" lon="-72.812630000">
<ele>0</ele>
<time>2026-09-04T06:51:41Z</time>
</trkpt>
<trkpt lat="46.607580000" lon="-72.811020000">
<ele>0</ele>
<time>2026-09-04T06:51:42Z</time>
</trkpt>
<trkpt lat="46.607220000" lon="-72.810120000">
<ele>0</ele>
<time>2026-09-04T06:51:43Z</time>
</trkpt>
<trkpt lat="46.606920000" lon="-72.809450000">
<ele>0</ele>
<time>2026-09-04T06:51:44Z</time>
</trkpt>
<trkpt lat="46.606560000" lon="-72.808880000">
<ele>0</ele>
<time>2026-09-04T06:51:45Z</time>
</trkpt>
<trkpt lat="46.606430000" lon="-72.808700000">
<ele>0</ele>
<time>2026-09-04T06:51:46Z</time>
</trkpt>
<trkpt lat="46.606020000" lon="-72.808190000">
<ele>0</ele>
<time>2026-09-04T06:51:47Z</time>
</trkpt>
<trkpt lat="46.605630000" lon="-72.807650000">
<ele>0</ele>
<time>2026-09-04T06:51:48Z</time>
</trkpt>
<trkpt lat="46.605250000" lon="-72.807090000">
<ele>0</ele>
<time>2026-09-04T06:51:49Z</time>
</trkpt>
<trkpt lat="46.605130000" lon="-72.806900000">
<ele>0</ele>
<time>2026-09-04T06:51:50Z</time>
</trkpt>
<trkpt lat="46.604750000" lon="-72.806340000">
<ele>0</ele>
<time>2026-09-04T06:51:51Z</time>
</trkpt>
<trkpt lat="46.604530000" lon="-72.805930000">
<ele>0</ele>
<time>2026-09-04T06:51:52Z</time>
</trkpt>
<trkpt lat="46.604200000" lon="-72.805220000">
<ele>0</ele>
<time>2026-09-04T06:51:53Z</time>
</trkpt>
<trkpt lat="46.604200000" lon="-72.805220000">
<ele>0</ele>
<time>2026-09-04T06:51:54Z</time>
</trkpt>
<trkpt lat="46.603600000" lon="-72.803790000">
<ele>0</ele>
<time>2026-09-04T06:51:55Z</time>
</trkpt>
<trkpt lat="46.602750000" lon="-72.801690000">
<ele>0</ele>
<time>2026-09-04T06:51:56Z</time>
</trkpt>
<trkpt lat="46.602480000" lon="-72.801010000">
<ele>0</ele>
<time>2026-09-04T06:51:57Z</time>
</trkpt>
<trkpt lat="46.602290000" lon="-72.800500000">
<ele>0</ele>
<time>2026-09-04T06:51:58Z</time>
</trkpt>
<trkpt lat="46.602200000" lon="-72.800140000">
<ele>0</ele>
<time>2026-09-04T06:51:59Z</time>
</trkpt>
<trkpt lat="46.602160000" lon="-72.799800000">
<ele>0</ele>
<time>2026-09-04T06:52:00Z</time>
</trkpt>
<trkpt lat="46.602150000" lon="-72.799270000">
<ele>0</ele>
<time>2026-09-04T06:52:01Z</time>
</trkpt>
<trkpt lat="46.602190000" lon="-72.798700000">
<ele>0</ele>
<time>2026-09-04T06:52:02Z</time>
</trkpt>
<trkpt lat="46.602240000" lon="-72.798130000">
<ele>0</ele>
<time>2026-09-04T06:52:03Z</time>
</trkpt>
<trkpt lat="46.602250000" lon="-72.797800000">
<ele>0</ele>
<time>2026-09-04T06:52:04Z</time>
</trkpt>
<trkpt lat="46.602210000" lon="-72.797320000">
<ele>0</ele>
<time>2026-09-04T06:52:05Z</time>
</trkpt>
<trkpt lat="46.602170000" lon="-72.797070000">
<ele>0</ele>
<time>2026-09-04T06:52:06Z</time>
</trkpt>
<trkpt lat="46.602010000" lon="-72.796660000">
<ele>0</ele>
<time>2026-09-04T06:52:07Z</time>
</trkpt>
<trkpt lat="46.601440000" lon="-72.795580000">
<ele>0</ele>
<time>2026-09-04T06:52:08Z</time>
</trkpt>
<trkpt lat="46.600970000" lon="-72.794740000">
<ele>0</ele>
<time>2026-09-04T06:52:09Z</time>
</trkpt>
<trkpt lat="46.600780000" lon="-72.794420000">
<ele>0</ele>
<time>2026-09-04T06:52:10Z</time>
</trkpt>
<trkpt lat="46.600590000" lon="-72.794050000">
<ele>0</ele>
<time>2026-09-04T06:52:11Z</time>
</trkpt>
<trkpt lat="46.600400000" lon="-72.793510000">
<ele>0</ele>
<time>2026-09-04T06:52:12Z</time>
</trkpt>
<trkpt lat="46.600340000" lon="-72.793280000">
<ele>0</ele>
<time>2026-09-04T06:52:13Z</time>
</trkpt>
<trkpt lat="46.600340000" lon="-72.793280000">
<ele>0</ele>
<time>2026-09-04T06:52:14Z</time>
</trkpt>
<trkpt lat="46.600280000" lon="-72.792940000">
<ele>0</ele>
<time>2026-09-04T06:52:15Z</time>
</trkpt>
<trkpt lat="46.600260000" lon="-72.792640000">
<ele>0</ele>
<time>2026-09-04T06:52:16Z</time>
</trkpt>
<trkpt lat="46.600280000" lon="-72.792230000">
<ele>0</ele>
<time>2026-09-04T06:52:17Z</time>
</trkpt>
<trkpt lat="46.600320000" lon="-72.791850000">
<ele>0</ele>
<time>2026-09-04T06:52:18Z</time>
</trkpt>
<trkpt lat="46.600440000" lon="-72.791280000">
<ele>0</ele>
<time>2026-09-04T06:52:19Z</time>
</trkpt>
<trkpt lat="46.600730000" lon="-72.789760000">
<ele>0</ele>
<time>2026-09-04T06:52:20Z</time>
</trkpt>
<trkpt lat="46.601020000" lon="-72.788240000">
<ele>0</ele>
<time>2026-09-04T06:52:21Z</time>
</trkpt>
<trkpt lat="46.601100000" lon="-72.787570000">
<ele>0</ele>
<time>2026-09-04T06:52:22Z</time>
</trkpt>
<trkpt lat="46.601120000" lon="-72.786950000">
<ele>0</ele>
<time>2026-09-04T06:52:23Z</time>
</trkpt>
<trkpt lat="46.601100000" lon="-72.786450000">
<ele>0</ele>
<time>2026-09-04T06:52:24Z</time>
</trkpt>
<trkpt lat="46.600970000" lon="-72.785400000">
<ele>0</ele>
<time>2026-09-04T06:52:25Z</time>
</trkpt>
<trkpt lat="46.600840000" lon="-72.784240000">
<ele>0</ele>
<time>2026-09-04T06:52:26Z</time>
</trkpt>
<trkpt lat="46.600740000" lon="-72.783510000">
<ele>0</ele>
<time>2026-09-04T06:52:27Z</time>
</trkpt>
<trkpt lat="46.600700000" lon="-72.783270000">
<ele>0</ele>
<time>2026-09-04T06:52:28Z</time>
</trkpt>
<trkpt lat="46.600700000" lon="-72.783270000">
<ele>0</ele>
<time>2026-09-04T06:52:29Z</time>
</trkpt>
<trkpt lat="46.600540000" lon="-72.782610000">
<ele>0</ele>
<time>2026-09-04T06:52:30Z</time>
</trkpt>
<trkpt lat="46.600270000" lon="-72.781640000">
<ele>0</ele>
<time>2026-09-04T06:52:31Z</time>
</trkpt>
<trkpt lat="46.599760000" lon="-72.779950000">
<ele>0</ele>
<time>2026-09-04T06:52:32Z</time>
</trkpt>
<trkpt lat="46.599580000" lon="-72.779500000">
<ele>0</ele>
<time>2026-09-04T06:52:33Z</time>
</trkpt>
<trkpt lat="46.599470000" lon="-72.779290000">
<ele>0</ele>
<time>2026-09-04T06:52:34Z</time>
</trkpt>
<trkpt lat="46.599180000" lon="-72.778750000">
<ele>0</ele>
<time>2026-09-04T06:52:35Z</time>
</trkpt>
<trkpt lat="46.598990000" lon="-72.778290000">
<ele>0</ele>
<time>2026-09-04T06:52:36Z</time>
</trkpt>
<trkpt lat="46.598870000" lon="-72.777950000">
<ele>0</ele>
<time>2026-09-04T06:52:37Z</time>
</trkpt>
<trkpt lat="46.598830000" lon="-72.777630000">
<ele>0</ele>
<time>2026-09-04T06:52:38Z</time>
</trkpt>
<trkpt lat="46.598830000" lon="-72.777300000">
<ele>0</ele>
<time>2026-09-04T06:52:39Z</time>
</trkpt>
<trkpt lat="46.598920000" lon="-72.776920000">
<ele>0</ele>
<time>2026-09-04T06:52:40Z</time>
</trkpt>
<trkpt lat="46.599040000" lon="-72.776650000">
<ele>0</ele>
<time>2026-09-04T06:52:41Z</time>
</trkpt>
<trkpt lat="46.599230000" lon="-72.776340000">
<ele>0</ele>
<time>2026-09-04T06:52:42Z</time>
</trkpt>
<trkpt lat="46.599470000" lon="-72.775940000">
<ele>0</ele>
<time>2026-09-04T06:52:43Z</time>
</trkpt>
<trkpt lat="46.599710000" lon="-72.775550000">
<ele>0</ele>
<time>2026-09-04T06:52:44Z</time>
</trkpt>
<trkpt lat="46.599990000" lon="-72.775070000">
<ele>0</ele>
<time>2026-09-04T06:52:45Z</time>
</trkpt>
<trkpt lat="46.599990000" lon="-72.775070000">
<ele>0</ele>
<time>2026-09-04T06:52:46Z</time>
</trkpt>
<trkpt lat="46.600300000" lon="-72.774560000">
<ele>0</ele>
<time>2026-09-04T06:52:47Z</time>
</trkpt>
<trkpt lat="46.598700000" lon="-72.772610000">
<ele>0</ele>
<time>2026-09-04T06:52:48Z</time>
</trkpt>
<trkpt lat="46.597480000" lon="-72.771140000">
<ele>0</ele>
<time>2026-09-04T06:52:49Z</time>
</trkpt>
<trkpt lat="46.596060000" lon="-72.769460000">
<ele>0</ele>
<time>2026-09-04T06:52:50Z</time>
</trkpt>
<trkpt lat="46.596060000" lon="-72.769460000">
<ele>0</ele>
<time>2026-09-04T06:52:51Z</time>
</trkpt>
<trkpt lat="46.595590000" lon="-72.768880000">
<ele>0</ele>
<time>2026-09-04T06:52:52Z</time>
</trkpt>
<trkpt lat="46.595220000" lon="-72.768310000">
<ele>0</ele>
<time>2026-09-04T06:52:53Z</time>
</trkpt>
<trkpt lat="46.594890000" lon="-72.767690000">
<ele>0</ele>
<time>2026-09-04T06:52:54Z</time>
</trkpt>
<trkpt lat="46.594670000" lon="-72.767280000">
<ele>0</ele>
<time>2026-09-04T06:52:55Z</time>
</trkpt>
<trkpt lat="46.594430000" lon="-72.766890000">
<ele>0</ele>
<time>2026-09-04T06:52:56Z</time>
</trkpt>
<trkpt lat="46.593930000" lon="-72.766140000">
<ele>0</ele>
<time>2026-09-04T06:52:57Z</time>
</trkpt>
<trkpt lat="46.592930000" lon="-72.764640000">
<ele>0</ele>
<time>2026-09-04T06:52:58Z</time>
</trkpt>
<trkpt lat="46.590300000" lon="-72.760680000">
<ele>0</ele>
<time>2026-09-04T06:52:59Z</time>
</trkpt>
<trkpt lat="46.588670000" lon="-72.758210000">
<ele>0</ele>
<time>2026-09-04T06:53:00Z</time>
</trkpt>
<trkpt lat="46.588360000" lon="-72.757650000">
<ele>0</ele>
<time>2026-09-04T06:53:01Z</time>
</trkpt>
<trkpt lat="46.587820000" lon="-72.756520000">
<ele>0</ele>
<time>2026-09-04T06:53:02Z</time>
</trkpt>
<trkpt lat="46.587710000" lon="-72.756280000">
<ele>0</ele>
<time>2026-09-04T06:53:03Z</time>
</trkpt>
<trkpt lat="46.587570000" lon="-72.755960000">
<ele>0</ele>
<time>2026-09-04T06:53:04Z</time>
</trkpt>
<trkpt lat="46.586770000" lon="-72.756240000">
<ele>0</ele>
<time>2026-09-04T06:53:05Z</time>
</trkpt>
<trkpt lat="46.586700000" lon="-72.756270000">
<ele>0</ele>
<time>2026-09-04T06:53:06Z</time>
</trkpt>
<trkpt lat="46.586180000" lon="-72.756470000">
<ele>0</ele>
<time>2026-09-04T06:53:07Z</time>
</trkpt>
<trkpt lat="46.585830000" lon="-72.756610000">
<ele>0</ele>
<time>2026-09-04T06:53:08Z</time>
</trkpt>
<trkpt lat="46.585150000" lon="-72.756910000">
<ele>0</ele>
<time>2026-09-04T06:53:09Z</time>
</trkpt>
<trkpt lat="46.584520000" lon="-72.757230000">
<ele>0</ele>
<time>2026-09-04T06:53:10Z</time>
</trkpt>
<trkpt lat="46.584520000" lon="-72.757230000">
<ele>0</ele>
<time>2026-09-04T06:53:11Z</time>
</trkpt>
<trkpt lat="46.584130000" lon="-72.757440000">
<ele>0</ele>
<time>2026-09-04T06:53:12Z</time>
</trkpt>
<trkpt lat="46.583730000" lon="-72.757730000">
<ele>0</ele>
<time>2026-09-04T06:53:13Z</time>
</trkpt>
<trkpt lat="46.583590000" lon="-72.757490000">
<ele>0</ele>
<time>2026-09-04T06:53:14Z</time>
</trkpt>
<trkpt lat="46.583410000" lon="-72.757170000">
<ele>0</ele>
<time>2026-09-04T06:53:15Z</time>
</trkpt>
<trkpt lat="46.583400000" lon="-72.756970000">
<ele>0</ele>
<time>2026-09-04T06:53:16Z</time>
</trkpt>
<trkpt lat="46.583410000" lon="-72.756850000">
<ele>0</ele>
<time>2026-09-04T06:53:17Z</time>
</trkpt>
<trkpt lat="46.583420000" lon="-72.756610000">
<ele>0</ele>
<time>2026-09-04T06:53:18Z</time>
</trkpt>
<trkpt lat="46.583320000" lon="-72.756510000">
<ele>0</ele>
<time>2026-09-04T06:53:19Z</time>
</trkpt>
<trkpt lat="46.583160000" lon="-72.756320000">
<ele>0</ele>
<time>2026-09-04T06:53:20Z</time>
</trkpt>
<trkpt lat="46.583100000" lon="-72.756190000">
<ele>0</ele>
<time>2026-09-04T06:53:21Z</time>
</trkpt>
<trkpt lat="46.583080000" lon="-72.756120000">
<ele>0</ele>
<time>2026-09-04T06:53:22Z</time>
</trkpt>
<trkpt lat="46.583080000" lon="-72.756120000">
<ele>0</ele>
<time>2026-09-04T06:53:23Z</time>
</trkpt>
<trkpt lat="46.582830000" lon="-72.755440000">
<ele>0</ele>
<time>2026-09-04T06:53:24Z</time>
</trkpt>
<trkpt lat="46.582530000" lon="-72.754790000">
<ele>0</ele>
<time>2026-09-04T06:53:25Z</time>
</trkpt>
<trkpt lat="46.582270000" lon="-72.754240000">
<ele>0</ele>
<time>2026-09-04T06:53:26Z</time>
</trkpt>
<trkpt lat="46.582100000" lon="-72.754040000">
<ele>0</ele>
<time>2026-09-04T06:53:27Z</time>
</trkpt>
<trkpt lat="46.581930000" lon="-72.753820000">
<ele>0</ele>
<time>2026-09-04T06:53:28Z</time>
</trkpt>
<trkpt lat="46.581900000" lon="-72.753780000">
<ele>0</ele>
<time>2026-09-04T06:53:29Z</time>
</trkpt>
<trkpt lat="46.581770000" lon="-72.753740000">
<ele>0</ele>
<time>2026-09-04T06:53:30Z</time>
</trkpt>
<trkpt lat="46.581360000" lon="-72.753550000">
<ele>0</ele>
<time>2026-09-04T06:53:31Z</time>
</trkpt>
<trkpt lat="46.581030000" lon="-72.753430000">
<ele>0</ele>
<time>2026-09-04T06:53:32Z</time>
</trkpt>
<trkpt lat="46.580930000" lon="-72.753320000">
<ele>0</ele>
<time>2026-09-04T06:53:33Z</time>
</trkpt>
<trkpt lat="46.580660000" lon="-72.753150000">
<ele>0</ele>
<time>2026-09-04T06:53:34Z</time>
</trkpt>
<trkpt lat="46.580450000" lon="-72.753140000">
<ele>0</ele>
<time>2026-09-04T06:53:35Z</time>
</trkpt>
<trkpt lat="46.580210000" lon="-72.753090000">
<ele>0</ele>
<time>2026-09-04T06:53:36Z</time>
</trkpt>
<trkpt lat="46.579970000" lon="-72.753010000">
<ele>0</ele>
<time>2026-09-04T06:53:38Z</time>
</trkpt>
<trkpt lat="46.579760000" lon="-72.753000000">
<ele>0</ele>
<time>2026-09-04T06:53:39Z</time>
</trkpt>
<trkpt lat="46.579530000" lon="-72.752910000">
<ele>0</ele>
<time>2026-09-04T06:53:40Z</time>
</trkpt>
<trkpt lat="46.579350000" lon="-72.752810000">
<ele>0</ele>
<time>2026-09-04T06:53:41Z</time>
</trkpt>
<trkpt lat="46.579060000" lon="-72.752540000">
<ele>0</ele>
<time>2026-09-04T06:53:42Z</time>
</trkpt>
<trkpt lat="46.578980000" lon="-72.752520000">
<ele>0</ele>
<time>2026-09-04T06:53:43Z</time>
</trkpt>
<trkpt lat="46.578780000" lon="-72.752500000">
<ele>0</ele>
<time>2026-09-04T06:53:44Z</time>
</trkpt>
<trkpt lat="46.578570000" lon="-72.752530000">
<ele>0</ele>
<time>2026-09-04T06:53:45Z</time>
</trkpt>
<trkpt lat="46.578310000" lon="-72.752650000">
<ele>0</ele>
<time>2026-09-04T06:53:46Z</time>
</trkpt>
<trkpt lat="46.578100000" lon="-72.752680000">
<ele>0</ele>
<time>2026-09-04T06:53:47Z</time>
</trkpt>
<trkpt lat="46.577960000" lon="-72.752660000">
<ele>0</ele>
<time>2026-09-04T06:53:48Z</time>
</trkpt>
<trkpt lat="46.577960000" lon="-72.752660000">
<ele>0</ele>
<time>2026-09-04T06:53:49Z</time>
</trkpt>
<trkpt lat="46.577760000" lon="-72.752600000">
<ele>0</ele>
<time>2026-09-04T06:53:50Z</time>
</trkpt>
<trkpt lat="46.577500000" lon="-72.752530000">
<ele>0</ele>
<time>2026-09-04T06:53:51Z</time>
</trkpt>
<trkpt lat="46.577360000" lon="-72.752630000">
<ele>0</ele>
<time>2026-09-04T06:53:52Z</time>
</trkpt>
<trkpt lat="46.577240000" lon="-72.752740000">
<ele>0</ele>
<time>2026-09-04T06:53:53Z</time>
</trkpt>
<trkpt lat="46.577080000" lon="-72.752760000">
<ele>0</ele>
<time>2026-09-04T06:53:54Z</time>
</trkpt>
<trkpt lat="46.576980000" lon="-72.752680000">
<ele>0</ele>
<time>2026-09-04T06:53:55Z</time>
</trkpt>
<trkpt lat="46.576880000" lon="-72.752490000">
<ele>0</ele>
<time>2026-09-04T06:53:56Z</time>
</trkpt>
<trkpt lat="46.576790000" lon="-72.752380000">
<ele>0</ele>
<time>2026-09-04T06:53:57Z</time>
</trkpt>
<trkpt lat="46.576480000" lon="-72.752340000">
<ele>0</ele>
<time>2026-09-04T06:53:58Z</time>
</trkpt>
<trkpt lat="46.576300000" lon="-72.752280000">
<ele>0</ele>
<time>2026-09-04T06:53:59Z</time>
</trkpt>
<trkpt lat="46.576120000" lon="-72.752260000">
<ele>0</ele>
<time>2026-09-04T06:54:00Z</time>
</trkpt>
<trkpt lat="46.575610000" lon="-72.752390000">
<ele>0</ele>
<time>2026-09-04T06:54:01Z</time>
</trkpt>
<trkpt lat="46.575420000" lon="-72.752280000">
<ele>0</ele>
<time>2026-09-04T06:54:02Z</time>
</trkpt>
<trkpt lat="46.575210000" lon="-72.752260000">
<ele>0</ele>
<time>2026-09-04T06:54:03Z</time>
</trkpt>
<trkpt lat="46.574810000" lon="-72.752290000">
<ele>0</ele>
<time>2026-09-04T06:54:04Z</time>
</trkpt>
<trkpt lat="46.574310000" lon="-72.752340000">
<ele>0</ele>
<time>2026-09-04T06:54:05Z</time>
</trkpt>
<trkpt lat="46.573960000" lon="-72.752380000">
<ele>0</ele>
<time>2026-09-04T06:54:06Z</time>
</trkpt>
<trkpt lat="46.573630000" lon="-72.752460000">
<ele>0</ele>
<time>2026-09-04T06:54:07Z</time>
</trkpt>
<trkpt lat="46.573280000" lon="-72.752580000">
<ele>0</ele>
<time>2026-09-04T06:54:08Z</time>
</trkpt>
<trkpt lat="46.573110000" lon="-72.752660000">
<ele>0</ele>
<time>2026-09-04T06:54:09Z</time>
</trkpt>
<trkpt lat="46.572950000" lon="-72.752780000">
<ele>0</ele>
<time>2026-09-04T06:54:10Z</time>
</trkpt>
<trkpt lat="46.572750000" lon="-72.752960000">
<ele>0</ele>
<time>2026-09-04T06:54:11Z</time>
</trkpt>
<trkpt lat="46.572450000" lon="-72.753330000">
<ele>0</ele>
<time>2026-09-04T06:54:12Z</time>
</trkpt>
<trkpt lat="46.571910000" lon="-72.753730000">
<ele>0</ele>
<time>2026-09-04T06:54:13Z</time>
</trkpt>
<trkpt lat="46.571560000" lon="-72.753960000">
<ele>0</ele>
<time>2026-09-04T06:54:14Z</time>
</trkpt>
<trkpt lat="46.571360000" lon="-72.754090000">
<ele>0</ele>
<time>2026-09-04T06:54:15Z</time>
</trkpt>
<trkpt lat="46.571220000" lon="-72.754140000">
<ele>0</ele>
<time>2026-09-04T06:54:16Z</time>
</trkpt>
<trkpt lat="46.571050000" lon="-72.754130000">
<ele>0</ele>
<time>2026-09-04T06:54:17Z</time>
</trkpt>
<trkpt lat="46.570870000" lon="-72.754080000">
<ele>0</ele>
<time>2026-09-04T06:54:18Z</time>
</trkpt>
<trkpt lat="46.570320000" lon="-72.753840000">
<ele>0</ele>
<time>2026-09-04T06:54:19Z</time>
</trkpt>
<trkpt lat="46.569970000" lon="-72.753710000">
<ele>0</ele>
<time>2026-09-04T06:54:20Z</time>
</trkpt>
<trkpt lat="46.569800000" lon="-72.753640000">
<ele>0</ele>
<time>2026-09-04T06:54:21Z</time>
</trkpt>
<trkpt lat="46.569630000" lon="-72.753540000">
<ele>0</ele>
<time>2026-09-04T06:54:22Z</time>
</trkpt>
<trkpt lat="46.569300000" lon="-72.753400000">
<ele>0</ele>
<time>2026-09-04T06:54:23Z</time>
</trkpt>
<trkpt lat="46.569030000" lon="-72.753390000">
<ele>0</ele>
<time>2026-09-04T06:54:24Z</time>
</trkpt>
<trkpt lat="46.568890000" lon="-72.753490000">
<ele>0</ele>
<time>2026-09-04T06:54:25Z</time>
</trkpt>
<trkpt lat="46.568630000" lon="-72.753940000">
<ele>0</ele>
<time>2026-09-04T06:54:26Z</time>
</trkpt>
<trkpt lat="46.568520000" lon="-72.754210000">
<ele>0</ele>
<time>2026-09-04T06:54:27Z</time>
</trkpt>
<trkpt lat="46.568450000" lon="-72.754790000">
<ele>0</ele>
<time>2026-09-04T06:54:28Z</time>
</trkpt>
<trkpt lat="46.568390000" lon="-72.755110000">
<ele>0</ele>
<time>2026-09-04T06:54:29Z</time>
</trkpt>
<trkpt lat="46.568200000" lon="-72.755850000">
<ele>0</ele>
<time>2026-09-04T06:54:30Z</time>
</trkpt>
<trkpt lat="46.568080000" lon="-72.756220000">
<ele>0</ele>
<time>2026-09-04T06:54:31Z</time>
</trkpt>
<trkpt lat="46.567920000" lon="-72.756410000">
<ele>0</ele>
<time>2026-09-04T06:54:32Z</time>
</trkpt>
<trkpt lat="46.567720000" lon="-72.756660000">
<ele>0</ele>
<time>2026-09-04T06:54:33Z</time>
</trkpt>
<trkpt lat="46.567620000" lon="-72.756650000">
<ele>0</ele>
<time>2026-09-04T06:54:34Z</time>
</trkpt>
<trkpt lat="46.567260000" lon="-72.756620000">
<ele>0</ele>
<time>2026-09-04T06:54:35Z</time>
</trkpt>
<trkpt lat="46.567060000" lon="-72.756550000">
<ele>0</ele>
<time>2026-09-04T06:54:36Z</time>
</trkpt>
<trkpt lat="46.566940000" lon="-72.756430000">
<ele>0</ele>
<time>2026-09-04T06:54:37Z</time>
</trkpt>
<trkpt lat="46.566650000" lon="-72.756110000">
<ele>0</ele>
<time>2026-09-04T06:54:38Z</time>
</trkpt>
<trkpt lat="46.566380000" lon="-72.755760000">
<ele>0</ele>
<time>2026-09-04T06:54:39Z</time>
</trkpt>
<trkpt lat="46.566320000" lon="-72.755520000">
<ele>0</ele>
<time>2026-09-04T06:54:40Z</time>
</trkpt>
<trkpt lat="46.566200000" lon="-72.755320000">
<ele>0</ele>
<time>2026-09-04T06:54:41Z</time>
</trkpt>
<trkpt lat="46.565960000" lon="-72.754960000">
<ele>0</ele>
<time>2026-09-04T06:54:42Z</time>
</trkpt>
<trkpt lat="46.565900000" lon="-72.754880000">
<ele>0</ele>
<time>2026-09-04T06:54:43Z</time>
</trkpt>
<trkpt lat="46.565800000" lon="-72.754860000">
<ele>0</ele>
<time>2026-09-04T06:54:44Z</time>
</trkpt>
<trkpt lat="46.565610000" lon="-72.754880000">
<ele>0</ele>
<time>2026-09-04T06:54:45Z</time>
</trkpt>
<trkpt lat="46.565430000" lon="-72.754930000">
<ele>0</ele>
<time>2026-09-04T06:54:46Z</time>
</trkpt>
<trkpt lat="46.565260000" lon="-72.754970000">
<ele>0</ele>
<time>2026-09-04T06:54:47Z</time>
</trkpt>
<trkpt lat="46.565090000" lon="-72.755010000">
<ele>0</ele>
<time>2026-09-04T06:54:48Z</time>
</trkpt>
<trkpt lat="46.564910000" lon="-72.755100000">
<ele>0</ele>
<time>2026-09-04T06:54:49Z</time>
</trkpt>
<trkpt lat="46.564750000" lon="-72.755210000">
<ele>0</ele>
<time>2026-09-04T06:54:50Z</time>
</trkpt>
<trkpt lat="46.564090000" lon="-72.755820000">
<ele>0</ele>
<time>2026-09-04T06:54:51Z</time>
</trkpt>
<trkpt lat="46.563830000" lon="-72.756130000">
<ele>0</ele>
<time>2026-09-04T06:54:52Z</time>
</trkpt>
<trkpt lat="46.563760000" lon="-72.756140000">
<ele>0</ele>
<time>2026-09-04T06:54:53Z</time>
</trkpt>
</trkseg>
</trk>
</gpx>
